Provisional Data: North Branch Muddy Creek near Muddy Creek Forks, PA


Please select a monitoring station.
Please select start date.
Please select start date.

Toggle Unit: C/F Toggle Unit: C/F
Sample Time Temperature (C) Temperature (F) Specific Conductivity (mS/cm) pH   Turbidity (NTU+) DO (mg/L)
4/13/2022 12:00:00 AM 14.45 58.01 0.159 7.13 13.73 9.53
4/13/2022 12:15:00 AM 14.39 57.902 0.159 7.12 12.1 9.51
4/13/2022 12:30:00 AM 14.33 57.794 0.159 7.12 11.28 9.55
4/13/2022 12:45:00 AM 14.25 57.65 0.159 7.11 14.24 9.56
4/13/2022 1:00:00 AM 14.19 57.542 0.159 7.1 12.62 9.55
4/13/2022 1:15:00 AM 14.12 57.416 0.159 7.1 12.48 9.6
4/13/2022 1:30:00 AM 14.04 57.272 0.16 7.09 12.59 9.61
4/13/2022 1:45:00 AM 13.96 57.128 0.16 7.09 12.97 9.63
4/13/2022 2:00:00 AM 13.88 56.984 0.16 7.08 20.06 9.65
4/13/2022 2:15:00 AM 13.79 56.822 0.16 7.08 10.81 9.68
4/13/2022 2:30:00 AM 13.7 56.66 0.16 7.08 12.04 9.68
4/13/2022 2:45:00 AM 13.61 56.498 0.16 7.08 11.19 9.73
4/13/2022 3:00:00 AM 13.51 56.318 0.16 7.09 11.33 9.75
4/13/2022 3:15:00 AM 13.41 56.138 0.16 7.11 16.73 9.79
4/13/2022 3:30:00 AM 13.31 55.958 0.16 7.11 11.37 9.8
4/13/2022 3:45:00 AM 13.21 55.778 0.161 7.1 19.38 9.83
4/13/2022 4:00:00 AM 13.12 55.616 0.161 7.1 11.36 9.86
4/13/2022 4:15:00 AM 13.01 55.418 0.161 7.1 12.31 9.9
4/13/2022 4:30:00 AM 12.91 55.238 0.161 7.1 9.88 9.9
4/13/2022 4:45:00 AM 12.81 55.058 0.161 7.09 10.18 9.94
4/13/2022 5:00:00 AM 12.71 54.878 0.161 7.1 19.5 9.98
4/13/2022 5:15:00 AM 12.61 54.698 0.161 7.08 20.2 10
4/13/2022 5:30:00 AM 12.52 54.536 0.161 7.1 9.82 10.03
4/13/2022 5:45:00 AM 12.43 54.374 0.162 7.09 15.96 10.05
4/13/2022 6:00:00 AM 12.33 54.194 0.165 7.09 13.55 10.08
4/13/2022 6:15:00 AM 12.23 54.014 0.162 7.1 11.88 10.11
4/13/2022 6:30:00 AM 12.13 53.834 0.162 7.1 11.6 10.15
4/13/2022 6:45:00 AM 12.04 53.672 0.162 7.1 15.77 10.19
4/13/2022 7:00:00 AM 11.96 53.528 0.162 7.1 11.44 10.2
4/13/2022 7:15:00 AM 11.88 53.384 0.162 7.1 10.47 10.27
4/13/2022 7:30:00 AM 11.81 53.258 0.162 7.11 11.2 10.36
4/13/2022 7:45:00 AM 11.74 53.132 0.162 7.11 10.97 10.43
4/13/2022 8:00:00 AM 11.69 53.042 0.163 7.12 18.35 10.5
4/13/2022 8:15:00 AM 11.64 52.952 0.163 7.13 24.08 10.55
4/13/2022 8:30:00 AM 11.59 52.862 0.163 7.13 10.09 10.63
4/13/2022 8:45:00 AM 11.57 52.826 0.163 7.12 10.37 10.69
4/13/2022 9:00:00 AM 11.56 52.808 0.163 7.14 13.02 10.78
4/13/2022 9:15:00 AM 11.59 52.862 0.162 7.15 9.1 10.84
4/13/2022 9:30:00 AM 11.64 52.952 0.162 7.15 9.16 10.96
4/13/2022 9:45:00 AM 11.73 53.114 0.162 7.17 9.83 11.07
4/13/2022 10:00:00 AM 11.86 53.348 0.162 7.18 9.74 11.16
4/13/2022 10:15:00 AM 12 53.6 0.162 7.19 10.52 11.22
4/13/2022 10:30:00 AM 12.16 53.888 0.161 7.2 9.11 11.29
4/13/2022 10:45:00 AM 12.34 54.212 0.161 7.22 8.65 11.35
4/13/2022 11:00:00 AM 12.55 54.59 0.161 7.23 23.62 11.41
4/13/2022 11:15:00 AM 12.75 54.95 0.16 7.24 9.04 11.43
4/13/2022 11:30:00 AM 12.91 55.238 0.16 7.26 8.97 11.45
4/13/2022 11:45:00 AM 13.12 55.616 0.16 7.27 8.47 11.47
4/13/2022 12:00:00 PM 13.28 55.904 0.16 7.29 9.08 11.48
4/13/2022 12:15:00 PM 13.54 56.372 0.16 7.3 11.07 11.5
4/13/2022 12:30:00 PM 13.75 56.75 0.159 7.33 9.01 11.49
4/13/2022 12:45:00 PM 13.94 57.092 0.159 7.35 9.22 11.46
4/13/2022 1:00:00 PM 14.16 57.488 0.159 7.34 9.03 11.45
4/13/2022 1:15:00 PM 14.38 57.884 0.159 7.35 9.35 11.45
4/13/2022 1:30:00 PM 14.56 58.208 0.159 7.36 8.31 11.43
4/13/2022 1:45:00 PM 14.69 58.442 0.159 7.38 8.58 11.38
4/13/2022 2:00:00 PM 14.77 58.586 0.159 7.39 13.28 11.34
4/13/2022 2:15:00 PM 14.89 58.802 0.159 7.38 14.73 11.29
4/13/2022 2:30:00 PM 14.98 58.964 0.159 7.4 9.4 11.26
4/13/2022 2:45:00 PM 15.13 59.234 0.159 7.42 9.77 11.26
4/13/2022 3:00:00 PM 15.23 59.414 0.159 7.46 9.13 11.23
4/13/2022 3:15:00 PM 15.31 59.558 0.159 7.46 17.87 11.16
4/13/2022 3:30:00 PM 15.4 59.72 0.158 7.48 9.06 11.13
4/13/2022 3:45:00 PM 15.5 59.9 0.158 7.48 9.76 11.08
4/13/2022 4:00:00 PM 15.59 60.062 0.158 7.5 9.74 11.04
4/13/2022 4:15:00 PM 15.69 60.242 0.158 7.5 9.05 11
4/13/2022 4:30:00 PM 15.74 60.332 0.158 7.52 8.63 10.94
4/13/2022 4:45:00 PM 15.79 60.422 0.158 7.53 8.51 10.88
4/13/2022 5:00:00 PM 15.8 60.44 0.158 7.51 8.77 10.81
4/13/2022 5:15:00 PM 15.81 60.458 0.158 7.5 9.97 10.72
4/13/2022 5:30:00 PM 15.82 60.476 0.158 7.52 8.57 10.67
4/13/2022 5:45:00 PM 15.84 60.512 0.158 7.52 10.91 10.58
4/13/2022 6:00:00 PM 15.87 60.566 0.158 7.53 9.26 10.55
4/13/2022 6:15:00 PM 15.9 60.62 0.158 7.53 10.27 10.5
4/13/2022 6:30:00 PM 15.9 60.62 0.158 7.54 11.87 10.44
4/13/2022 6:45:00 PM 15.89 60.602 0.158 7.53 10.11 10.32
4/13/2022 7:00:00 PM 15.87 60.566 0.158 7.53 10 10.23
4/13/2022 7:15:00 PM 15.87 60.566 0.158 7.52 11.09 10.12
4/13/2022 7:30:00 PM 15.85 60.53 0.158 7.5 9.6 10.02
4/13/2022 7:45:00 PM 15.83 60.494 0.159 7.49 9.8 9.92
4/13/2022 8:00:00 PM 15.8 60.44 0.159 7.47 10.17 9.8
4/13/2022 8:15:00 PM 15.77 60.386 0.159 7.43 9.61 9.72
4/13/2022 8:30:00 PM 15.74 60.332 0.159 7.41 11.1 9.65
4/13/2022 8:45:00 PM 15.71 60.278 0.159 7.38 23.39 9.57
4/13/2022 9:00:00 PM 15.67 60.206 0.159 7.35 12.35 9.53
4/13/2022 9:15:00 PM 15.64 60.152 0.16 7.33 10.12 9.43
4/13/2022 9:30:00 PM 15.6 60.08 0.16 7.3 11.06 9.39
4/13/2022 9:45:00 PM 15.56 60.008 0.16 7.29 9.69 9.35
4/13/2022 10:00:00 PM 15.52 59.936 0.16 7.26 10.99 9.32
4/13/2022 10:15:00 PM 15.47 59.846 0.16 7.25 11.45 9.3
4/13/2022 10:30:00 PM 15.42 59.756 0.16 7.25 10.7 9.27
4/13/2022 10:45:00 PM 15.37 59.666 0.16 7.23 12.66 9.23
4/13/2022 11:00:00 PM 15.33 59.594 0.16 7.22 11.88 9.22
4/13/2022 11:15:00 PM 15.28 59.504 0.16 7.18 11.56 9.21
4/13/2022 11:30:00 PM 15.24 59.432 0.161 7.17 16.25 9.21
4/13/2022 11:45:00 PM 15.19 59.342 0.161 7.18 9.55 9.18
4/14/2022 12:00:00 AM 15.15 59.27 0.161 7.16 9.6 9.21
4/14/2022 12:15:00 AM 15.09 59.162 0.161 7.15 11.03 9.21
4/14/2022 12:30:00 AM 15.04 59.072 0.161 7.13 10.43 9.22
4/14/2022 12:45:00 AM 14.98 58.964 0.161 7.13 11.58 9.2
4/14/2022 1:00:00 AM 14.93 58.874 0.161 7.12 12.18 9.22
4/14/2022 1:15:00 AM 14.87 58.766 0.161 7.12 10.06 9.23
4/14/2022 1:30:00 AM 14.82 58.676 0.161 7.11 10.68 9.24
4/14/2022 1:45:00 AM 14.77 58.586 0.161 7.1 11.2 9.28
4/14/2022 2:00:00 AM 14.73 58.514 0.162 7.09 10.11 9.27
4/14/2022 2:15:00 AM 14.68 58.424 0.162 7.08 10.25 9.27
4/14/2022 2:30:00 AM 14.64 58.352 0.162 7.08 11.13 9.3
4/14/2022 2:45:00 AM 14.6 58.28 0.162 7.09 10.8 9.32
4/14/2022 3:00:00 AM 14.56 58.208 0.162 7.08 11.37 9.33
4/14/2022 3:15:00 AM 14.51 58.118 0.162 7.07 10.53 9.35
4/14/2022 3:30:00 AM 14.47 58.046 0.162 7.08 10.9 9.33
4/14/2022 3:45:00 AM 14.42 57.956 0.163 7.08 10.62 9.36
4/14/2022 4:00:00 AM 14.37 57.866 0.163 7.08 15.13 9.37
4/14/2022 4:15:00 AM 14.32 57.776 0.163 7.08 13.88 9.4
4/14/2022 4:30:00 AM 14.25 57.65 0.163 7.08 11.41 9.43
4/14/2022 4:45:00 AM 14.19 57.542 0.163 7.09 12.87 9.44
4/14/2022 5:00:00 AM 14.13 57.434 0.163 7.07 9.95 9.47
4/14/2022 5:15:00 AM 14.07 57.326 0.163 7.08 10.45 9.47
4/14/2022 5:30:00 AM 14 57.2 0.163 7.08 12.6 9.48
4/14/2022 5:45:00 AM 13.94 57.092 0.163 7.08 11.33 9.52
4/14/2022 6:00:00 AM 13.88 56.984 0.163 7.09 9.45 9.53
4/14/2022 6:15:00 AM 13.8 56.84 0.163 7.09 10.31 9.55
4/14/2022 6:30:00 AM 13.74 56.732 0.163 7.09 10.25 9.57
4/14/2022 6:45:00 AM 13.66 56.588 0.163 7.11 15.06 9.58
4/14/2022 7:00:00 AM 13.59 56.462 0.163 7.11 10.44 9.62
4/14/2022 7:15:00 AM 13.52 56.336 0.163 7.11 10.56 9.65
4/14/2022 7:30:00 AM 13.45 56.21 0.166 7.12 13.19 9.71
4/14/2022 7:45:00 AM 13.39 56.102 0.164 7.11 11.31 9.78
4/14/2022 8:00:00 AM 13.34 56.012 0.164 7.11 10.83 9.85
4/14/2022 8:15:00 AM 13.31 55.958 0.164 7.12 9.61 9.89
4/14/2022 8:30:00 AM 13.29 55.922 0.164 7.13 9.73 9.94
4/14/2022 8:45:00 AM 13.29 55.922 0.165 7.13 10.65 10.04
4/14/2022 9:00:00 AM 13.31 55.958 0.163 7.14 11.25 10.09
4/14/2022 9:15:00 AM 13.36 56.048 0.163 7.15 9.66 10.17
4/14/2022 9:30:00 AM 13.42 56.156 0.165 7.16 9.46 10.25
4/14/2022 9:45:00 AM 13.52 56.336 0.165 7.19 9.87 10.36
4/14/2022 10:00:00 AM 13.63 56.534 0.163 7.2 11.33 10.45
4/14/2022 10:15:00 AM 13.77 56.786 0.163 7.22 9.54 10.54
4/14/2022 10:30:00 AM 13.99 57.182 0.163 7.24 11.44 10.65
4/14/2022 10:45:00 AM 14.25 57.65 0.164 7.25 10.68 10.7
4/14/2022 11:00:00 AM 14.52 58.136 0.162 7.28 9.76 10.77
4/14/2022 11:15:00 AM 14.81 58.658 0.164 7.29 11.82 10.83
4/14/2022 11:30:00 AM 15.13 59.234 0.162 7.3 11.52 10.85
4/14/2022 11:45:00 AM 15.42 59.756 0.162 7.33 12.67 10.86
4/14/2022 12:00:00 PM 15.71 60.278 0.163 7.35 13.43 10.91
4/14/2022 12:15:00 PM 16.12 61.016 0.161 7.37 9.7 10.88
4/14/2022 12:30:00 PM 16.47 61.646 0.161 7.39 9.21 10.89
4/14/2022 12:45:00 PM 16.83 62.294 0.161 7.42 11.03 10.88
4/14/2022 1:00:00 PM 17.19 62.942 0.161 7.43 16.53 10.86
4/14/2022 1:15:00 PM 17.41 63.338 0.161 7.47 11.14 10.82
4/14/2022 1:30:00 PM 17.53 63.554 0.161 7.51 10.6 10.78
4/14/2022 1:45:00 PM 17.55 63.59 0.161 7.5 9.66 10.71
4/14/2022 2:00:00 PM 17.6 63.68 0.161 7.54 11.25 10.67
4/14/2022 2:15:00 PM 17.73 63.914 0.161 7.56 10.63 10.67
4/14/2022 2:30:00 PM 17.77 63.986 0.161 7.57 10.18 10.61
4/14/2022 2:45:00 PM 17.75 63.95 0.161 7.59 10.86 10.54
4/14/2022 3:00:00 PM 17.68 63.824 0.161 7.61 9.7 10.4
4/14/2022 3:15:00 PM 17.54 63.572 0.161 7.6 11.65 10.24
4/14/2022 3:30:00 PM 17.44 63.392 0.16 7.6 14.66 10.13
4/14/2022 3:45:00 PM 17.34 63.212 0.16 7.6 11.82 10.02
4/14/2022 4:00:00 PM 17.24 63.032 0.16 7.59 13.01 9.96
4/14/2022 4:15:00 PM 17.16 62.888 0.16 7.57 12 9.93
4/14/2022 4:30:00 PM 17.1 62.78 0.16 7.56 10.6 9.98
4/14/2022 4:45:00 PM 17 62.6 0.16 7.56 11.33 9.95
4/14/2022 5:00:00 PM 16.93 62.474 0.16 7.56 10.39 9.91
4/14/2022 5:15:00 PM 16.89 62.402 0.16 7.54 11.74 9.93
4/14/2022 5:30:00 PM 16.82 62.276 0.16 7.55 9.71 9.87
4/14/2022 5:45:00 PM 16.76 62.168 0.16 7.54 8.89 9.88
4/14/2022 6:00:00 PM 16.73 62.114 0.16 7.53 13.16 9.85
4/14/2022 6:15:00 PM 16.68 62.024 0.159 7.53 10.31 9.86
4/14/2022 6:30:00 PM 16.62 61.916 0.159 7.52 12.51 9.84
4/14/2022 6:45:00 PM 16.55 61.79 0.16 7.51 10.09 9.8
4/14/2022 7:00:00 PM 16.5 61.7 0.16 7.5 9.55 9.72
4/14/2022 7:15:00 PM 16.44 61.592 0.16 7.5 10.96 9.68
4/14/2022 7:30:00 PM 16.39 61.502 0.16 7.47 15.23 9.64
4/14/2022 7:45:00 PM 16.32 61.376 0.16 7.45 14.96 9.6
4/14/2022 8:00:00 PM 16.25 61.25 0.16 7.44 10.43 9.53
4/14/2022 8:15:00 PM 16.19 61.142 0.16 7.42 17.76 9.47
4/14/2022 8:30:00 PM 16.12 61.016 0.16 7.43 17.23 9.42
4/14/2022 8:45:00 PM 16.06 60.908 0.16 7.39 17.58 9.38
4/14/2022 9:00:00 PM 15.99 60.782 0.161 7.36 11.29 9.35
4/14/2022 9:15:00 PM 15.92 60.656 0.161 7.34 11.72 9.31
4/14/2022 9:30:00 PM 15.82 60.476 0.161 7.33 19.74 9.28
4/14/2022 9:45:00 PM 15.73 60.314 0.161 7.31 20.35 9.26
4/14/2022 10:00:00 PM 15.64 60.152 0.161 7.29 16.3 9.26
4/14/2022 10:15:00 PM 15.54 59.972 0.161 7.28 14.4 9.24
4/14/2022 10:30:00 PM 15.43 59.774 0.161 7.28 13.3 9.23
4/14/2022 10:45:00 PM 15.32 59.576 0.161 7.26 10.43 9.22
4/14/2022 11:00:00 PM 15.2 59.36 0.161 7.25 10.85 9.24
4/14/2022 11:15:00 PM 15.07 59.126 0.161 7.23 11.53 9.24
4/14/2022 11:30:00 PM 14.95 58.91 0.161 7.23 11.56 9.28
4/14/2022 11:45:00 PM 14.82 58.676 0.161 7.22 11.36 9.31
4/15/2022 12:00:00 AM 14.7 58.46 0.162 7.21 11.51 9.34
4/15/2022 12:15:00 AM 14.57 58.226 0.162 7.19 15.02 9.37
4/15/2022 12:30:00 AM 14.44 57.992 0.162 7.19 13.42 9.4
4/15/2022 12:45:00 AM 14.32 57.776 0.162 7.18 12.24 9.42
4/15/2022 1:00:00 AM 14.2 57.56 0.162 7.18 12.33 9.46
4/15/2022 1:15:00 AM 14.07 57.326 0.162 7.17 10.9 9.49
4/15/2022 1:30:00 AM 13.94 57.092 0.162 7.16 10.86 9.52
4/15/2022 1:45:00 AM 13.82 56.876 0.162 7.16 13.64 9.56
4/15/2022 2:00:00 AM 13.69 56.642 0.162 7.17 10.85 9.59
4/15/2022 2:15:00 AM 13.56 56.408 0.162 7.16 12.48 9.61
4/15/2022 2:30:00 AM 13.43 56.174 0.162 7.16 12.45 9.66
4/15/2022 2:45:00 AM 13.31 55.958 0.162 7.15 12.86 9.69
4/15/2022 3:00:00 AM 13.18 55.724 0.162 7.16 12.12 9.74
4/15/2022 3:15:00 AM 13.05 55.49 0.162 7.16 11.09 9.77
4/15/2022 3:30:00 AM 12.93 55.274 0.162 7.15 15.12 9.8
4/15/2022 3:45:00 AM 12.8 55.04 0.163 7.15 18.8 9.84
4/15/2022 4:00:00 AM 12.67 54.806 0.163 7.16 11.89 9.88
4/15/2022 4:15:00 AM 12.55 54.59 0.163 7.14 10.59 9.92
4/15/2022 4:30:00 AM 12.42 54.356 0.163 7.14 12.38 9.96
4/15/2022 4:45:00 AM 12.3 54.14 0.163 7.14 13.02 9.98
4/15/2022 5:00:00 AM 12.16 53.888 0.163 7.15 10.98 10.04
4/15/2022 5:15:00 AM 12.04 53.672 0.163 7.15 14.15 10.07
4/15/2022 5:30:00 AM 11.91 53.438 0.163 7.15 12.83 10.08
4/15/2022 5:45:00 AM 11.79 53.222 0.164 7.17 11.02 10.14
4/15/2022 6:00:00 AM 11.67 53.006 0.164 7.17 11.8 10.18
4/15/2022 6:15:00 AM 11.55 52.79 0.164 7.16 12.43 10.23
4/15/2022 6:30:00 AM 11.42 52.556 0.164 7.16 10.53 10.23
4/15/2022 6:45:00 AM 11.31 52.358 0.164 7.16 11.75 10.3
4/15/2022 7:00:00 AM 11.19 52.142 0.164 7.16 11.92 10.36
4/15/2022 7:15:00 AM 11.07 51.926 0.164 7.16 13.41 10.43
4/15/2022 7:30:00 AM 10.97 51.746 0.164 7.18 12.35 10.48
4/15/2022 7:45:00 AM 10.86 51.548 0.164 7.17 10.58 10.58
4/15/2022 8:00:00 AM 10.76 51.368 0.164 7.17 12.91 10.69
4/15/2022 8:15:00 AM 10.68 51.224 0.164 7.18 15.35 10.76
4/15/2022 8:30:00 AM 10.61 51.098 0.164 7.19 10.36 10.83
4/15/2022 8:45:00 AM 10.57 51.026 0.164 7.2 11.62 10.92
4/15/2022 9:00:00 AM 10.55 50.99 0.164 7.21 12.14 11.02
4/15/2022 9:15:00 AM 10.55 50.99 0.164 7.21 10.98 11.11
4/15/2022 9:30:00 AM 10.58 51.044 0.164 7.22 10.57 11.19
4/15/2022 9:45:00 AM 10.65 51.17 0.164 7.22 9.81 11.3
4/15/2022 10:00:00 AM 10.75 51.35 0.163 7.24 11.58 11.39
4/15/2022 10:15:00 AM 10.88 51.584 0.163 7.26 9.8 11.51
4/15/2022 10:30:00 AM 11.06 51.908 0.163 7.27 10.61 11.58
4/15/2022 10:45:00 AM 11.29 52.322 0.163 7.28 11.11 11.63
4/15/2022 11:00:00 AM 11.53 52.754 0.163 7.3 10.66 11.67
4/15/2022 11:15:00 AM 11.76 53.168 0.163 7.31 12.5 11.75
4/15/2022 11:30:00 AM 12.04 53.672 0.162 7.32 10.1 11.74
4/15/2022 11:45:00 AM 12.31 54.158 0.162 7.34 9.37 11.76
4/15/2022 12:00:00 PM 12.61 54.698 0.162 7.35 9.78 11.79
4/15/2022 12:15:00 PM 12.98 55.364 0.162 7.36 10.9 11.77
4/15/2022 12:30:00 PM 13.32 55.976 0.162 7.39 9.81 11.72
4/15/2022 12:45:00 PM 13.66 56.588 0.162 7.4 11.06 11.66
4/15/2022 1:00:00 PM 13.99 57.182 0.162 7.4 11.53 11.69
4/15/2022 1:15:00 PM 14.3 57.74 0.162 7.43 10.01 11.66
4/15/2022 1:30:00 PM 14.61 58.298 0.162 7.45 10.37 11.63
4/15/2022 1:45:00 PM 14.91 58.838 0.162 7.46 12.5 11.57
4/15/2022 2:00:00 PM 15.18 59.324 0.162 7.48 12.03 11.54
4/15/2022 2:15:00 PM 15.39 59.702 0.162 7.48 9.05 11.51
4/15/2022 2:30:00 PM 15.61 60.098 0.162 7.5 9.3 11.44
4/15/2022 2:45:00 PM 15.81 60.458 0.162 7.51 9.85 11.44
4/15/2022 3:00:00 PM 15.92 60.656 0.162 7.54 9.07 11.39
4/15/2022 3:15:00 PM 16.01 60.818 0.162 7.55 11.75 11.34
4/15/2022 3:30:00 PM 16.08 60.944 0.161 7.57 9.63 11.28
4/15/2022 3:45:00 PM 16.12 61.016 0.162 7.59 10.53 11.24
4/15/2022 4:00:00 PM 16.15 61.07 0.161 7.59 11.73 11.17
4/15/2022 4:15:00 PM 16.14 61.052 0.161 7.6 10.07 11.12
4/15/2022 4:30:00 PM 16.09 60.962 0.161 7.62 9.79 11.07
4/15/2022 4:45:00 PM 16.05 60.89 0.161 7.64 9.44 11.01
4/15/2022 5:00:00 PM 15.98 60.764 0.161 7.65 9 10.96
4/15/2022 5:15:00 PM 15.9 60.62 0.161 7.66 8.95 10.89
4/15/2022 5:30:00 PM 15.83 60.494 0.161 7.66 9.99 10.82
4/15/2022 5:45:00 PM 15.73 60.314 0.161 7.66 10.78 10.75
4/15/2022 6:00:00 PM 15.64 60.152 0.161 7.65 8.65 10.67
4/15/2022 6:15:00 PM 15.51 59.918 0.161 7.65 9.1 10.6
4/15/2022 6:30:00 PM 15.4 59.72 0.161 7.66 9.91 10.5
4/15/2022 6:45:00 PM 15.27 59.486 0.161 7.66 11.09 10.43
4/15/2022 7:00:00 PM 15.13 59.234 0.162 7.64 11.94 10.35
4/15/2022 7:15:00 PM 15.03 59.054 0.162 7.62 12.22 10.26
4/15/2022 7:30:00 PM 14.91 58.838 0.162 7.6 11.47 10.2
4/15/2022 7:45:00 PM 14.79 58.622 0.162 7.59 10.06 10.11
4/15/2022 8:00:00 PM 14.69 58.442 0.162 7.55 12.99 10.01
4/15/2022 8:15:00 PM 14.59 58.262 0.162 7.54 12.71 9.96
4/15/2022 8:30:00 PM 14.48 58.064 0.162 7.51 13.95 9.89
4/15/2022 8:45:00 PM 14.4 57.92 0.162 7.49 11.64 9.84
4/15/2022 9:00:00 PM 14.32 57.776 0.162 7.45 10.61 9.81
4/15/2022 9:15:00 PM 14.25 57.65 0.162 7.42 11.93 9.75
4/15/2022 9:30:00 PM 14.17 57.506 0.162 7.4 10.26 9.66
4/15/2022 9:45:00 PM 14.09 57.362 0.162 7.38 10.27 9.73
4/15/2022 10:00:00 PM 14.01 57.218 0.163 7.36 10.48 9.73
4/15/2022 10:15:00 PM 13.94 57.092 0.163 7.35 10.7 9.7
4/15/2022 10:30:00 PM 13.86 56.948 0.163 7.33 11.62 9.67
4/15/2022 10:45:00 PM 13.78 56.804 0.163 7.31 10.5 9.65
4/15/2022 11:00:00 PM 13.7 56.66 0.163 7.3 11.18 9.66
4/15/2022 11:15:00 PM 13.62 56.516 0.163 7.29 11.37 9.66
4/15/2022 11:30:00 PM 13.55 56.39 0.163 7.28 10.99 9.66
4/15/2022 11:45:00 PM 13.48 56.264 0.163 7.26 11.95 9.67
4/16/2022 12:00:00 AM 13.41 56.138 0.163 7.26 10.44 9.69
4/16/2022 12:15:00 AM 13.35 56.03 0.163 7.24 10.38 9.71
4/16/2022 12:30:00 AM 13.3 55.94 0.164 7.24 11.44 9.71
4/16/2022 12:45:00 AM 13.25 55.85 0.164 7.23 10.07 9.74
4/16/2022 1:00:00 AM 13.2 55.76 0.164 7.22 10.84 9.74
4/16/2022 1:15:00 AM 13.15 55.67 0.164 7.22 10.85 9.75
4/16/2022 1:30:00 AM 13.09 55.562 0.164 7.21 10.84 9.79
4/16/2022 1:45:00 AM 13.03 55.454 0.164 7.21 10.38 9.78
4/16/2022 2:00:00 AM 12.97 55.346 0.164 7.21 12.19 9.81
4/16/2022 2:15:00 AM 12.92 55.256 0.164 7.2 11.41 9.82
4/16/2022 2:30:00 AM 12.86 55.148 0.164 7.2 10.72 9.83
4/16/2022 2:45:00 AM 12.81 55.058 0.164 7.2 10.87 9.86
4/16/2022 3:00:00 AM 12.76 54.968 0.164 7.19 12.17 9.87
4/16/2022 3:15:00 AM 12.7 54.86 0.164 7.19 12.33 9.9
4/16/2022 3:30:00 AM 12.65 54.77 0.165 7.2 10.56 9.91
4/16/2022 3:45:00 AM 12.59 54.662 0.165 7.19 12.11 9.94
4/16/2022 4:00:00 AM 12.54 54.572 0.165 7.18 11.57 9.94
4/16/2022 4:15:00 AM 12.49 54.482 0.165 7.18 10.9 9.96
4/16/2022 4:30:00 AM 12.43 54.374 0.165 7.18 13.56 10.01
4/16/2022 4:45:00 AM 12.38 54.284 0.165 7.18 12.39 10.02
4/16/2022 5:00:00 AM 12.33 54.194 0.165 7.18 12.08 10.04
4/16/2022 5:15:00 AM 12.29 54.122 0.165 7.17 12.59 10.06
4/16/2022 5:30:00 AM 12.24 54.032 0.165 7.19 12.04 10.08
4/16/2022 5:45:00 AM 12.18 53.924 0.165 7.18 13.7 10.12
4/16/2022 6:00:00 AM 12.14 53.852 0.165 7.19 15.23 10.13
4/16/2022 6:15:00 AM 12.1 53.78 0.166 7.18 12.78 10.14
4/16/2022 6:30:00 AM 12.05 53.69 0.166 7.17 15.23 10.15
4/16/2022 6:45:00 AM 12 53.6 0.166 7.18 12.31 10.19
4/16/2022 7:00:00 AM 11.96 53.528 0.166 7.18 9.45 10.2
4/16/2022 7:15:00 AM 11.92 53.456 0.166 7.18 11.22 10.21
4/16/2022 7:30:00 AM 11.88 53.384 0.166 7.19 11.87 10.29
4/16/2022 7:45:00 AM 11.86 53.348 0.166 7.19 10.92 10.37
4/16/2022 8:00:00 AM 11.85 53.33 0.166 7.19 11.91 10.47
4/16/2022 8:15:00 AM 11.84 53.312 0.165 7.2 12.45 10.59
4/16/2022 8:30:00 AM 11.85 53.33 0.165 7.21 11.46 10.71
4/16/2022 8:45:00 AM 11.86 53.348 0.165 7.23 10.66 10.81
4/16/2022 9:00:00 AM 11.86 53.348 0.165 7.23 10.45 10.88
4/16/2022 9:15:00 AM 11.88 53.384 0.165 7.25 11.21 10.98
4/16/2022 9:30:00 AM 11.91 53.438 0.165 7.27 10.54 11.08
4/16/2022 9:45:00 AM 11.94 53.492 0.165 7.28 9.77 11.16
4/16/2022 10:00:00 AM 11.99 53.582 0.165 7.3 10.06 11.25
4/16/2022 10:15:00 AM 12.03 53.654 0.165 7.31 13.12 11.33
4/16/2022 10:30:00 AM 12.09 53.762 0.165 7.33 11.7 11.38
4/16/2022 10:45:00 AM 12.17 53.906 0.164 7.34 12.98 11.44
4/16/2022 11:00:00 AM 12.26 54.068 0.164 7.37 11.8 11.51
4/16/2022 11:15:00 AM 12.31 54.158 0.164 7.39 9.52 11.53
4/16/2022 11:30:00 AM 12.4 54.32 0.164 7.4 10.02 11.57
4/16/2022 11:45:00 AM 12.5 54.5 0.164 7.43 10.13 11.62
4/16/2022 12:00:00 PM 12.67 54.806 0.164 7.45 10.72 11.66
4/16/2022 12:15:00 PM 12.84 55.112 0.164 7.47 10.03 11.67
4/16/2022 12:30:00 PM 12.94 55.292 0.164 7.48 12.31 11.64
4/16/2022 12:45:00 PM 12.99 55.382 0.164 7.5 11.54 11.65
4/16/2022 1:00:00 PM 13.02 55.436 0.164 7.53 8.72 11.63
4/16/2022 1:15:00 PM 13.11 55.598 0.164 7.55 10.24 11.63
4/16/2022 1:30:00 PM 13.32 55.976 0.163 7.57 9.83 11.63
4/16/2022 1:45:00 PM 13.78 56.804 0.163 7.57 11.79 11.65
4/16/2022 2:00:00 PM 14.03 57.254 0.163 7.59 10.32 11.64
4/16/2022 2:15:00 PM 14.2 57.56 0.163 7.61 9.12 11.58
4/16/2022 2:30:00 PM 14.41 57.938 0.163 7.62 9.74 11.55
4/16/2022 2:45:00 PM 14.75 58.55 0.163 7.63 9.52 11.53
4/16/2022 3:00:00 PM 15.05 59.09 0.163 7.66 8.72 11.47
4/16/2022 3:15:00 PM 15.29 59.522 0.163 7.67 10.74 11.44
4/16/2022 3:30:00 PM 15.47 59.846 0.163 7.68 8.75 11.37
4/16/2022 3:45:00 PM 15.6 60.08 0.163 7.7 10.76 11.28
4/16/2022 4:00:00 PM 15.71 60.278 0.163 7.72 10.56 11.21
4/16/2022 4:15:00 PM 15.75 60.35 0.163 7.72 9.98 11.15
4/16/2022 4:30:00 PM 15.85 60.53 0.163 7.75 10.48 11.1
4/16/2022 4:45:00 PM 15.93 60.674 0.163 7.76 9.93 11.01
4/16/2022 5:00:00 PM 15.84 60.512 0.163 7.77 11.24 10.88
4/16/2022 5:15:00 PM 15.86 60.548 0.162 7.76 10.39 10.82
4/16/2022 5:30:00 PM 15.87 60.566 0.162 7.77 8.53 10.79
4/16/2022 5:45:00 PM 15.77 60.386 0.162 7.77 10.73 10.68
4/16/2022 6:00:00 PM 15.72 60.296 0.162 7.76 9.67 10.61
4/16/2022 6:15:00 PM 15.65 60.17 0.162 7.75 11.3 10.52
4/16/2022 6:30:00 PM 15.57 60.026 0.162 7.74 13.59 10.41
4/16/2022 6:45:00 PM 15.49 59.882 0.162 7.72 9.44 10.3
4/16/2022 7:00:00 PM 15.41 59.738 0.162 7.7 9.46 10.19
4/16/2022 7:15:00 PM 15.33 59.594 0.162 7.68 13.39 10.08
4/16/2022 7:30:00 PM 15.25 59.45 0.163 7.64 17.22 10
4/16/2022 7:45:00 PM 15.17 59.306 0.163 7.61 13.19 9.91
4/16/2022 8:00:00 PM 15.08 59.144 0.163 7.58 9.26 9.83
4/16/2022 8:15:00 PM 14.98 58.964 0.163 7.55 8.79 9.79
4/16/2022 8:30:00 PM 14.89 58.802 0.163 7.52 9.08 9.73
4/16/2022 8:45:00 PM 14.81 58.658 0.163 7.48 9.52 9.68
4/16/2022 9:00:00 PM 14.74 58.532 0.163 7.46 8.67 9.66
4/16/2022 9:15:00 PM 14.65 58.37 0.163 7.43 9.9 9.62
4/16/2022 9:30:00 PM 14.59 58.262 0.163 7.41 10.01 9.58
4/16/2022 9:45:00 PM 14.51 58.118 0.163 7.39 10.9 9.54
4/16/2022 10:00:00 PM 14.43 57.974 0.163 7.36 8.64 9.53
4/16/2022 10:15:00 PM 14.34 57.812 0.163 7.34 9.15 9.51
4/16/2022 10:30:00 PM 14.25 57.65 0.163 7.32 10.64 9.53
4/16/2022 10:45:00 PM 14.17 57.506 0.163 7.31 11.73 9.52
4/16/2022 11:00:00 PM 14.1 57.38 0.164 7.3 9.6 9.53
4/16/2022 11:15:00 PM 14.04 57.272 0.164 7.27 13.06 9.52
4/16/2022 11:30:00 PM 13.97 57.146 0.164 7.26 11.67 9.56
4/16/2022 11:45:00 PM 13.91 57.038 0.164 7.26 9.74 9.54
4/17/2022 12:00:00 AM 13.85 56.93 0.164 7.24 8.92 9.54
4/17/2022 12:15:00 AM 13.79 56.822 0.164 7.23 13.35 9.56
4/17/2022 12:30:00 AM 13.73 56.714 0.164 7.23 19.39 9.59
4/17/2022 12:45:00 AM 13.66 56.588 0.164 7.22 10.08 9.59
4/17/2022 1:00:00 AM 13.58 56.444 0.164 7.21 10.44 9.62
4/17/2022 1:15:00 AM 13.51 56.318 0.164 7.19 11.09 9.65
4/17/2022 1:30:00 AM 13.43 56.174 0.164 7.19 9.68 9.66
4/17/2022 1:45:00 AM 13.36 56.048 0.164 7.19 10.84 9.67
4/17/2022 2:00:00 AM 13.29 55.922 0.164 7.19 9.83 9.7
4/17/2022 2:15:00 AM 13.22 55.796 0.164 7.18 9.74 9.73
4/17/2022 2:30:00 AM 13.15 55.67 0.164 7.18 9.41 9.74
4/17/2022 2:45:00 AM 13.08 55.544 0.165 7.18 8.68 9.76
4/17/2022 3:00:00 AM 13.01 55.418 0.165 7.18 9.95 9.8
4/17/2022 3:15:00 AM 12.93 55.274 0.165 7.18 10.56 9.82
4/17/2022 3:30:00 AM 12.84 55.112 0.165 7.17 11.16 9.84
4/17/2022 3:45:00 AM 12.76 54.968 0.165 7.18 11.09 9.87
4/17/2022 4:00:00 AM 12.67 54.806 0.165 7.18 10.9 9.89
4/17/2022 4:15:00 AM 12.58 54.644 0.165 7.19 10.43 9.91
4/17/2022 4:30:00 AM 12.49 54.482 0.165 7.18 11.52 9.94
4/17/2022 4:45:00 AM 12.38 54.284 0.165 7.18 9.5 9.96
4/17/2022 5:00:00 AM 12.28 54.104 0.165 7.18 10.9 10
4/17/2022 5:15:00 AM 12.18 53.924 0.165 7.18 10.66 10.04
4/17/2022 5:30:00 AM 12.1 53.78 0.165 7.18 10.39 10.05
4/17/2022 5:45:00 AM 11.99 53.582 0.166 7.19 10.13 10.09
4/17/2022 6:00:00 AM 11.89 53.402 0.166 7.18 30.29 10.14
4/17/2022 6:15:00 AM 11.78 53.204 0.166 7.2 11.3 10.16
4/17/2022 6:30:00 AM 11.67 53.006 0.166 7.19 11.82 10.21
4/17/2022 6:45:00 AM 11.57 52.826 0.166 7.2 11.13 10.24
4/17/2022 7:00:00 AM 11.46 52.628 0.166 7.2 10.53 10.3
4/17/2022 7:15:00 AM 11.37 52.466 0.166 7.2 16.22 10.35
4/17/2022 7:30:00 AM 11.29 52.322 0.166 7.21 14.27 10.46
4/17/2022 7:45:00 AM 11.2 52.16 0.166 7.21 10.2 10.54
4/17/2022 8:00:00 AM 11.11 51.998 0.166 7.22 11.99 10.61
4/17/2022 8:15:00 AM 11.03 51.854 0.166 7.23 11.42 10.69
4/17/2022 8:30:00 AM 10.96 51.728 0.166 7.24 10.47 10.81
4/17/2022 8:45:00 AM 10.92 51.656 0.166 7.25 11.19 10.91
4/17/2022 9:00:00 AM 10.94 51.692 0.166 7.26 9.58 11.07
4/17/2022 9:15:00 AM 10.94 51.692 0.166 7.27 14.01 11.22
4/17/2022 9:30:00 AM 10.89 51.602 0.166 7.29 10.5 11.28
4/17/2022 9:45:00 AM 10.87 51.566 0.165 7.3 9.7 11.36
4/17/2022 10:00:00 AM 10.94 51.692 0.165 7.33 9.45 11.48
4/17/2022 10:15:00 AM 11.01 51.818 0.165 7.34 15.04 11.6
4/17/2022 10:30:00 AM 11.08 51.944 0.165 7.36 9.62 11.67
4/17/2022 10:45:00 AM 11.17 52.106 0.166 7.37 9.13 11.73
4/17/2022 11:00:00 AM 11.17 52.106 0.165 7.39 8.88 11.74
4/17/2022 11:15:00 AM 11.24 52.232 0.166 7.4 9.83 11.76
4/17/2022 11:30:00 AM 11.3 52.34 0.166 7.42 9.75 11.82
4/17/2022 11:45:00 AM 11.37 52.466 0.164 7.44 8.88 11.89
4/17/2022 12:00:00 PM 11.5 52.7 0.164 7.45 9.87 11.92
4/17/2022 12:15:00 PM 11.65 52.97 0.164 7.47 8.67 11.95
4/17/2022 12:30:00 PM 11.82 53.276 0.164 7.48 11.36 11.97
4/17/2022 12:45:00 PM 12.02 53.636 0.164 7.51 9.07 11.97
4/17/2022 1:00:00 PM 12.15 53.87 0.164 7.5 9.96 11.98
4/17/2022 1:15:00 PM 12.28 54.104 0.164 7.53 10.73 11.97
4/17/2022 1:30:00 PM 12.47 54.446 0.164 7.53 9.85 11.98
4/17/2022 1:45:00 PM 12.51 54.518 0.164 7.55 9.35 11.91
4/17/2022 2:00:00 PM 12.66 54.788 0.164 7.57 8.73 11.94
4/17/2022 2:15:00 PM 12.95 55.31 0.164 7.58 9.84 11.95
4/17/2022 2:30:00 PM 13.17 55.706 0.164 7.59 9.19 11.95
4/17/2022 2:45:00 PM 13.3 55.94 0.164 7.61 8.52 11.89
4/17/2022 3:00:00 PM 13.47 56.246 0.164 7.63 9.52 11.89
4/17/2022 3:15:00 PM 13.38 56.084 0.164 7.64 9.03 11.83
4/17/2022 3:30:00 PM 13.29 55.922 0.164 7.65 8.83 11.8
4/17/2022 3:45:00 PM 13.3 55.94 0.164 7.67 8.61 11.74
4/17/2022 4:00:00 PM 13.34 56.012 0.164 7.68 12.69 11.76
4/17/2022 4:15:00 PM 13.35 56.03 0.164 7.7 9.1 11.73
4/17/2022 4:30:00 PM 13.33 55.994 0.164 7.7 11.85 11.73
4/17/2022 4:45:00 PM 13.24 55.832 0.164 7.71 8.66 11.68
4/17/2022 5:00:00 PM 13.14 55.652 0.164 7.71 9.07 11.66
4/17/2022 5:15:00 PM 13.08 55.544 0.164 7.73 9.65 11.62
4/17/2022 5:30:00 PM 12.98 55.364 0.164 7.73 8.07 11.58
4/17/2022 5:45:00 PM 12.89 55.202 0.164 7.73 9.58 11.48
4/17/2022 6:00:00 PM 12.83 55.094 0.164 7.73 9.16 11.47
4/17/2022 6:15:00 PM 12.75 54.95 0.164 7.73 8.66 11.39
4/17/2022 6:30:00 PM 12.66 54.788 0.164 7.73 8.52 11.32
4/17/2022 6:45:00 PM 12.53 54.554 0.164 7.72 7.92 11.24
4/17/2022 7:00:00 PM 12.42 54.356 0.164 7.72 9.46 11.18
4/17/2022 7:15:00 PM 12.29 54.122 0.164 7.69 9.38 11.1
4/17/2022 7:30:00 PM 12.18 53.924 0.164 7.68 9.52 11.03
4/17/2022 7:45:00 PM 12.07 53.726 0.164 7.66 9.31 10.95
4/17/2022 8:00:00 PM 11.95 53.51 0.164 7.63 9.04 10.9
4/17/2022 8:15:00 PM 11.84 53.312 0.164 7.62 8.27 10.84
4/17/2022 8:30:00 PM 11.72 53.096 0.164 7.59 10.12 10.79
4/17/2022 8:45:00 PM 11.61 52.898 0.164 7.57 9.27 10.73
4/17/2022 9:00:00 PM 11.5 52.7 0.164 7.54 8.82 10.71
4/17/2022 9:15:00 PM 11.4 52.52 0.164 7.51 10.02 10.69
4/17/2022 9:30:00 PM 11.29 52.322 0.164 7.49 10.7 10.69
4/17/2022 9:45:00 PM 11.19 52.142 0.164 7.47 10.54 10.64
4/17/2022 10:00:00 PM 11.08 51.944 0.164 7.45 8.45 10.6
4/17/2022 10:15:00 PM 10.97 51.746 0.164 7.43 9.65 10.63
4/17/2022 10:30:00 PM 10.86 51.548 0.165 7.41 8.61 10.66
4/17/2022 10:45:00 PM 10.76 51.368 0.165 7.4 10.51 10.67
4/17/2022 11:00:00 PM 10.65 51.17 0.165 7.37 12.36 10.67
4/17/2022 11:15:00 PM 10.55 50.99 0.165 7.36 15.01 10.67
4/17/2022 11:30:00 PM 10.43 50.774 0.165 7.35 10.09 10.69
4/17/2022 11:45:00 PM 10.33 50.594 0.165 7.34 10.94 10.71
4/18/2022 12:00:00 AM 10.23 50.414 0.165 7.33 9.61 10.73
4/18/2022 12:15:00 AM 10.13 50.234 0.165 7.31 9.78 10.76
4/18/2022 12:30:00 AM 10.03 50.054 0.165 7.31 10.72 10.78
4/18/2022 12:45:00 AM 9.94 49.892 0.165 7.31 11.25 10.79
4/18/2022 1:00:00 AM 9.84 49.712 0.165 7.3 10.49 10.83
4/18/2022 1:15:00 AM 9.75 49.55 0.165 7.29 10.52 10.85
4/18/2022 1:30:00 AM 9.66 49.388 0.165 7.29 9.47 10.88
4/18/2022 1:45:00 AM 9.57 49.226 0.165 7.28 9.65 10.91
4/18/2022 2:00:00 AM 9.48 49.064 0.166 7.27 9.75 10.94
4/18/2022 2:15:00 AM 9.4 48.92 0.166 7.28 12.77 10.96
4/18/2022 2:30:00 AM 9.31 48.758 0.166 7.27 11.46 11
4/18/2022 2:45:00 AM 9.22 48.596 0.166 7.27 10.18 11.03
4/18/2022 3:00:00 AM 9.14 48.452 0.166 7.26 8.99 11.06
4/18/2022 3:15:00 AM 9.06 48.308 0.166 7.25 9.55 11.09
4/18/2022 3:30:00 AM 8.98 48.164 0.166 7.25 9.44 11.09
4/18/2022 3:45:00 AM 8.88 47.984 0.166 7.25 9.21 11.14
4/18/2022 4:00:00 AM 8.79 47.822 0.166 7.26 10.4 11.17
4/18/2022 4:15:00 AM 8.71 47.678 0.166 7.26 9.76 11.21
4/18/2022 4:30:00 AM 8.62 47.516 0.166 7.26 9.54 11.23
4/18/2022 4:45:00 AM 8.53 47.354 0.166 7.26 9.66 11.27
4/18/2022 5:00:00 AM 8.44 47.192 0.166 7.25 10.06 11.3
4/18/2022 5:15:00 AM 8.35 47.03 0.166 7.25 10.69 11.34
4/18/2022 5:30:00 AM 8.26 46.868 0.167 7.26 10.05 11.35
4/18/2022 5:45:00 AM 8.17 46.706 0.167 7.24 10.53 11.38
4/18/2022 6:00:00 AM 8.09 46.562 0.167 7.25 9.43 11.42
4/18/2022 6:15:00 AM 8 46.4 0.167 7.25 10.86 11.44
4/18/2022 6:30:00 AM 7.9 46.22 0.167 7.26 9.87 11.49
4/18/2022 6:45:00 AM 7.82 46.076 0.167 7.25 10.39 11.53
4/18/2022 7:00:00 AM 7.75 45.95 0.167 7.26 9.57 11.6
4/18/2022 7:15:00 AM 7.7 45.86 0.167 7.26 11.64 11.69
4/18/2022 7:30:00 AM 7.65 45.77 0.167 7.26 10.75 11.78
4/18/2022 7:45:00 AM 7.61 45.698 0.168 7.27 10.23 11.88
4/18/2022 8:00:00 AM 7.59 45.662 0.168 7.28 9.49 12.01
4/18/2022 8:15:00 AM 7.57 45.626 0.167 7.29 11.32 12.09
4/18/2022 8:30:00 AM 7.57 45.626 0.167 7.29 12.39 12.17
4/18/2022 8:45:00 AM 7.58 45.644 0.167 7.3 9.23 12.27
4/18/2022 9:00:00 AM 7.6 45.68 0.167 7.31 9.01 12.37
4/18/2022 9:15:00 AM 7.64 45.752 0.167 7.32 9.12 12.47
4/18/2022 9:30:00 AM 7.69 45.842 0.167 7.33 9.79 12.53
4/18/2022 9:45:00 AM 7.74 45.932 0.167 7.33 9.65 12.6
4/18/2022 10:00:00 AM 7.78 46.004 0.167 7.35 10.17 12.66
4/18/2022 10:15:00 AM 7.83 46.094 0.166 7.36 9.84 12.72
4/18/2022 10:30:00 AM 7.86 46.148 0.166 7.37 8.97 12.76
4/18/2022 10:45:00 AM 7.89 46.202 0.166 7.38 9.58 12.77
4/18/2022 11:00:00 AM 7.92 46.256 0.166 7.4 8.9 12.81
4/18/2022 11:15:00 AM 7.94 46.292 0.166 7.42 12.65 12.85
4/18/2022 11:30:00 AM 7.96 46.328 0.166 7.43 8.46 12.82
4/18/2022 11:45:00 AM 7.97 46.346 0.166 7.44 10.63 12.87
4/18/2022 12:00:00 PM 7.98 46.364 0.166 7.44 8.54 12.86
4/18/2022 12:15:00 PM 7.98 46.364 0.166 7.46 8.55 12.87
4/18/2022 12:30:00 PM 7.97 46.346 0.166 7.46 8.66 12.84
4/18/2022 12:45:00 PM 7.96 46.328 0.167 7.48 9.29 12.85
4/18/2022 1:00:00 PM 7.95 46.31 0.166 7.49 8.71 12.83
4/18/2022 1:15:00 PM 7.95 46.31 0.166 7.5 8.97 12.81
4/18/2022 1:30:00 PM 7.94 46.292 0.166 7.5 8.79 12.84
4/18/2022 1:45:00 PM 7.93 46.274 0.166 7.52 9.41 12.82
4/18/2022 2:00:00 PM 7.91 46.238 0.166 7.53 8.96 12.83
4/18/2022 2:15:00 PM 7.9 46.22 0.166 7.53 8.53 12.81
4/18/2022 2:30:00 PM 7.88 46.184 0.166 7.53 8.31 12.8
4/18/2022 2:45:00 PM 7.85 46.13 0.166 7.54 8.47 12.77
4/18/2022 3:00:00 PM 7.84 46.112 0.166 7.55 8.43 12.77
4/18/2022 3:15:00 PM 7.82 46.076 0.166 7.54 17.03 12.74
4/18/2022 3:30:00 PM 7.79 46.022 0.165 7.56 8.16 12.72
4/18/2022 3:45:00 PM 7.77 45.986 0.165 7.56 8.63 12.69
4/18/2022 4:00:00 PM 7.74 45.932 0.165 7.55 8.54 12.68
4/18/2022 4:15:00 PM 7.72 45.896 0.165 7.55 8.45 12.65
4/18/2022 4:30:00 PM 7.7 45.86 0.164 7.55 8.03 12.62
4/18/2022 4:45:00 PM 7.68 45.824 0.164 7.55 8.51 12.59
4/18/2022 5:00:00 PM 7.66 45.788 0.164 7.54 8.29 12.55
4/18/2022 5:15:00 PM 7.64 45.752 0.163 7.54 8.73 12.54
4/18/2022 5:30:00 PM 7.63 45.734 0.163 7.54 10.06 12.53
4/18/2022 5:45:00 PM 7.62 45.716 0.162 7.54 9.22 12.52
4/18/2022 6:00:00 PM 7.61 45.698 0.162 7.53 8.16 12.48
4/18/2022 6:15:00 PM 7.59 45.662 0.162 7.52 9.16 12.45
4/18/2022 6:30:00 PM 7.58 45.644 0.162 7.52 8.74 12.39
4/18/2022 6:45:00 PM 7.58 45.644 0.162 7.51 8.42 12.35
4/18/2022 7:00:00 PM 7.57 45.626 0.162 7.51 8.39 12.28
4/18/2022 7:15:00 PM 7.57 45.626 0.162 7.49 8.42 12.23
4/18/2022 7:30:00 PM 7.56 45.608 0.162 7.49 8.78 12.17
4/18/2022 7:45:00 PM 7.55 45.59 0.162 7.48 8.06 12.13
4/18/2022 8:00:00 PM 7.54 45.572 0.162 7.47 8.48 12.08
4/18/2022 8:15:00 PM 7.52 45.536 0.162 7.45 9.42 12.04
4/18/2022 8:30:00 PM 7.49 45.482 0.161 7.45 10.61 12
4/18/2022 8:45:00 PM 7.47 45.446 0.16 7.44 10.01 11.98
4/18/2022 9:00:00 PM 7.44 45.392 0.159 7.42 11.42 11.94
4/18/2022 9:15:00 PM 7.42 45.356 0.158 7.42 10.54 11.92
4/18/2022 9:30:00 PM 7.4 45.32 0.157 7.4 11.07 11.88
4/18/2022 9:45:00 PM 7.4 45.32 0.157 7.39 14.46 11.86
4/18/2022 10:00:00 PM 7.38 45.284 0.157 7.36 14.07 11.84
4/18/2022 10:15:00 PM 7.37 45.266 0.156 7.36 13.62 11.84
4/18/2022 10:30:00 PM 7.36 45.248 0.156 7.35 14.38 11.81
4/18/2022 10:45:00 PM 7.36 45.248 0.155 7.34 15.81 11.79
4/18/2022 11:00:00 PM 7.35 45.23 0.154 7.34 15.25 11.79
4/18/2022 11:15:00 PM 7.34 45.212 0.154 7.33 17.18 11.77
4/18/2022 11:30:00 PM 7.33 45.194 0.153 7.32 20.96 11.77
4/18/2022 11:45:00 PM 7.33 45.194 0.152 7.31 22.47 11.75
4/19/2022 12:00:00 AM 7.32 45.176 0.151 7.29 26.15 11.75
4/19/2022 12:15:00 AM 7.31 45.158 0.15 7.3 34.21 11.75
4/19/2022 12:30:00 AM 7.3 45.14 0.15 7.29 38.32 11.73
4/19/2022 12:45:00 AM 7.3 45.14 0.15 7.27 45.64 11.72
4/19/2022 1:00:00 AM 7.29 45.122 0.15 7.28 39.46 11.74
4/19/2022 1:15:00 AM 7.28 45.104 0.15 7.29 38.01 11.73
4/19/2022 1:30:00 AM 7.27 45.086 0.15 7.28 47.5 11.73
4/19/2022 1:45:00 AM 7.27 45.086 0.15 7.29 49.36 11.75
4/19/2022 2:00:00 AM 7.26 45.068 0.15 7.28 53.42 11.76
4/19/2022 2:15:00 AM 7.25 45.05 0.15 7.28 59.25 11.75
4/19/2022 2:30:00 AM 7.24 45.032 0.15 7.28 84.11 11.78
4/19/2022 2:45:00 AM 7.23 45.014 0.15 7.28 94.17 11.78
4/19/2022 3:00:00 AM 7.22 44.996 0.149 7.28 76.06 11.78
4/19/2022 3:15:00 AM 7.21 44.978 0.149 7.28 99.19 11.76
4/19/2022 3:30:00 AM 7.2 44.96 0.148 7.28 94 11.78
4/19/2022 3:45:00 AM 7.18 44.924 0.148 7.28 103.5 11.77
4/19/2022 4:00:00 AM 7.15 44.87 0.148 7.27 104.5 11.78
4/19/2022 4:15:00 AM 7.12 44.816 0.148 7.27 121.5 11.78
4/19/2022 4:30:00 AM 7.09 44.762 0.148 7.28 124.1 11.78
4/19/2022 4:45:00 AM 7.07 44.726 0.147 7.28 145.2 11.79
4/19/2022 5:00:00 AM 7.05 44.69 0.147 7.28 128.3 11.79
4/19/2022 5:15:00 AM 7.02 44.636 0.146 7.27 131.9 11.78
4/19/2022 5:30:00 AM 7.01 44.618 0.146 7.27 138.1 11.8
4/19/2022 5:45:00 AM 6.99 44.582 0.146 7.27 132.8 11.81
4/19/2022 6:00:00 AM 6.98 44.564 0.146 7.27 151 11.79
4/19/2022 6:15:00 AM 6.96 44.528 0.146 7.27 137.7 11.81
4/19/2022 6:30:00 AM 6.93 44.474 0.145 7.27 116.5 11.81
4/19/2022 6:45:00 AM 6.89 44.402 0.145 7.27 107.6 11.81
4/19/2022 7:00:00 AM 6.86 44.348 0.143 7.27 109.7 11.8
4/19/2022 7:15:00 AM 6.82 44.276 0.142 7.27 96.67 11.83
4/19/2022 7:30:00 AM 6.8 44.24 0.141 7.27 94.81 11.81
4/19/2022 7:45:00 AM 6.78 44.204 0.139 7.26 89.59 11.85
4/19/2022 8:00:00 AM 6.76 44.168 0.139 7.27 78.03 11.88
4/19/2022 8:15:00 AM 6.74 44.132 0.138 7.27 79.42 11.89
4/19/2022 8:30:00 AM 6.74 44.132 0.138 7.27 81.87 11.9
4/19/2022 8:45:00 AM 6.76 44.168 0.138 7.28 67.88 11.91
4/19/2022 9:00:00 AM 6.8 44.24 0.138 7.27 55.54 11.99
4/19/2022 9:15:00 AM 6.88 44.384 0.138 7.27 69.4 11.98
4/19/2022 9:30:00 AM 6.96 44.528 0.138 7.27 59.87 12.07
4/19/2022 9:45:00 AM 7.05 44.69 0.138 7.27 56.02 12.08
4/19/2022 10:00:00 AM 7.16 44.888 0.138 7.27 59.55 12.13
4/19/2022 10:15:00 AM 7.25 45.05 0.139 7.28 47.46 12.16
4/19/2022 10:30:00 AM 7.43 45.374 0.139 7.28 47.05 12.21
4/19/2022 10:45:00 AM 7.58 45.644 0.139 7.28 52.44 12.23
4/19/2022 11:00:00 AM 7.73 45.914 0.139 7.29 44.68 12.25
4/19/2022 11:15:00 AM 7.96 46.328 0.139 7.29 43.64 12.32
4/19/2022 11:30:00 AM 8.12 46.616 0.14 7.3 37.55 12.33
4/19/2022 11:45:00 AM 8.31 46.958 0.14 7.3 39.26 12.35
4/19/2022 12:00:00 PM 8.49 47.282 0.14 7.32 37.05 12.36
4/19/2022 12:15:00 PM 8.68 47.624 0.14 7.32 33.21 12.34
4/19/2022 12:30:00 PM 8.8 47.84 0.141 7.33 32.41 12.35
4/19/2022 12:45:00 PM 8.88 47.984 0.141 7.34 31.61 12.37
4/19/2022 1:00:00 PM 9 48.2 0.141 7.35 30.13 12.35
4/19/2022 1:15:00 PM 9.03 48.254 0.142 7.36 28.13 12.32
4/19/2022 1:30:00 PM 9.16 48.488 0.142 7.37 28.72 12.34
4/19/2022 1:45:00 PM 9.29 48.722 0.143 7.38 27.87 12.32
4/19/2022 2:00:00 PM 9.41 48.938 0.143 7.38 26.51 12.3
4/19/2022 2:15:00 PM 9.46 49.028 0.144 7.38 30.11 12.28
4/19/2022 2:30:00 PM 9.47 49.046 0.144 7.39 22.99 12.24
4/19/2022 2:45:00 PM 9.6 49.28 0.145 7.4 22.15 12.23
4/19/2022 3:00:00 PM 9.71 49.478 0.145 7.41 22.98 12.23
4/19/2022 3:15:00 PM 9.86 49.748 0.146 7.4 24 12.24
4/19/2022 3:30:00 PM 9.92 49.856 0.146 7.42 26.51 12.18
4/19/2022 3:45:00 PM 10.04 50.072 0.146 7.43 21.5 12.16
4/19/2022 4:00:00 PM 10.12 50.216 0.147 7.43 21.97 12.14
4/19/2022 4:15:00 PM 10.16 50.288 0.146 7.44 19.91 12.13
4/19/2022 4:30:00 PM 10.29 50.522 0.147 7.45 22.11 12.1
4/19/2022 4:45:00 PM 10.21 50.378 0.148 7.46 19 12.01
4/19/2022 5:00:00 PM 10.17 50.306 0.148 7.46 19.11 11.92
4/19/2022 5:15:00 PM 10.2 50.36 0.148 7.46 18.57 11.89
4/19/2022 5:30:00 PM 10.23 50.414 0.148 7.47 20.7 11.92
4/19/2022 5:45:00 PM 10.26 50.468 0.149 7.45 19.12 11.9
4/19/2022 6:00:00 PM 10.24 50.432 0.149 7.48 17.25 11.84
4/19/2022 6:15:00 PM 10.2 50.36 0.149 7.47 19.96 11.75
4/19/2022 6:30:00 PM 10.15 50.27 0.15 7.47 18.02 11.7
4/19/2022 6:45:00 PM 10.1 50.18 0.15 7.47 17.19 11.64
4/19/2022 7:00:00 PM 10.07 50.126 0.15 7.47 22.03 11.56
4/19/2022 7:15:00 PM 10.01 50.018 0.151 7.46 18.29 11.49
4/19/2022 7:30:00 PM 9.91 49.838 0.151 7.47 16.25 11.43
4/19/2022 7:45:00 PM 9.84 49.712 0.151 7.44 17.43 11.39
4/19/2022 8:00:00 PM 9.77 49.586 0.152 7.45 16.4 11.34
4/19/2022 8:15:00 PM 9.69 49.442 0.152 7.44 15.52 11.3
4/19/2022 8:30:00 PM 9.62 49.316 0.152 7.43 16.04 11.24
4/19/2022 8:45:00 PM 9.55 49.19 0.153 7.42 18.59 11.2
4/19/2022 9:00:00 PM 9.47 49.046 0.153 7.41 16.66 11.16
4/19/2022 9:15:00 PM 9.4 48.92 0.153 7.4 16.63 11.17
4/19/2022 9:30:00 PM 9.35 48.83 0.154 7.39 15.5 11.13
4/19/2022 9:45:00 PM 9.28 48.704 0.154 7.38 17 11.13
4/19/2022 10:00:00 PM 9.21 48.578 0.154 7.37 16.96 11.1
4/19/2022 10:15:00 PM 9.13 48.434 0.154 7.35 16.11 11.14
4/19/2022 10:30:00 PM 9.06 48.308 0.155 7.35 17.09 11.14
4/19/2022 10:45:00 PM 9 48.2 0.155 7.34 14.84 11.11
4/19/2022 11:00:00 PM 8.93 48.074 0.155 7.34 15.29 11.11
4/19/2022 11:15:00 PM 8.86 47.948 0.155 7.33 16.53 11.11
4/19/2022 11:30:00 PM 8.79 47.822 0.156 7.32 21.5 11.15
4/19/2022 11:45:00 PM 8.72 47.696 0.156 7.32 15.3 11.19
4/20/2022 12:00:00 AM 8.64 47.552 0.156 7.31 15.51 11.21
4/20/2022 12:15:00 AM 8.57 47.426 0.156 7.31 16.27 11.24
4/20/2022 12:30:00 AM 8.51 47.318 0.157 7.31 14.91 11.27
4/20/2022 12:45:00 AM 8.45 47.21 0.157 7.3 16.4 11.28
4/20/2022 1:00:00 AM 8.37 47.066 0.157 7.29 15.49 11.32
4/20/2022 1:15:00 AM 8.3 46.94 0.157 7.3 15.75 11.36
4/20/2022 1:30:00 AM 8.23 46.814 0.157 7.3 15.07 11.36
4/20/2022 1:45:00 AM 8.17 46.706 0.158 7.29 14.92 11.38
4/20/2022 2:00:00 AM 8.1 46.58 0.158 7.28 15.37 11.42
4/20/2022 2:15:00 AM 8.03 46.454 0.158 7.29 13.81 11.44
4/20/2022 2:30:00 AM 7.97 46.346 0.158 7.28 16.22 11.44
4/20/2022 2:45:00 AM 7.9 46.22 0.158 7.29 17.09 11.48
4/20/2022 3:00:00 AM 7.82 46.076 0.158 7.27 14.97 11.49
4/20/2022 3:15:00 AM 7.75 45.95 0.159 7.27 14.01 11.53
4/20/2022 3:30:00 AM 7.66 45.788 0.159 7.28 14.73 11.56
4/20/2022 3:45:00 AM 7.59 45.662 0.159 7.27 16.85 11.59
4/20/2022 4:00:00 AM 7.51 45.518 0.159 7.27 15.21 11.62
4/20/2022 4:15:00 AM 7.43 45.374 0.159 7.27 13.47 11.66
4/20/2022 4:30:00 AM 7.35 45.23 0.159 7.27 16.77 11.69
4/20/2022 4:45:00 AM 7.28 45.104 0.159 7.28 14.63 11.68
4/20/2022 5:00:00 AM 7.2 44.96 0.159 7.29 13.04 11.74
4/20/2022 5:15:00 AM 7.12 44.816 0.16 7.28 15.62 11.79
4/20/2022 5:30:00 AM 7.04 44.672 0.16 7.27 15.62 11.82
4/20/2022 5:45:00 AM 6.97 44.546 0.16 7.27 14.36 11.84
4/20/2022 6:00:00 AM 6.89 44.402 0.16 7.28 15.73 11.87
4/20/2022 6:15:00 AM 6.82 44.276 0.16 7.28 14.19 11.9
4/20/2022 6:30:00 AM 6.74 44.132 0.16 7.28 15.05 11.93
4/20/2022 6:45:00 AM 6.7 44.06 0.16 7.27 21.34 11.94
4/20/2022 7:00:00 AM 6.62 43.916 0.161 7.28 14.8 12.01
4/20/2022 7:15:00 AM 6.55 43.79 0.16 7.27 14.66 12.08
4/20/2022 7:30:00 AM 6.49 43.682 0.16 7.28 14.82 12.13
4/20/2022 7:45:00 AM 6.43 43.574 0.161 7.29 13.65 12.2
4/20/2022 8:00:00 AM 6.38 43.484 0.16 7.29 15.31 12.26
4/20/2022 8:15:00 AM 6.35 43.43 0.16 7.29 15.02 12.3
4/20/2022 8:30:00 AM 6.32 43.376 0.16 7.3 15.71 12.37
4/20/2022 8:45:00 AM 6.32 43.376 0.161 7.3 17.14 12.46
4/20/2022 9:00:00 AM 6.33 43.394 0.161 7.31 15.14 12.54
4/20/2022 9:15:00 AM 6.36 43.448 0.161 7.31 15.23 12.63
4/20/2022 9:30:00 AM 6.41 43.538 0.161 7.31 13.83 12.71
4/20/2022 9:45:00 AM 6.48 43.664 0.161 7.32 14.07 12.77
4/20/2022 10:00:00 AM 6.6 43.88 0.16 7.33 13.88 12.84
4/20/2022 10:15:00 AM 6.75 44.15 0.16 7.32 13.57 12.89
4/20/2022 10:30:00 AM 6.95 44.51 0.16 7.34 13.18 12.96
4/20/2022 10:45:00 AM 7.15 44.87 0.16 7.34 12.85 12.98
4/20/2022 11:00:00 AM 7.4 45.32 0.16 7.34 13.1 13
4/20/2022 11:15:00 AM 7.68 45.824 0.16 7.35 12.43 13.03
4/20/2022 11:30:00 AM 7.98 46.364 0.16 7.35 12.94 13.02
4/20/2022 11:45:00 AM 8.27 46.886 0.16 7.35 13.48 12.99
4/20/2022 12:00:00 PM 8.6 47.48 0.159 7.34 13.13 12.95
4/20/2022 12:15:00 PM 8.97 48.146 0.159 7.35 13.97 12.92
4/20/2022 12:30:00 PM 9.3 48.74 0.159 7.35 12.31 12.87
4/20/2022 12:45:00 PM 9.63 49.334 0.159 7.35 15.3 12.82
4/20/2022 1:00:00 PM 9.97 49.946 0.159 7.36 12.41 12.77
4/20/2022 1:15:00 PM 10.29 50.522 0.159 7.36 12.67 12.66
4/20/2022 1:30:00 PM 10.66 51.188 0.159 7.37 13.91 12.61
4/20/2022 1:45:00 PM 11 51.8 0.159 7.39 11.93 12.57
4/20/2022 2:00:00 PM 11.3 52.34 0.159 7.39 12.49 12.5
4/20/2022 2:15:00 PM 11.59 52.862 0.159 7.4 11.75 12.44
4/20/2022 2:30:00 PM 11.86 53.348 0.159 7.41 15.06 12.38
4/20/2022 2:45:00 PM 12.07 53.726 0.159 7.41 14.18 12.34
4/20/2022 3:00:00 PM 12.25 54.05 0.159 7.42 12.49 12.27
4/20/2022 3:15:00 PM 12.4 54.32 0.159 7.42 12.84 12.2
4/20/2022 3:30:00 PM 12.52 54.536 0.159 7.44 12.48 12.12
4/20/2022 3:45:00 PM 12.63 54.734 0.159 7.45 12.24 12.05
4/20/2022 4:00:00 PM 12.71 54.878 0.159 7.45 13.38 11.97
4/20/2022 4:15:00 PM 12.75 54.95 0.159 7.45 12.42 11.94
4/20/2022 4:30:00 PM 12.77 54.986 0.159 7.46 12.86 11.87
4/20/2022 4:45:00 PM 12.77 54.986 0.159 7.47 12.81 11.83
4/20/2022 5:00:00 PM 12.78 55.004 0.159 7.47 12.26 11.74
4/20/2022 5:15:00 PM 12.74 54.932 0.159 7.48 11.62 11.68
4/20/2022 5:30:00 PM 12.7 54.86 0.159 7.49 11.77 11.6
4/20/2022 5:45:00 PM 12.67 54.806 0.159 7.49 15.01 11.56
4/20/2022 6:00:00 PM 12.62 54.716 0.159 7.49 12.35 11.46
4/20/2022 6:15:00 PM 12.56 54.608 0.159 7.49 13.06 11.41
4/20/2022 6:30:00 PM 12.49 54.482 0.159 7.5 12.88 11.32
4/20/2022 6:45:00 PM 12.43 54.374 0.159 7.5 13.59 11.25
4/20/2022 7:00:00 PM 12.35 54.23 0.159 7.51 12.44 11.16
4/20/2022 7:15:00 PM 12.28 54.104 0.16 7.48 12.9 11.08
4/20/2022 7:30:00 PM 12.21 53.978 0.16 7.47 14.83 11.02
4/20/2022 7:45:00 PM 12.14 53.852 0.16 7.47 12.48 10.94
4/20/2022 8:00:00 PM 12.07 53.726 0.16 7.46 13.34 10.85
4/20/2022 8:15:00 PM 12 53.6 0.16 7.46 15.52 10.76
4/20/2022 8:30:00 PM 11.94 53.492 0.16 7.45 14.19 10.67
4/20/2022 8:45:00 PM 11.87 53.366 0.16 7.41 12.71 10.64
4/20/2022 9:00:00 PM 11.81 53.258 0.161 7.41 13.58 10.61
4/20/2022 9:15:00 PM 11.74 53.132 0.161 7.38 16 10.59
4/20/2022 9:30:00 PM 11.68 53.024 0.161 7.37 15.06 10.51
4/20/2022 9:45:00 PM 11.61 52.898 0.161 7.35 14.1 10.51
4/20/2022 10:00:00 PM 11.53 52.754 0.161 7.33 14.98 10.49
4/20/2022 10:15:00 PM 11.45 52.61 0.161 7.32 16.88 10.48
4/20/2022 10:30:00 PM 11.37 52.466 0.161 7.3 13.28 10.49
4/20/2022 10:45:00 PM 11.29 52.322 0.161 7.3 16.18 10.49
4/20/2022 11:00:00 PM 11.23 52.214 0.162 7.28 14.1 10.44
4/20/2022 11:15:00 PM 11.13 52.034 0.161 7.28 15.44 10.47
4/20/2022 11:30:00 PM 11.04 51.872 0.161 7.27 15 10.47
4/20/2022 11:45:00 PM 10.97 51.746 0.161 7.25 13.9 10.48
4/21/2022 12:00:00 AM 10.91 51.638 0.161 7.25 13.06 10.52
4/21/2022 12:15:00 AM 10.84 51.512 0.161 7.24 13.93 10.53
4/21/2022 12:30:00 AM 10.78 51.404 0.161 7.23 15.41 10.55
4/21/2022 12:45:00 AM 10.73 51.314 0.161 7.23 15.59 10.56
4/21/2022 1:00:00 AM 10.67 51.206 0.161 7.21 13.98 10.5
4/21/2022 1:15:00 AM 10.62 51.116 0.161 7.21 16.96 10.58
4/21/2022 1:30:00 AM 10.55 50.99 0.161 7.21 14 10.61
4/21/2022 1:45:00 AM 10.49 50.882 0.161 7.22 14.29 10.61
4/21/2022 2:00:00 AM 10.42 50.756 0.161 7.21 14.27 10.64
4/21/2022 2:15:00 AM 10.37 50.666 0.162 7.21 13.98 10.65
4/21/2022 2:30:00 AM 10.31 50.558 0.162 7.2 16.01 10.65
4/21/2022 2:45:00 AM 10.24 50.432 0.162 7.19 15.96 10.7
4/21/2022 3:00:00 AM 10.16 50.288 0.162 7.2 14.67 10.73
4/21/2022 3:15:00 AM 10.09 50.162 0.162 7.21 15.48 10.76
4/21/2022 3:30:00 AM 10 50 0.163 7.19 16.7 10.78
4/21/2022 3:45:00 AM 9.94 49.892 0.162 7.19 15.94 10.82
4/21/2022 4:00:00 AM 9.86 49.748 0.162 7.19 16.5 10.87
4/21/2022 4:15:00 AM 9.77 49.586 0.162 7.2 15.97 10.91
4/21/2022 4:30:00 AM 9.7 49.46 0.162 7.2 15.89 10.92
4/21/2022 4:45:00 AM 9.63 49.334 0.163 7.2 14.52 10.95
4/21/2022 5:00:00 AM 9.54 49.172 0.163 7.2 20.2 10.97
4/21/2022 5:15:00 AM 9.47 49.046 0.164 7.2 13.23 11
4/21/2022 5:30:00 AM 9.39 48.902 0.163 7.19 15.66 11.04
4/21/2022 5:45:00 AM 9.3 48.74 0.163 7.19 15.36 11.08
4/21/2022 6:00:00 AM 9.22 48.596 0.163 7.19 15.84 11.11
4/21/2022 6:15:00 AM 9.13 48.434 0.164 7.2 17.92 11.14
4/21/2022 6:30:00 AM 9.06 48.308 0.163 7.19 15.19 11.15
4/21/2022 6:45:00 AM 8.96 48.128 0.163 7.2 16.39 11.21
4/21/2022 7:00:00 AM 8.88 47.984 0.163 7.2 15.14 11.26
4/21/2022 7:15:00 AM 8.82 47.876 0.163 7.21 15.08 11.34
4/21/2022 7:30:00 AM 8.76 47.768 0.164 7.21 15.39 11.43
4/21/2022 7:45:00 AM 8.72 47.696 0.163 7.22 15.9 11.54
4/21/2022 8:00:00 AM 8.71 47.678 0.163 7.23 16.61 11.68
4/21/2022 8:15:00 AM 8.72 47.696 0.163 7.24 15.09 11.76
4/21/2022 8:30:00 AM 8.74 47.732 0.163 7.25 14.89 11.87
4/21/2022 8:45:00 AM 8.77 47.786 0.163 7.26 13.92 11.93
4/21/2022 9:00:00 AM 8.8 47.84 0.163 7.27 15.1 12.05
4/21/2022 9:15:00 AM 8.84 47.912 0.163 7.29 14.09 12.09
4/21/2022 9:30:00 AM 8.88 47.984 0.163 7.31 14.68 12.2
4/21/2022 9:45:00 AM 8.96 48.128 0.163 7.34 13.47 12.3
4/21/2022 10:00:00 AM 9.07 48.326 0.163 7.33 14.22 12.36
4/21/2022 10:15:00 AM 9.17 48.506 0.162 7.36 13.64 12.42
4/21/2022 10:30:00 AM 9.24 48.632 0.162 7.37 15.11 12.48
4/21/2022 10:45:00 AM 9.38 48.884 0.162 7.38 13.76 12.55
4/21/2022 11:00:00 AM 9.51 49.118 0.162 7.39 14.66 12.55
4/21/2022 11:15:00 AM 9.68 49.424 0.162 7.41 14.45 12.59
4/21/2022 11:30:00 AM 9.81 49.658 0.162 7.43 13.77 12.59
4/21/2022 11:45:00 AM 9.96 49.928 0.162 7.44 13.61 12.58
4/21/2022 12:00:00 PM 10.08 50.144 0.162 7.45 12.31 12.57
4/21/2022 12:15:00 PM 10.15 50.27 0.162 7.47 12.69 12.55
4/21/2022 12:30:00 PM 10.19 50.342 0.162 7.48 12.97 12.53
4/21/2022 12:45:00 PM 10.27 50.486 0.162 7.49 12.3 12.5
4/21/2022 1:00:00 PM 10.43 50.774 0.162 7.51 10.75 12.51
4/21/2022 1:15:00 PM 10.63 51.134 0.161 7.52 11.7 12.5
4/21/2022 1:30:00 PM 10.85 51.53 0.161 7.53 11.31 12.48
4/21/2022 1:45:00 PM 10.97 51.746 0.161 7.54 11.64 12.46
4/21/2022 2:00:00 PM 11.03 51.854 0.161 7.54 11.76 12.43
4/21/2022 2:15:00 PM 11.09 51.962 0.161 7.55 12.72 12.35
4/21/2022 2:30:00 PM 11.27 52.286 0.161 7.56 12.18 12.35
4/21/2022 2:45:00 PM 11.45 52.61 0.161 7.58 13.49 12.35
4/21/2022 3:00:00 PM 11.52 52.736 0.161 7.59 12.46 12.3
4/21/2022 3:15:00 PM 11.52 52.736 0.161 7.61 11.69 12.24
4/21/2022 3:30:00 PM 11.53 52.754 0.16 7.63 11.12 12.17
4/21/2022 3:45:00 PM 11.53 52.754 0.161 7.64 11.62 12.12
4/21/2022 4:00:00 PM 11.55 52.79 0.16 7.65 19.63 12.06
4/21/2022 4:15:00 PM 11.58 52.844 0.16 7.65 12.07 12.04
4/21/2022 4:30:00 PM 11.6 52.88 0.16 7.65 12.09 11.96
4/21/2022 4:45:00 PM 11.61 52.898 0.16 7.66 11.76 11.87
4/21/2022 5:00:00 PM 11.61 52.898 0.16 7.65 11.4 11.83
4/21/2022 5:15:00 PM 11.6 52.88 0.16 7.65 11.09 11.73
4/21/2022 5:30:00 PM 11.62 52.916 0.16 7.63 11.57 11.7
4/21/2022 5:45:00 PM 11.65 52.97 0.16 7.64 13.25 11.67
4/21/2022 6:00:00 PM 11.68 53.024 0.16 7.63 10.76 11.65
4/21/2022 6:15:00 PM 11.72 53.096 0.16 7.63 12.07 11.62
4/21/2022 6:30:00 PM 11.72 53.096 0.16 7.62 11.16 11.54
4/21/2022 6:45:00 PM 11.71 53.078 0.16 7.61 12.18 11.42
4/21/2022 7:00:00 PM 11.71 53.078 0.16 7.6 10.75 11.32
4/21/2022 7:15:00 PM 11.7 53.06 0.16 7.59 10.86 11.21
4/21/2022 7:30:00 PM 11.7 53.06 0.16 7.56 11.75 11.11
4/21/2022 7:45:00 PM 11.7 53.06 0.16 7.55 11.42 11.03
4/21/2022 8:00:00 PM 11.7 53.06 0.161 7.51 11.42 10.95
4/21/2022 8:15:00 PM 11.7 53.06 0.161 7.49 10.97 10.89
4/21/2022 8:30:00 PM 11.7 53.06 0.161 7.47 11.39 10.82
4/21/2022 8:45:00 PM 11.7 53.06 0.162 7.45 11.68 10.76
4/21/2022 9:00:00 PM 11.7 53.06 0.161 7.42 11.5 10.7
4/21/2022 9:15:00 PM 11.71 53.078 0.161 7.4 11.96 10.62
4/21/2022 9:30:00 PM 11.71 53.078 0.161 7.38 12.88 10.58
4/21/2022 9:45:00 PM 11.7 53.06 0.161 7.37 11.81 10.53
4/21/2022 10:00:00 PM 11.69 53.042 0.161 7.35 12.25 10.46
4/21/2022 10:15:00 PM 11.68 53.024 0.161 7.32 12.64 10.46
4/21/2022 10:30:00 PM 11.66 52.988 0.161 7.31 12.24 10.43
4/21/2022 10:45:00 PM 11.63 52.934 0.161 7.3 11.96 10.43
4/21/2022 11:00:00 PM 11.6 52.88 0.162 7.28 12.7 10.43
4/21/2022 11:15:00 PM 11.56 52.808 0.162 7.26 12.52 10.4
4/21/2022 11:30:00 PM 11.55 52.79 0.162 7.25 12.39 10.39
4/21/2022 11:45:00 PM 11.53 52.754 0.162 7.23 12.17 10.42
4/22/2022 12:00:00 AM 11.5 52.7 0.162 7.22 12.63 10.41
4/22/2022 12:15:00 AM 11.46 52.628 0.162 7.21 12.39 10.41
4/22/2022 12:30:00 AM 11.41 52.538 0.162 7.2 12.02 10.42
4/22/2022 12:45:00 AM 11.36 52.448 0.162 7.2 13.52 10.43
4/22/2022 1:00:00 AM 11.31 52.358 0.163 7.21 12.13 10.42
4/22/2022 1:15:00 AM 11.25 52.25 0.162 7.2 12.8 10.46
4/22/2022 1:30:00 AM 11.19 52.142 0.162 7.19 12.42 10.44
4/22/2022 1:45:00 AM 11.13 52.034 0.162 7.19 12.44 10.46
4/22/2022 2:00:00 AM 11.06 51.908 0.162 7.19 12.55 10.48
4/22/2022 2:15:00 AM 11 51.8 0.162 7.18 13 10.52
4/22/2022 2:30:00 AM 10.93 51.674 0.163 7.18 11.74 10.52
4/22/2022 2:45:00 AM 10.86 51.548 0.162 7.18 15.18 10.55
4/22/2022 3:00:00 AM 10.8 51.44 0.162 7.17 12 10.56
4/22/2022 3:15:00 AM 10.73 51.314 0.162 7.17 12.15 10.56
4/22/2022 3:30:00 AM 10.66 51.188 0.162 7.17 11.26 10.59
4/22/2022 3:45:00 AM 10.59 51.062 0.162 7.16 12.2 10.62
4/22/2022 4:00:00 AM 10.52 50.936 0.163 7.17 14.12 10.65
4/22/2022 4:15:00 AM 10.45 50.81 0.163 7.17 14.65 10.67
4/22/2022 4:30:00 AM 10.38 50.684 0.163 7.17 11.98 10.7
4/22/2022 4:45:00 AM 10.31 50.558 0.163 7.17 11.92 10.73
4/22/2022 5:00:00 AM 10.24 50.432 0.163 7.18 11.85 10.76
4/22/2022 5:15:00 AM 10.17 50.306 0.163 7.17 12.77 10.76
4/22/2022 5:30:00 AM 10.1 50.18 0.163 7.18 13.38 10.77
4/22/2022 5:45:00 AM 10.03 50.054 0.163 7.18 13.96 10.79
4/22/2022 6:00:00 AM 9.96 49.928 0.163 7.17 15.28 10.81
4/22/2022 6:15:00 AM 9.89 49.802 0.163 7.18 13.03 10.84
4/22/2022 6:30:00 AM 9.82 49.676 0.163 7.18 13.03 10.85
4/22/2022 6:45:00 AM 9.75 49.55 0.164 7.18 12.88 10.92
4/22/2022 7:00:00 AM 9.68 49.424 0.164 7.18 15.42 10.97
4/22/2022 7:15:00 AM 9.62 49.316 0.164 7.18 14.22 11.01
4/22/2022 7:30:00 AM 9.56 49.208 0.164 7.18 12.27 11.1
4/22/2022 7:45:00 AM 9.5 49.1 0.164 7.18 12.86 11.17
4/22/2022 8:00:00 AM 9.46 49.028 0.164 7.2 13.66 11.25
4/22/2022 8:15:00 AM 9.43 48.974 0.164 7.2 12.89 11.31
4/22/2022 8:30:00 AM 9.41 48.938 0.163 7.21 11.52 11.41
4/22/2022 8:45:00 AM 9.42 48.956 0.163 7.22 17.61 11.49
4/22/2022 9:00:00 AM 9.46 49.028 0.164 7.23 12.42 11.6
4/22/2022 9:15:00 AM 9.52 49.136 0.163 7.23 11.69 11.7
4/22/2022 9:30:00 AM 9.62 49.316 0.163 7.26 12.34 11.79
4/22/2022 9:45:00 AM 9.73 49.514 0.163 7.27 11.84 11.91
4/22/2022 10:00:00 AM 9.88 49.784 0.163 7.28 11.73 11.98
4/22/2022 10:15:00 AM 10.06 50.108 0.163 7.31 11.58 12.11
4/22/2022 10:30:00 AM 10.29 50.522 0.163 7.32 11.83 12.17
4/22/2022 10:45:00 AM 10.54 50.972 0.163 7.35 12.29 12.22
4/22/2022 11:00:00 AM 10.84 51.512 0.162 7.36 11.8 12.25
4/22/2022 11:15:00 AM 11.11 51.998 0.162 7.39 12.01 12.29
4/22/2022 11:30:00 AM 11.42 52.556 0.162 7.4 11.31 12.3
4/22/2022 11:45:00 AM 11.74 53.132 0.162 7.42 10.81 12.3
4/22/2022 12:00:00 PM 12.09 53.762 0.162 7.44 12.04 12.28
4/22/2022 12:15:00 PM 12.48 54.464 0.162 7.48 11.03 12.26
4/22/2022 12:30:00 PM 12.83 55.094 0.162 7.48 11.26 12.23
4/22/2022 12:45:00 PM 13.24 55.832 0.162 7.5 11.09 12.18
4/22/2022 1:00:00 PM 13.59 56.462 0.162 7.53 10.23 12.16
4/22/2022 1:15:00 PM 13.92 57.056 0.162 7.54 10.82 12.1
4/22/2022 1:30:00 PM 14.21 57.578 0.161 7.57 11.76 12.02
4/22/2022 1:45:00 PM 14.48 58.064 0.161 7.59 12.34 12
4/22/2022 2:00:00 PM 14.73 58.514 0.161 7.62 11.93 11.93
4/22/2022 2:15:00 PM 14.99 58.982 0.161 7.64 12.47 11.89
4/22/2022 2:30:00 PM 15.19 59.342 0.161 7.67 11.53 11.83
4/22/2022 2:45:00 PM 15.23 59.414 0.161 7.7 11.79 11.75
4/22/2022 3:00:00 PM 15.15 59.27 0.161 7.73 11.56 11.67
4/22/2022 3:15:00 PM 15.07 59.126 0.161 7.76 11.83 11.61
4/22/2022 3:30:00 PM 15.01 59.018 0.161 7.78 11.46 11.51
4/22/2022 3:45:00 PM 14.97 58.946 0.161 7.79 12.05 11.52
4/22/2022 4:00:00 PM 14.95 58.91 0.161 7.82 11.08 11.49
4/22/2022 4:15:00 PM 14.96 58.928 0.16 7.85 10.8 11.5
4/22/2022 4:30:00 PM 15 59 0.16 7.86 12.34 11.47
4/22/2022 4:45:00 PM 15.01 59.018 0.16 7.87 12.49 11.45
4/22/2022 5:00:00 PM 14.98 58.964 0.16 7.9 11.13 11.4
4/22/2022 5:15:00 PM 14.94 58.892 0.16 7.91 16.29 11.35
4/22/2022 5:30:00 PM 14.9 58.82 0.16 7.92 11.51 11.32
4/22/2022 5:45:00 PM 14.87 58.766 0.16 7.93 10.94 11.27
4/22/2022 6:00:00 PM 14.84 58.712 0.16 7.92 11.32 11.23
4/22/2022 6:15:00 PM 14.8 58.64 0.16 7.92 10.84 11.16
4/22/2022 6:30:00 PM 14.77 58.586 0.16 7.92 10.95 11.09
4/22/2022 6:45:00 PM 14.72 58.496 0.16 7.91 11.86 11.03
4/22/2022 7:00:00 PM 14.65 58.37 0.16 7.89 12.21 10.94
4/22/2022 7:15:00 PM 14.59 58.262 0.16 7.87 12.42 10.81
4/22/2022 7:30:00 PM 14.52 58.136 0.161 7.84 11.17 10.7
4/22/2022 7:45:00 PM 14.46 58.028 0.161 7.8 12.97 10.6
4/22/2022 8:00:00 PM 14.4 57.92 0.161 7.76 12.43 10.48
4/22/2022 8:15:00 PM 14.34 57.812 0.161 7.73 13.43 10.34
4/22/2022 8:30:00 PM 14.29 57.722 0.161 7.67 12.03 10.25
4/22/2022 8:45:00 PM 14.23 57.614 0.161 7.63 11.06 10.17
4/22/2022 9:00:00 PM 14.17 57.506 0.161 7.57 11.99 10.09
4/22/2022 9:15:00 PM 14.11 57.398 0.161 7.53 12.83 10.07
4/22/2022 9:30:00 PM 14.05 57.29 0.161 7.5 11.94 9.99
4/22/2022 9:45:00 PM 13.99 57.182 0.161 7.47 11.32 9.95
4/22/2022 10:00:00 PM 13.92 57.056 0.161 7.43 12.41 9.9
4/22/2022 10:15:00 PM 13.85 56.93 0.161 7.39 12.8 9.86
4/22/2022 10:30:00 PM 13.79 56.822 0.162 7.37 11.81 9.85
4/22/2022 10:45:00 PM 13.71 56.678 0.162 7.34 11.99 9.83
4/22/2022 11:00:00 PM 13.64 56.552 0.162 7.31 12.66 9.79
4/22/2022 11:15:00 PM 13.58 56.444 0.162 7.29 11.34 9.79
4/22/2022 11:30:00 PM 13.5 56.3 0.162 7.27 11.55 9.81
4/22/2022 11:45:00 PM 13.44 56.192 0.162 7.25 11.1 9.79
4/23/2022 12:00:00 AM 13.38 56.084 0.162 7.23 12 9.81
4/23/2022 12:15:00 AM 13.32 55.976 0.162 7.2 12.32 9.79
4/23/2022 12:30:00 AM 13.26 55.868 0.162 7.21 13.31 9.81
4/23/2022 12:45:00 AM 13.2 55.76 0.162 7.2 11.42 9.87
4/23/2022 1:00:00 AM 13.15 55.67 0.162 7.19 14.31 9.85
4/23/2022 1:15:00 AM 13.1 55.58 0.163 7.18 16.55 9.85
4/23/2022 1:30:00 AM 13.05 55.49 0.163 7.17 12.04 9.87
4/23/2022 1:45:00 AM 13.01 55.418 0.163 7.16 13.01 9.89
4/23/2022 2:00:00 AM 12.96 55.328 0.163 7.17 11.59 9.89
4/23/2022 2:15:00 AM 12.91 55.238 0.163 7.16 11.68 9.91
4/23/2022 2:30:00 AM 12.87 55.166 0.163 7.15 12.86 9.93
4/23/2022 2:45:00 AM 12.82 55.076 0.163 7.14 14.93 9.96
4/23/2022 3:00:00 AM 12.78 55.004 0.163 7.12 13.52 9.95
4/23/2022 3:15:00 AM 12.72 54.896 0.163 7.13 14.04 9.97
4/23/2022 3:30:00 AM 12.66 54.788 0.163 7.13 12.49 10.01
4/23/2022 3:45:00 AM 12.6 54.68 0.163 7.13 12.21 10.03
4/23/2022 4:00:00 AM 12.54 54.572 0.163 7.13 12.53 10.03
4/23/2022 4:15:00 AM 12.48 54.464 0.163 7.12 12.1 10.06
4/23/2022 4:30:00 AM 12.41 54.338 0.163 7.13 13.42 10.09
4/23/2022 4:45:00 AM 12.35 54.23 0.163 7.12 11.6 10.11
4/23/2022 5:00:00 AM 12.29 54.122 0.164 7.13 12.07 10.12
4/23/2022 5:15:00 AM 12.24 54.032 0.164 7.13 11.39 10.14
4/23/2022 5:30:00 AM 12.18 53.924 0.164 7.13 13.81 10.17
4/23/2022 5:45:00 AM 12.13 53.834 0.164 7.12 11.35 10.17
4/23/2022 6:00:00 AM 12.06 53.708 0.164 7.12 11.92 10.22
4/23/2022 6:15:00 AM 12.01 53.618 0.164 7.13 12.16 10.23
4/23/2022 6:30:00 AM 11.95 53.51 0.164 7.12 11.59 10.24
4/23/2022 6:45:00 AM 11.89 53.402 0.164 7.12 11.12 10.27
4/23/2022 7:00:00 AM 11.85 53.33 0.164 7.13 11.95 10.3
4/23/2022 7:15:00 AM 11.8 53.24 0.164 7.13 11.32 10.38
4/23/2022 7:30:00 AM 11.76 53.168 0.164 7.13 11.49 10.42
4/23/2022 7:45:00 AM 11.72 53.096 0.164 7.14 10.96 10.54
4/23/2022 8:00:00 AM 11.69 53.042 0.164 7.14 11.4 10.59
4/23/2022 8:15:00 AM 11.67 53.006 0.164 7.16 40.48 10.68
4/23/2022 8:30:00 AM 11.64 52.952 0.164 7.15 11.82 10.79
4/23/2022 8:45:00 AM 11.63 52.934 0.164 7.16 11.2 10.88
4/23/2022 9:00:00 AM 11.61 52.898 0.164 7.17 12.43 10.98
4/23/2022 9:15:00 AM 11.61 52.898 0.164 7.19 11.29 11.05
4/23/2022 9:30:00 AM 11.61 52.898 0.164 7.2 11.13 11.14
4/23/2022 9:45:00 AM 11.61 52.898 0.164 7.21 11.45 11.25
4/23/2022 10:00:00 AM 11.61 52.898 0.164 7.23 11.71 11.31
4/23/2022 10:15:00 AM 11.63 52.934 0.164 7.25 11.79 11.39
4/23/2022 10:30:00 AM 11.64 52.952 0.164 7.28 11.36 11.51
4/23/2022 10:45:00 AM 11.67 53.006 0.163 7.3 11.42 11.61
4/23/2022 11:00:00 AM 11.72 53.096 0.163 7.33 11.1 11.69
4/23/2022 11:15:00 AM 11.81 53.258 0.163 7.35 30.25 11.82
4/23/2022 11:30:00 AM 11.88 53.384 0.163 7.37 11.48 11.89
4/23/2022 11:45:00 AM 11.91 53.438 0.163 7.41 10.71 11.89
4/23/2022 12:00:00 PM 11.94 53.492 0.163 7.43 12.27 11.93
4/23/2022 12:15:00 PM 11.96 53.528 0.162 7.45 10.67 11.96
4/23/2022 12:30:00 PM 11.99 53.582 0.162 7.47 10.68 11.96
4/23/2022 12:45:00 PM 12 53.6 0.162 7.5 10.56 11.95
4/23/2022 1:00:00 PM 12.01 53.618 0.162 7.52 10.51 11.95
4/23/2022 1:15:00 PM 12.02 53.636 0.162 7.54 11.07 11.91
4/23/2022 1:30:00 PM 12.05 53.69 0.162 7.56 10.86 11.93
4/23/2022 1:45:00 PM 12.11 53.798 0.162 7.58 10.36 11.99
4/23/2022 2:00:00 PM 12.19 53.942 0.162 7.61 10.73 12.04
4/23/2022 2:15:00 PM 12.36 54.248 0.162 7.63 11.03 12.1
4/23/2022 2:30:00 PM 12.46 54.428 0.162 7.66 10.4 12.09
4/23/2022 2:45:00 PM 12.59 54.662 0.162 7.68 10.99 12.08
4/23/2022 3:00:00 PM 12.71 54.878 0.162 7.7 12.32 12.08
4/23/2022 3:15:00 PM 12.82 55.076 0.162 7.71 12.04 12.07
4/23/2022 3:30:00 PM 12.9 55.22 0.162 7.72 9.9 12.05
4/23/2022 3:45:00 PM 13 55.4 0.162 7.74 10.95 12.03
4/23/2022 4:00:00 PM 13.07 55.526 0.161 7.76 10.57 12.01
4/23/2022 4:15:00 PM 13.13 55.634 0.161 7.78 11.53 11.95
4/23/2022 4:30:00 PM 13.24 55.832 0.161 7.8 10.46 11.94
4/23/2022 4:45:00 PM 13.41 56.138 0.161 7.82 11.7 11.91
4/23/2022 5:00:00 PM 13.53 56.354 0.161 7.83 10.96 11.87
4/23/2022 5:15:00 PM 13.58 56.444 0.161 7.85 10.13 11.79
4/23/2022 5:30:00 PM 13.62 56.516 0.161 7.86 11.82 11.71
4/23/2022 5:45:00 PM 13.64 56.552 0.161 7.88 11.31 11.64
4/23/2022 6:00:00 PM 13.63 56.534 0.161 7.89 10.75 11.57
4/23/2022 6:15:00 PM 13.61 56.498 0.161 7.89 10.63 11.47
4/23/2022 6:30:00 PM 13.59 56.462 0.161 7.89 10.22 11.38
4/23/2022 6:45:00 PM 13.56 56.408 0.161 7.88 12.77 11.25
4/23/2022 7:00:00 PM 13.51 56.318 0.161 7.86 11.32 11.18
4/23/2022 7:15:00 PM 13.44 56.192 0.161 7.85 12.86 11.09
4/23/2022 7:30:00 PM 13.35 56.03 0.161 7.82 11.94 11.01
4/23/2022 7:45:00 PM 13.25 55.85 0.161 7.79 11.59 10.91
4/23/2022 8:00:00 PM 13.17 55.706 0.162 7.76 11.95 10.8
4/23/2022 8:15:00 PM 13.09 55.562 0.162 7.72 11.77 10.68
4/23/2022 8:30:00 PM 13.03 55.454 0.162 7.67 13.17 10.57
4/23/2022 8:45:00 PM 12.98 55.364 0.162 7.64 10.73 10.53
4/23/2022 9:00:00 PM 12.93 55.274 0.162 7.6 10.7 10.46
4/23/2022 9:15:00 PM 12.88 55.184 0.162 7.55 14.18 10.37
4/23/2022 9:30:00 PM 12.83 55.094 0.162 7.52 11.42 10.31
4/23/2022 9:45:00 PM 12.78 55.004 0.162 7.48 11.35 10.22
4/23/2022 10:00:00 PM 12.74 54.932 0.162 7.45 13.43 10.22
4/23/2022 10:15:00 PM 12.69 54.842 0.162 7.42 18.71 10.19
4/23/2022 10:30:00 PM 12.63 54.734 0.162 7.39 11.73 10.18
4/23/2022 10:45:00 PM 12.58 54.644 0.163 7.36 11.89 10.17
4/23/2022 11:00:00 PM 12.53 54.554 0.163 7.35 11.56 10.12
4/23/2022 11:15:00 PM 12.47 54.446 0.163 7.33 11.52 10.11
4/23/2022 11:30:00 PM 12.42 54.356 0.163 7.3 10.72 10.12
4/23/2022 11:45:00 PM 12.36 54.248 0.163 7.28 10.78 10.12
4/24/2022 12:00:00 AM 12.32 54.176 0.163 7.27 11.45 10.1
4/24/2022 12:15:00 AM 12.27 54.086 0.163 7.25 13.05 10.11
4/24/2022 12:30:00 AM 12.21 53.978 0.163 7.24 11.57 10.13
4/24/2022 12:45:00 AM 12.17 53.906 0.163 7.23 11.98 10.12
4/24/2022 1:00:00 AM 12.13 53.834 0.163 7.22 12.03 10.13
4/24/2022 1:15:00 AM 12.09 53.762 0.163 7.21 12.19 10.15
4/24/2022 1:30:00 AM 12.05 53.69 0.163 7.21 13.8 10.15
4/24/2022 1:45:00 AM 12.01 53.618 0.163 7.2 13.58 10.16
4/24/2022 2:00:00 AM 11.97 53.546 0.163 7.19 12.71 10.19
4/24/2022 2:15:00 AM 11.93 53.474 0.163 7.19 13.5 10.19
4/24/2022 2:30:00 AM 11.89 53.402 0.163 7.18 12.98 10.19
4/24/2022 2:45:00 AM 11.85 53.33 0.163 7.18 11.54 10.19
4/24/2022 3:00:00 AM 11.8 53.24 0.163 7.17 12.25 10.23
4/24/2022 3:15:00 AM 11.76 53.168 0.163 7.17 11.67 10.21
4/24/2022 3:30:00 AM 11.71 53.078 0.163 7.17 15.26 10.24
4/24/2022 3:45:00 AM 11.67 53.006 0.163 7.17 12.29 10.25
4/24/2022 4:00:00 AM 11.61 52.898 0.163 7.17 13.76 10.26
4/24/2022 4:15:00 AM 11.56 52.808 0.163 7.16 14.21 10.28
4/24/2022 4:30:00 AM 11.51 52.718 0.163 7.16 16.52 10.29
4/24/2022 4:45:00 AM 11.46 52.628 0.163 7.16 18.26 10.3
4/24/2022 5:00:00 AM 11.4 52.52 0.163 7.16 11.79 10.35
4/24/2022 5:15:00 AM 11.35 52.43 0.164 7.15 12.49 10.34
4/24/2022 5:30:00 AM 11.3 52.34 0.164 7.15 12.23 10.4
4/24/2022 5:45:00 AM 11.25 52.25 0.164 7.15 14.02 10.39
4/24/2022 6:00:00 AM 11.21 52.178 0.164 7.16 11.55 10.41
4/24/2022 6:15:00 AM 11.16 52.088 0.164 7.16 12.89 10.42
4/24/2022 6:30:00 AM 11.11 51.998 0.164 7.15 12.07 10.44
4/24/2022 6:45:00 AM 11.06 51.908 0.164 7.14 12.48 10.49
4/24/2022 7:00:00 AM 11.01 51.818 0.164 7.15 12.28 10.54
4/24/2022 7:15:00 AM 10.97 51.746 0.164 7.16 12.17 10.61
4/24/2022 7:30:00 AM 10.93 51.674 0.164 7.16 13.92 10.69
4/24/2022 7:45:00 AM 10.9 51.62 0.164 7.18 12.27 10.77
4/24/2022 8:00:00 AM 10.88 51.584 0.164 7.19 11.38 10.86
4/24/2022 8:15:00 AM 10.86 51.548 0.164 7.2 11.4 10.94
4/24/2022 8:30:00 AM 10.89 51.602 0.164 7.2 11.93 11.06
4/24/2022 8:45:00 AM 10.93 51.674 0.163 7.2 11.27 11.2
4/24/2022 9:00:00 AM 10.97 51.746 0.163 7.23 10.47 11.31
4/24/2022 9:15:00 AM 11 51.8 0.163 7.25 11.54 11.37
4/24/2022 9:30:00 AM 11.06 51.908 0.163 7.27 12.61 11.45
4/24/2022 9:45:00 AM 11.15 52.07 0.163 7.29 11.47 11.53
4/24/2022 10:00:00 AM 11.29 52.322 0.163 7.3 10.96 11.65
4/24/2022 10:15:00 AM 11.47 52.646 0.163 7.33 11.41 11.75
4/24/2022 10:30:00 AM 11.66 52.988 0.163 7.34 11.96 11.83
4/24/2022 10:45:00 AM 11.91 53.438 0.163 7.37 10.71 11.88
4/24/2022 11:00:00 AM 12.19 53.942 0.162 7.39 11.45 11.92
4/24/2022 11:15:00 AM 12.47 54.446 0.162 7.42 13.74 11.99
4/24/2022 11:30:00 AM 12.77 54.986 0.162 7.43 11.8 11.97
4/24/2022 11:45:00 AM 13.08 55.544 0.162 7.46 11.74 11.97
4/24/2022 12:00:00 PM 13.42 56.156 0.162 7.47 11.08 11.98
4/24/2022 12:15:00 PM 13.79 56.822 0.161 7.5 28.01 11.98
4/24/2022 12:30:00 PM 14.18 57.524 0.161 7.52 11.91 11.94
4/24/2022 12:45:00 PM 14.57 58.226 0.161 7.55 11.1 11.91
4/24/2022 1:00:00 PM 14.93 58.874 0.161 7.58 10.51 11.87
4/24/2022 1:15:00 PM 15.29 59.522 0.161 7.59 11.67 11.82
4/24/2022 1:30:00 PM 15.67 60.206 0.161 7.62 10.56 11.77
4/24/2022 1:45:00 PM 16.03 60.854 0.161 7.64 11.74 11.71
4/24/2022 2:00:00 PM 16.37 61.466 0.161 7.66 10.58 11.65
4/24/2022 2:15:00 PM 16.69 62.042 0.161 7.68 11.45 11.57
4/24/2022 2:30:00 PM 16.97 62.546 0.161 7.71 12.72 11.53
4/24/2022 2:45:00 PM 17.2 62.96 0.161 7.74 11.47 11.47
4/24/2022 3:00:00 PM 17.42 63.356 0.161 7.76 15.41 11.42
4/24/2022 3:15:00 PM 17.57 63.626 0.161 7.8 11.43 11.32
4/24/2022 3:30:00 PM 17.71 63.878 0.161 7.82 11.77 11.29
4/24/2022 3:45:00 PM 17.8 64.04 0.161 7.85 10.52 11.22
4/24/2022 4:00:00 PM 17.89 64.202 0.161 7.86 11.07 11.15
4/24/2022 4:15:00 PM 17.92 64.256 0.161 7.88 13.47 11.07
4/24/2022 4:30:00 PM 17.94 64.292 0.161 7.9 11.07 11
4/24/2022 4:45:00 PM 17.95 64.31 0.161 7.92 10.22 10.92
4/24/2022 5:00:00 PM 17.94 64.292 0.161 7.93 10.36 10.88
4/24/2022 5:15:00 PM 17.91 64.238 0.161 7.96 10.79 10.78
4/24/2022 5:30:00 PM 17.88 64.184 0.161 7.96 10.91 10.66
4/24/2022 5:45:00 PM 17.82 64.076 0.161 7.96 10.45 10.59
4/24/2022 6:00:00 PM 17.76 63.968 0.161 7.97 11.24 10.5
4/24/2022 6:15:00 PM 17.67 63.806 0.161 7.95 11.3 10.4
4/24/2022 6:30:00 PM 17.58 63.644 0.161 7.93 11.67 10.28
4/24/2022 6:45:00 PM 17.48 63.464 0.161 7.93 11.22 10.18
4/24/2022 7:00:00 PM 17.36 63.248 0.161 7.89 11.17 10.06
4/24/2022 7:15:00 PM 17.25 63.05 0.162 7.87 10.47 9.97
4/24/2022 7:30:00 PM 17.14 62.852 0.162 7.82 11.02 9.87
4/24/2022 7:45:00 PM 17.02 62.636 0.162 7.79 11.1 9.77
4/24/2022 8:00:00 PM 16.91 62.438 0.162 7.73 39.86 9.65
4/24/2022 8:15:00 PM 16.8 62.24 0.162 7.69 17.28 9.55
4/24/2022 8:30:00 PM 16.7 62.06 0.163 7.64 12.83 9.44
4/24/2022 8:45:00 PM 16.61 61.898 0.163 7.58 11.98 9.36
4/24/2022 9:00:00 PM 16.52 61.736 0.163 7.53 13.6 9.32
4/24/2022 9:15:00 PM 16.44 61.592 0.163 7.5 11.24 9.27
4/24/2022 9:30:00 PM 16.35 61.43 0.163 7.45 12.27 9.21
4/24/2022 9:45:00 PM 16.26 61.268 0.163 7.41 12.73 9.16
4/24/2022 10:00:00 PM 16.18 61.124 0.163 7.37 13.66 9.14
4/24/2022 10:15:00 PM 16.1 60.98 0.163 7.36 12.52 9.13
4/24/2022 10:30:00 PM 16.02 60.836 0.163 7.33 12.71 9.11
4/24/2022 10:45:00 PM 15.94 60.692 0.163 7.3 14.04 9.09
4/24/2022 11:00:00 PM 15.85 60.53 0.163 7.28 12.16 9.1
4/24/2022 11:15:00 PM 15.77 60.386 0.164 7.26 12.33 9.09
4/24/2022 11:30:00 PM 15.69 60.242 0.164 7.24 12.76 9.1
4/24/2022 11:45:00 PM 15.6 60.08 0.164 7.22 13.53 9.1
4/25/2022 12:00:00 AM 15.52 59.936 0.164 7.2 16.37 9.11
4/25/2022 12:15:00 AM 15.45 59.81 0.164 7.2 14.22 9.08
4/25/2022 12:30:00 AM 15.39 59.702 0.164 7.19 14.72 9.13
4/25/2022 12:45:00 AM 15.34 59.612 0.164 7.17 13.34 9.15
4/25/2022 1:00:00 AM 15.28 59.504 0.164 7.16 12.36 9.17
4/25/2022 1:15:00 AM 15.22 59.396 0.164 7.16 13.78 9.17
4/25/2022 1:30:00 AM 15.16 59.288 0.164 7.15 14.48 9.18
4/25/2022 1:45:00 AM 15.09 59.162 0.164 7.15 13.13 9.21
4/25/2022 2:00:00 AM 15.02 59.036 0.164 7.13 15.51 9.22
4/25/2022 2:15:00 AM 14.95 58.91 0.164 7.12 15.12 9.23
4/25/2022 2:30:00 AM 14.88 58.784 0.164 7.13 15.15 9.27
4/25/2022 2:45:00 AM 14.82 58.676 0.164 7.12 15.15 9.27
4/25/2022 3:00:00 AM 14.74 58.532 0.164 7.12 13.8 9.3
4/25/2022 3:15:00 AM 14.67 58.406 0.164 7.11 16.2 9.32
4/25/2022 3:30:00 AM 14.59 58.262 0.164 7.12 13.94 9.33
4/25/2022 3:45:00 AM 14.52 58.136 0.164 7.12 13.9 9.36
4/25/2022 4:00:00 AM 14.44 57.992 0.164 7.11 14.45 9.38
4/25/2022 4:15:00 AM 14.37 57.866 0.164 7.12 15.39 9.4
4/25/2022 4:30:00 AM 14.29 57.722 0.164 7.11 13.52 9.44
4/25/2022 4:45:00 AM 14.2 57.56 0.164 7.11 13.33 9.47
4/25/2022 5:00:00 AM 14.11 57.398 0.164 7.11 13.81 9.5
4/25/2022 5:15:00 AM 14.01 57.218 0.165 7.11 15.65 9.52
4/25/2022 5:30:00 AM 13.92 57.056 0.165 7.11 14.18 9.56
4/25/2022 5:45:00 AM 13.82 56.876 0.165 7.11 14.87 9.56
4/25/2022 6:00:00 AM 13.73 56.714 0.166 7.12 12.93 9.59
4/25/2022 6:15:00 AM 13.64 56.552 0.165 7.11 13.69 9.61
4/25/2022 6:30:00 AM 13.55 56.39 0.165 7.12 14.44 9.63
4/25/2022 6:45:00 AM 13.46 56.228 0.165 7.11 17.3 9.7
4/25/2022 7:00:00 AM 13.39 56.102 0.165 7.12 13.69 9.74
4/25/2022 7:15:00 AM 13.33 55.994 0.167 7.13 15.41 9.83
4/25/2022 7:30:00 AM 13.29 55.922 0.165 7.12 14.02 9.94
4/25/2022 7:45:00 AM 13.25 55.85 0.165 7.14 13.14 10.02
4/25/2022 8:00:00 AM 13.21 55.778 0.165 7.15 17.9 10.11
4/25/2022 8:15:00 AM 13.18 55.724 0.165 7.15 13.87 10.18
4/25/2022 8:30:00 AM 13.15 55.67 0.165 7.17 13.37 10.28
4/25/2022 8:45:00 AM 13.13 55.634 0.165 7.18 16.21 10.42
4/25/2022 9:00:00 AM 13.11 55.598 0.165 7.2 14.67 10.55
4/25/2022 9:15:00 AM 13.1 55.58 0.164 7.21 12.92 10.67
4/25/2022 9:30:00 AM 13.1 55.58 0.164 7.23 12.52 10.78
4/25/2022 9:45:00 AM 13.12 55.616 0.164 7.26 12.61 10.91
4/25/2022 10:00:00 AM 13.14 55.652 0.164 7.27 12.53 11
4/25/2022 10:15:00 AM 13.17 55.706 0.165 7.29 12.88 11.08
4/25/2022 10:30:00 AM 13.21 55.778 0.164 7.31 15.02 11.23
4/25/2022 10:45:00 AM 13.24 55.832 0.164 7.34 12.53 11.33
4/25/2022 11:00:00 AM 13.28 55.904 0.163 7.37 13.05 11.42
4/25/2022 11:15:00 AM 13.33 55.994 0.163 7.39 13.01 11.45
4/25/2022 11:30:00 AM 13.41 56.138 0.163 7.41 12.55 11.53
4/25/2022 11:45:00 AM 13.49 56.282 0.163 7.43 12.9 11.55
4/25/2022 12:00:00 PM 13.57 56.426 0.163 7.46 12.9 11.6
4/25/2022 12:15:00 PM 13.66 56.588 0.163 7.49 13.21 11.65
4/25/2022 12:30:00 PM 13.74 56.732 0.163 7.53 12.5 11.66
4/25/2022 12:45:00 PM 13.82 56.876 0.162 7.55 12.93 11.68
4/25/2022 1:00:00 PM 13.91 57.038 0.162 7.58 14.25 11.68
4/25/2022 1:15:00 PM 13.98 57.164 0.162 7.61 11.85 11.67
4/25/2022 1:30:00 PM 14.03 57.254 0.162 7.64 12.35 11.67
4/25/2022 1:45:00 PM 14.09 57.362 0.162 7.66 11.89 11.65
4/25/2022 2:00:00 PM 14.15 57.47 0.162 7.69 12.79 11.63
4/25/2022 2:15:00 PM 14.22 57.596 0.162 7.72 13.09 11.67
4/25/2022 2:30:00 PM 14.33 57.794 0.162 7.74 12.8 11.65
4/25/2022 2:45:00 PM 14.43 57.974 0.162 7.76 12.1 11.66
4/25/2022 3:00:00 PM 14.57 58.226 0.162 7.79 12.1 11.68
4/25/2022 3:15:00 PM 14.75 58.55 0.162 7.81 13.76 11.64
4/25/2022 3:30:00 PM 14.9 58.82 0.162 7.84 12.31 11.61
4/25/2022 3:45:00 PM 14.97 58.946 0.161 7.86 13.39 11.58
4/25/2022 4:00:00 PM 14.99 58.982 0.162 7.88 12.43 11.52
4/25/2022 4:15:00 PM 15.04 59.072 0.162 7.9 12.12 11.42
4/25/2022 4:30:00 PM 15.07 59.126 0.162 7.93 11.77 11.45
4/25/2022 4:45:00 PM 15.09 59.162 0.162 7.95 11.95 11.39
4/25/2022 5:00:00 PM 15.11 59.198 0.161 7.96 11.62 11.32
4/25/2022 5:15:00 PM 15.13 59.234 0.161 7.98 12.56 11.32
4/25/2022 5:30:00 PM 15.14 59.252 0.161 7.99 37.8 11.22
4/25/2022 5:45:00 PM 15.13 59.234 0.161 8 12.9 11.13
4/25/2022 6:00:00 PM 15.09 59.162 0.161 7.99 14 11.05
4/25/2022 6:15:00 PM 15.05 59.09 0.161 7.99 13.62 10.95
4/25/2022 6:30:00 PM 15 59 0.162 7.98 13.11 10.82
4/25/2022 6:45:00 PM 14.95 58.91 0.162 7.96 14.19 10.7
4/25/2022 7:00:00 PM 14.91 58.838 0.162 7.93 13.33 10.61
4/25/2022 7:15:00 PM 14.85 58.73 0.162 7.91 12.33 10.56
4/25/2022 7:30:00 PM 14.8 58.64 0.162 7.87 12.52 10.45
4/25/2022 7:45:00 PM 14.74 58.532 0.162 7.82 12.38 10.31
4/25/2022 8:00:00 PM 14.67 58.406 0.162 7.77 12.13 10.23
4/25/2022 8:15:00 PM 14.61 58.298 0.163 7.73 17.92 10.15
4/25/2022 8:30:00 PM 14.55 58.19 0.163 7.69 13.12 10.05
4/25/2022 8:45:00 PM 14.49 58.082 0.163 7.64 12.66 9.97
4/25/2022 9:00:00 PM 14.43 57.974 0.163 7.58 14.03 9.87
4/25/2022 9:15:00 PM 14.38 57.884 0.163 7.55 12.32 9.83
4/25/2022 9:30:00 PM 14.32 57.776 0.163 7.51 12.75 9.81
4/25/2022 9:45:00 PM 14.28 57.704 0.163 7.46 13.36 9.75
4/25/2022 10:00:00 PM 14.23 57.614 0.163 7.43 12.81 9.68
4/25/2022 10:15:00 PM 14.19 57.542 0.163 7.39 13.19 9.67
4/25/2022 10:30:00 PM 14.16 57.488 0.163 7.35 14.65 9.57
4/25/2022 10:45:00 PM 14.12 57.416 0.163 7.32 13.67 9.56
4/25/2022 11:00:00 PM 14.09 57.362 0.164 7.3 13.55 9.57
4/25/2022 11:15:00 PM 14.06 57.308 0.164 7.28 14.35 9.6
4/25/2022 11:30:00 PM 14.03 57.254 0.164 7.25 18.33 9.57
4/25/2022 11:45:00 PM 14.01 57.218 0.164 7.24 15.14 9.59
4/26/2022 12:00:00 AM 13.98 57.164 0.164 7.22 14.05 9.57
4/26/2022 12:15:00 AM 13.96 57.128 0.164 7.2 15.59 9.56
4/26/2022 12:30:00 AM 13.94 57.092 0.163 7.19 16.11 9.55
4/26/2022 12:45:00 AM 13.92 57.056 0.163 7.18 14.87 9.57
4/26/2022 1:00:00 AM 13.89 57.002 0.163 7.16 14.96 9.58
4/26/2022 1:15:00 AM 13.87 56.966 0.163 7.15 15.16 9.6
4/26/2022 1:30:00 AM 13.85 56.93 0.163 7.15 13.85 9.61
4/26/2022 1:45:00 AM 13.83 56.894 0.163 7.14 14.17 9.59
4/26/2022 2:00:00 AM 13.81 56.858 0.164 7.13 14.97 9.61
4/26/2022 2:15:00 AM 13.79 56.822 0.164 7.13 13.96 9.6
4/26/2022 2:30:00 AM 13.77 56.786 0.164 7.12 16.22 9.64
4/26/2022 2:45:00 AM 13.74 56.732 0.164 7.12 243 9.6
4/26/2022 3:00:00 AM 13.72 56.696 0.164 7.11 16.42 9.61
4/26/2022 3:15:00 AM 13.69 56.642 0.164 7.11 14.59 9.64
4/26/2022 3:30:00 AM 13.66 56.588 0.164 7.11 20.19 9.64
4/26/2022 3:45:00 AM 13.63 56.534 0.164 7.11 15.71 9.68
4/26/2022 4:00:00 AM 13.6 56.48 0.164 7.11 16 9.67
4/26/2022 4:15:00 AM 13.57 56.426 0.164 7.1 15.89 9.68
4/26/2022 4:30:00 AM 13.54 56.372 0.164 7.1 15.47 9.7
4/26/2022 4:45:00 AM 13.51 56.318 0.164 7.09 15.13 9.71
4/26/2022 5:00:00 AM 13.48 56.264 0.164 7.1 16.15 9.73
4/26/2022 5:15:00 AM 13.45 56.21 0.164 7.11 23.94 9.73
4/26/2022 5:30:00 AM 13.42 56.156 0.164 7.1 16.12 9.75
4/26/2022 5:45:00 AM 13.39 56.102 0.164 7.1 14.78 9.74
4/26/2022 6:00:00 AM 13.36 56.048 0.165 7.1 14.22 9.76
4/26/2022 6:15:00 AM 13.34 56.012 0.165 7.1 15.67 9.77
4/26/2022 6:30:00 AM 13.31 55.958 0.165 7.1 15.8 9.78
4/26/2022 6:45:00 AM 13.28 55.904 0.165 7.1 14.87 9.78
4/26/2022 7:00:00 AM 13.25 55.85 0.165 7.1 15.07 9.84
4/26/2022 7:15:00 AM 13.23 55.814 0.165 7.11 14.24 9.86
4/26/2022 7:30:00 AM 13.21 55.778 0.165 7.11 14.41 9.91
4/26/2022 7:45:00 AM 13.19 55.742 0.165 7.1 19.78 9.98
4/26/2022 8:00:00 AM 13.18 55.724 0.165 7.11 17.49 10.06
4/26/2022 8:15:00 AM 13.18 55.724 0.165 7.12 14.07 10.14
4/26/2022 8:30:00 AM 13.18 55.724 0.165 7.13 13.98 10.29
4/26/2022 8:45:00 AM 13.2 55.76 0.164 7.15 14.53 10.43
4/26/2022 9:00:00 AM 13.23 55.814 0.164 7.17 15.48 10.59
4/26/2022 9:15:00 AM 13.27 55.886 0.164 7.19 14.51 10.73
4/26/2022 9:30:00 AM 13.31 55.958 0.164 7.21 15.39 10.86
4/26/2022 9:45:00 AM 13.34 56.012 0.164 7.23 13.78 10.94
4/26/2022 10:00:00 AM 13.39 56.102 0.164 7.26 14.69 11.01
4/26/2022 10:15:00 AM 13.45 56.21 0.164 7.29 14.33 11.14
4/26/2022 10:30:00 AM 13.53 56.354 0.164 7.32 13.74 11.22
4/26/2022 10:45:00 AM 13.63 56.534 0.164 7.34 14.26 11.32
4/26/2022 11:00:00 AM 13.71 56.678 0.164 7.37 16.44 11.37
4/26/2022 11:15:00 AM 13.75 56.75 0.163 7.4 14.38 11.41
4/26/2022 11:30:00 AM 13.8 56.84 0.163 7.43 21.22 11.4
4/26/2022 11:45:00 AM 13.86 56.948 0.163 7.46 14.2 11.45
4/26/2022 12:00:00 PM 13.95 57.11 0.163 7.49 14.26 11.49
4/26/2022 12:15:00 PM 14.04 57.272 0.163 7.52 14.61 11.52
4/26/2022 12:30:00 PM 14.1 57.38 0.163 7.53 15.26 11.51
4/26/2022 12:45:00 PM 14.16 57.488 0.163 7.57 13.88 11.49
4/26/2022 1:00:00 PM 14.22 57.596 0.163 7.6 13.41 11.51
4/26/2022 1:15:00 PM 14.28 57.704 0.163 7.62 14.92 11.5
4/26/2022 1:30:00 PM 14.39 57.902 0.163 7.65 13.78 11.51
4/26/2022 1:45:00 PM 14.45 58.01 0.163 7.66 13.75 11.47
4/26/2022 2:00:00 PM 14.47 58.046 0.163 7.68 13.81 11.41
4/26/2022 2:15:00 PM 14.46 58.028 0.163 7.69 12.83 11.33
4/26/2022 2:30:00 PM 14.45 58.01 0.163 7.72 14.51 11.23
4/26/2022 2:45:00 PM 14.42 57.956 0.163 7.72 14.95 11.16
4/26/2022 3:00:00 PM 14.44 57.992 0.163 7.72 14.28 11.12
4/26/2022 3:15:00 PM 14.44 57.992 0.163 7.73 14.72 11.1
4/26/2022 3:30:00 PM 14.42 57.956 0.163 7.73 13.35 11.07
4/26/2022 3:45:00 PM 14.42 57.956 0.162 7.72 14.82 11.04
4/26/2022 4:00:00 PM 14.41 57.938 0.162 7.71 13.62 11.05
4/26/2022 4:15:00 PM 14.38 57.884 0.162 7.7 13.29 11
4/26/2022 4:30:00 PM 14.37 57.866 0.162 7.69 16.15 10.95
4/26/2022 4:45:00 PM 14.36 57.848 0.162 7.71 12.74 10.94
4/26/2022 5:00:00 PM 14.35 57.83 0.163 7.7 15.57 10.91
4/26/2022 5:15:00 PM 14.32 57.776 0.162 7.69 13.08 10.9
4/26/2022 5:30:00 PM 14.29 57.722 0.162 7.69 13.28 10.82
4/26/2022 5:45:00 PM 14.25 57.65 0.162 7.66 15.19 10.72
4/26/2022 6:00:00 PM 14.22 57.596 0.162 7.66 16.34 10.63
4/26/2022 6:15:00 PM 14.2 57.56 0.162 7.62 25.01 10.59
4/26/2022 6:30:00 PM 14.18 57.524 0.162 7.61 13.01 10.57
4/26/2022 6:45:00 PM 14.16 57.488 0.162 7.59 17.77 10.53
4/26/2022 7:00:00 PM 14.14 57.452 0.162 7.57 15.02 10.46
4/26/2022 7:15:00 PM 14.11 57.398 0.162 7.55 13.7 10.36
4/26/2022 7:30:00 PM 14.09 57.362 0.163 7.52 14.4 10.26
4/26/2022 7:45:00 PM 14.06 57.308 0.163 7.49 15.9 10.17
4/26/2022 8:00:00 PM 14.03 57.254 0.163 7.47 15.65 10.08
4/26/2022 8:15:00 PM 14 57.2 0.163 7.44 14.45 10.03
4/26/2022 8:30:00 PM 13.97 57.146 0.163 7.42 25.97 9.98
4/26/2022 8:45:00 PM 13.94 57.092 0.163 7.39 14.01 9.93
4/26/2022 9:00:00 PM 13.92 57.056 0.163 7.36 20.1 9.88
4/26/2022 9:15:00 PM 13.89 57.002 0.163 7.34 16.5 9.84
4/26/2022 9:30:00 PM 13.85 56.93 0.163 7.33 16.15 9.82
4/26/2022 9:45:00 PM 13.82 56.876 0.163 7.3 23.28 9.79
4/26/2022 10:00:00 PM 13.77 56.786 0.163 7.28 15.78 9.76
4/26/2022 10:15:00 PM 13.72 56.696 0.163 7.26 16.44 9.73
4/26/2022 10:30:00 PM 13.67 56.606 0.163 7.24 17.01 9.73
4/26/2022 10:45:00 PM 13.63 56.534 0.163 7.22 22.48 9.74
4/26/2022 11:00:00 PM 13.57 56.426 0.163 7.22 16.01 9.73
4/26/2022 11:15:00 PM 13.5 56.3 0.163 7.2 20.29 9.73
4/26/2022 11:30:00 PM 13.44 56.192 0.163 7.2 17.08 9.75
4/26/2022 11:45:00 PM 13.37 56.066 0.163 7.18 17.63 9.75
4/27/2022 12:00:00 AM 13.31 55.958 0.163 7.18 15.98 9.77
4/27/2022 12:15:00 AM 13.24 55.832 0.163 7.19 16.31 9.77
4/27/2022 12:30:00 AM 13.18 55.724 0.163 7.17 20.08 9.78
4/27/2022 12:45:00 AM 13.11 55.598 0.163 7.16 20.51 9.81
4/27/2022 1:00:00 AM 13.05 55.49 0.163 7.15 18.48 9.83
4/27/2022 1:15:00 AM 12.98 55.364 0.163 7.14 16.02 9.84
4/27/2022 1:30:00 AM 12.92 55.256 0.163 7.15 17.61 9.85
4/27/2022 1:45:00 AM 12.86 55.148 0.163 7.14 17.35 9.86
4/27/2022 2:00:00 AM 12.78 55.004 0.163 7.13 14.93 9.86
4/27/2022 2:15:00 AM 12.71 54.878 0.163 7.14 16.05 9.9
4/27/2022 2:30:00 AM 12.63 54.734 0.163 7.15 16.7 9.92
4/27/2022 2:45:00 AM 12.55 54.59 0.163 7.15 15.8 9.94
4/27/2022 3:00:00 AM 12.48 54.464 0.163 7.15 19.21 9.96
4/27/2022 3:15:00 AM 12.4 54.32 0.163 7.15 15 9.97
4/27/2022 3:30:00 AM 12.32 54.176 0.164 7.15 16.01 10.01
4/27/2022 3:45:00 AM 12.24 54.032 0.164 7.13 17.51 10.03
4/27/2022 4:00:00 AM 12.16 53.888 0.164 7.14 16.23 10.05
4/27/2022 4:15:00 AM 12.09 53.762 0.164 7.15 16.64 10.06
4/27/2022 4:30:00 AM 11.98 53.564 0.164 7.16 15.7 10.09
4/27/2022 4:45:00 AM 11.88 53.384 0.164 7.15 19.1 10.13
4/27/2022 5:00:00 AM 11.8 53.24 0.164 7.17 15.88 10.13
4/27/2022 5:15:00 AM 11.71 53.078 0.164 7.18 15.57 10.17
4/27/2022 5:30:00 AM 11.62 52.916 0.164 7.18 16.51 10.21
4/27/2022 5:45:00 AM 11.52 52.736 0.164 7.17 16.49 10.24
4/27/2022 6:00:00 AM 11.43 52.574 0.164 7.17 16.6 10.25
4/27/2022 6:15:00 AM 11.35 52.43 0.164 7.18 15.53 10.3
4/27/2022 6:30:00 AM 11.27 52.286 0.164 7.18 18.12 10.33
4/27/2022 6:45:00 AM 11.19 52.142 0.164 7.19 15.96 10.35
4/27/2022 7:00:00 AM 11.11 51.998 0.164 7.19 16.93 10.41
4/27/2022 7:15:00 AM 11.03 51.854 0.164 7.2 17.99 10.51
4/27/2022 7:30:00 AM 10.95 51.71 0.164 7.2 15.19 10.6
4/27/2022 7:45:00 AM 10.87 51.566 0.164 7.19 15.23 10.7
4/27/2022 8:00:00 AM 10.81 51.458 0.164 7.22 16.92 10.81
4/27/2022 8:15:00 AM 10.74 51.332 0.164 7.23 16.66 10.89
4/27/2022 8:30:00 AM 10.69 51.242 0.164 7.25 16.75 10.99
4/27/2022 8:45:00 AM 10.63 51.134 0.164 7.26 15.91 11.13
4/27/2022 9:00:00 AM 10.61 51.098 0.164 7.28 15.2 11.23
4/27/2022 9:15:00 AM 10.63 51.134 0.164 7.3 17.4 11.39
4/27/2022 9:30:00 AM 10.65 51.17 0.164 7.31 20.89 11.52
4/27/2022 9:45:00 AM 10.71 51.278 0.164 7.33 18.7 11.67
4/27/2022 10:00:00 AM 10.86 51.548 0.163 7.36 19.16 11.8
4/27/2022 10:15:00 AM 11 51.8 0.163 7.38 20.02 11.89
4/27/2022 10:30:00 AM 11.08 51.944 0.163 7.41 14.73 11.94
4/27/2022 10:45:00 AM 11.14 52.052 0.163 7.42 15.56 11.99
4/27/2022 11:00:00 AM 11.21 52.178 0.163 7.45 15.95 12.02
4/27/2022 11:15:00 AM 11.28 52.304 0.163 7.48 21.83 12.08
4/27/2022 11:30:00 AM 11.43 52.574 0.163 7.5 15.04 12.14
4/27/2022 11:45:00 AM 11.71 53.078 0.163 7.53 15.42 12.17
4/27/2022 12:00:00 PM 11.94 53.492 0.163 7.54 17.06 12.17
4/27/2022 12:15:00 PM 12.19 53.942 0.163 7.56 17.13 12.14
4/27/2022 12:30:00 PM 12.44 54.392 0.163 7.59 18.19 12.14
4/27/2022 12:45:00 PM 12.77 54.986 0.163 7.61 15.39 12.12
4/27/2022 1:00:00 PM 13.01 55.418 0.163 7.62 16.47 12.08
4/27/2022 1:15:00 PM 13.25 55.85 0.163 7.63 18.49 12.04
4/27/2022 1:30:00 PM 13.5 56.3 0.163 7.65 16.99 12.01
4/27/2022 1:45:00 PM 13.69 56.642 0.163 7.68 15.17 11.92
4/27/2022 2:00:00 PM 13.87 56.966 0.163 7.69 15.88 11.9
4/27/2022 2:15:00 PM 14.05 57.29 0.162 7.71 16.97 11.86
4/27/2022 2:30:00 PM 14.34 57.812 0.163 7.72 16.21 11.82
4/27/2022 2:45:00 PM 14.45 58.01 0.163 7.74 15.73 11.75
4/27/2022 3:00:00 PM 14.5 58.1 0.163 7.76 22.36 11.71
4/27/2022 3:15:00 PM 14.52 58.136 0.163 7.77 17.6 11.68
4/27/2022 3:30:00 PM 14.55 58.19 0.162 7.79 19.28 11.68
4/27/2022 3:45:00 PM 14.46 58.028 0.163 7.82 15.58 11.64
4/27/2022 4:00:00 PM 14.45 58.01 0.163 7.84 17.13 11.62
4/27/2022 4:15:00 PM 14.48 58.064 0.163 7.86 16.67 11.61
4/27/2022 4:30:00 PM 14.38 57.884 0.163 7.88 15.19 11.58
4/27/2022 4:45:00 PM 14.19 57.542 0.163 7.91 15.93 11.56
4/27/2022 5:00:00 PM 14.04 57.272 0.163 7.93 17.28 11.57
4/27/2022 5:15:00 PM 13.88 56.984 0.163 7.94 17.53 11.52
4/27/2022 5:30:00 PM 13.74 56.732 0.163 7.96 18.02 11.49
4/27/2022 5:45:00 PM 13.65 56.57 0.163 7.96 16.36 11.46
4/27/2022 6:00:00 PM 13.52 56.336 0.163 7.96 21.38 11.42
4/27/2022 6:15:00 PM 13.4 56.12 0.162 7.96 20.65 11.37
4/27/2022 6:30:00 PM 13.28 55.904 0.163 7.97 17.84 11.34
4/27/2022 6:45:00 PM 13.13 55.634 0.163 7.98 18.92 11.25
4/27/2022 7:00:00 PM 12.99 55.382 0.163 7.95 16.76 11.18
4/27/2022 7:15:00 PM 12.84 55.112 0.163 7.93 13.84 11.08
4/27/2022 7:30:00 PM 12.68 54.824 0.163 7.91 15.93 10.98
4/27/2022 7:45:00 PM 12.53 54.554 0.163 7.88 17.24 10.89
4/27/2022 8:00:00 PM 12.39 54.302 0.163 7.84 16.28 10.81
4/27/2022 8:15:00 PM 12.26 54.068 0.164 7.82 19.83 10.74
4/27/2022 8:30:00 PM 12.13 53.834 0.164 7.76 17.65 10.67
4/27/2022 8:45:00 PM 12 53.6 0.164 7.71 19.93 10.63
4/27/2022 9:00:00 PM 11.86 53.348 0.164 7.67 18.53 10.6
4/27/2022 9:15:00 PM 11.75 53.15 0.164 7.64 19.54 10.54
4/27/2022 9:30:00 PM 11.64 52.952 0.164 7.6 19.13 10.5
4/27/2022 9:45:00 PM 11.55 52.79 0.164 7.57 23.53 10.47
4/27/2022 10:00:00 PM 11.44 52.592 0.164 7.54 15.73 10.46
4/27/2022 10:15:00 PM 11.32 52.376 0.165 7.51 19.37 10.44
4/27/2022 10:30:00 PM 11.2 52.16 0.165 7.48 21.58 10.44
4/27/2022 10:45:00 PM 11.12 52.016 0.165 7.46 19.26 10.42
4/27/2022 11:00:00 PM 11.05 51.89 0.165 7.43 17.6 10.42
4/27/2022 11:15:00 PM 10.95 51.71 0.165 7.41 22.34 10.42
4/27/2022 11:30:00 PM 10.85 51.53 0.165 7.4 20.04 10.45
4/27/2022 11:45:00 PM 10.79 51.422 0.165 7.36 19.22 10.45
4/28/2022 12:00:00 AM 10.71 51.278 0.165 7.36 19.2 10.48
4/28/2022 12:15:00 AM 10.62 51.116 0.165 7.35 19.38 10.48
4/28/2022 12:30:00 AM 10.54 50.972 0.165 7.34 18.84 10.5
4/28/2022 12:45:00 AM 10.46 50.828 0.165 7.33 22.11 10.53
4/28/2022 1:00:00 AM 10.39 50.702 0.165 7.31 22.09 10.52
4/28/2022 1:15:00 AM 10.33 50.594 0.165 7.3 20.4 10.54
4/28/2022 1:30:00 AM 10.26 50.468 0.165 7.3 21.16 10.54
4/28/2022 1:45:00 AM 10.19 50.342 0.165 7.29 22.64 10.55
4/28/2022 2:00:00 AM 10.11 50.198 0.165 7.29 19.4 10.55
4/28/2022 2:15:00 AM 10.03 50.054 0.165 7.29 20.47 10.58
4/28/2022 2:30:00 AM 9.97 49.946 0.165 7.29 19.08 10.6
4/28/2022 2:45:00 AM 9.9 49.82 0.165 7.28 26.31 10.58
4/28/2022 3:00:00 AM 9.83 49.694 0.165 7.28 24.3 10.65
4/28/2022 3:15:00 AM 9.76 49.568 0.165 7.26 21.7 10.66
4/28/2022 3:30:00 AM 9.69 49.442 0.165 7.27 21.5 10.7
4/28/2022 3:45:00 AM 9.62 49.316 0.165 7.26 18.74 10.69
4/28/2022 4:00:00 AM 9.56 49.208 0.165 7.27 23.53 10.74
4/28/2022 4:15:00 AM 9.49 49.082 0.165 7.26 15.65 10.75
4/28/2022 4:30:00 AM 9.42 48.956 0.165 7.26 23.58 10.73
4/28/2022 4:45:00 AM 9.34 48.812 0.165 7.26 23.16 10.8
4/28/2022 5:00:00 AM 9.27 48.686 0.165 7.25 23.78 10.79
4/28/2022 5:15:00 AM 9.2 48.56 0.166 7.25 26.91 10.83
4/28/2022 5:30:00 AM 9.13 48.434 0.166 7.26 24.64 10.84
4/28/2022 5:45:00 AM 9.05 48.29 0.166 7.25 29.62 10.89
4/28/2022 6:00:00 AM 8.99 48.182 0.166 7.26 23.89 10.97
4/28/2022 6:15:00 AM 8.91 48.038 0.166 7.26 19.68 10.98
4/28/2022 6:30:00 AM 8.83 47.894 0.166 7.27 20.88 11.01
4/28/2022 6:45:00 AM 8.75 47.75 0.166 7.26 25.2 11.05
4/28/2022 7:00:00 AM 8.69 47.642 0.166 7.27 25.51 11.09
4/28/2022 7:15:00 AM 8.62 47.516 0.166 7.26 23 11.19
4/28/2022 7:30:00 AM 8.56 47.408 0.166 7.27 22.73 11.24
4/28/2022 7:45:00 AM 8.52 47.336 0.166 7.28 22.91 11.39
4/28/2022 8:00:00 AM 8.49 47.282 0.166 7.28 19.92 11.49
4/28/2022 8:15:00 AM 8.45 47.21 0.166 7.3 20.77 11.65
4/28/2022 8:30:00 AM 8.42 47.156 0.166 7.32 24.12 11.82
4/28/2022 8:45:00 AM 8.41 47.138 0.166 7.34 28.79 11.95
4/28/2022 9:00:00 AM 8.4 47.12 0.166 7.35 23.05 12.09
4/28/2022 9:15:00 AM 8.38 47.084 0.166 7.37 19.96 12.15
4/28/2022 9:30:00 AM 8.37 47.066 0.166 7.38 27.52 12.24
4/28/2022 9:45:00 AM 8.39 47.102 0.166 7.4 24.99 12.34
4/28/2022 10:00:00 AM 8.48 47.264 0.165 7.41 18.41 12.46
4/28/2022 10:15:00 AM 8.6 47.48 0.165 7.43 25.53 12.53
4/28/2022 10:30:00 AM 8.75 47.75 0.165 7.45 25.87 12.63
4/28/2022 10:45:00 AM 8.93 48.074 0.165 7.48 23.83 12.69
4/28/2022 11:00:00 AM 9.17 48.506 0.165 7.49 20.17 12.72
4/28/2022 11:15:00 AM 9.46 49.028 0.165 7.48 27.79 12.72
4/28/2022 11:30:00 AM 9.73 49.514 0.164 7.52 18.38 12.75
4/28/2022 11:45:00 AM 10.06 50.108 0.164 7.53 25.22 12.73
4/28/2022 12:00:00 PM 10.41 50.738 0.164 7.54 20.58 12.69
4/28/2022 12:15:00 PM 10.77 51.386 0.164 7.55 31.69 12.61
4/28/2022 12:30:00 PM 11.13 52.034 0.164 7.56 28.77 12.58
4/28/2022 12:45:00 PM 11.49 52.682 0.164 7.57 18.24 12.55
4/28/2022 1:00:00 PM 11.84 53.312 0.164 7.58 31.4 12.5
4/28/2022 1:15:00 PM 12.22 53.996 0.164 7.6 25.15 12.43
4/28/2022 1:30:00 PM 12.55 54.59 0.164 7.61 32.39 12.38
4/28/2022 1:45:00 PM 12.95 55.31 0.164 7.63 24.9 12.31
4/28/2022 2:00:00 PM 13.28 55.904 0.164 7.65 21.54 12.23
4/28/2022 2:15:00 PM 13.59 56.462 0.164 7.66 28.45 12.19
4/28/2022 2:30:00 PM 13.84 56.912 0.164 7.68 31.82 12.12
4/28/2022 2:45:00 PM 14.09 57.362 0.164 7.69 21.38 12.04
4/28/2022 3:00:00 PM 14.27 57.686 0.164 7.72 23.79 11.98
4/28/2022 3:15:00 PM 14.41 57.938 0.163 7.74 14.59 11.92
4/28/2022 3:30:00 PM 14.51 58.118 0.163 7.77 27.4 11.86
4/28/2022 3:45:00 PM 14.58 58.244 0.163 7.78 25.84 11.81
4/28/2022 4:00:00 PM 14.59 58.262 0.163 7.81 27.67 11.76
4/28/2022 4:15:00 PM 14.56 58.208 0.163 7.83 42.2 11.7
4/28/2022 4:30:00 PM 14.5 58.1 0.163 7.86 20.11 11.67
4/28/2022 4:45:00 PM 14.44 57.992 0.163 7.87 34.73 11.57
4/28/2022 5:00:00 PM 14.36 57.848 0.164 7.89 36.04 11.55
4/28/2022 5:15:00 PM 14.25 57.65 0.164 7.9 26.63 11.48
4/28/2022 5:30:00 PM 14.14 57.452 0.164 7.91 23.88 11.46
4/28/2022 5:45:00 PM 14.02 57.236 0.164 7.92 30.43 11.37
4/28/2022 6:00:00 PM 13.9 57.02 0.164 7.95 22.04 11.33
4/28/2022 6:15:00 PM 13.76 56.768 0.164 7.94 24.39 11.26
4/28/2022 6:30:00 PM 13.62 56.516 0.164 7.93 21.89 11.18
4/28/2022 6:45:00 PM 13.49 56.282 0.164 7.93 35.24 11.12
4/28/2022 7:00:00 PM 13.33 55.994 0.164 7.92 24.75 11.05
4/28/2022 7:15:00 PM 13.19 55.742 0.164 7.89 29.05 10.97
4/28/2022 7:30:00 PM 13.04 55.472 0.164 7.87 27.79 10.88
4/28/2022 7:45:00 PM 12.92 55.256 0.164 7.84 23.72 10.79
4/28/2022 8:00:00 PM 12.79 55.022 0.165 7.8 24.25 10.71
4/28/2022 8:15:00 PM 12.65 54.77 0.165 7.77 23.65 10.62
4/28/2022 8:30:00 PM 12.52 54.536 0.165 7.74 29.95 10.54
4/28/2022 8:45:00 PM 12.4 54.32 0.165 7.69 24.26 10.47
4/28/2022 9:00:00 PM 12.3 54.14 0.165 7.66 25.83 10.39
4/28/2022 9:15:00 PM 12.2 53.96 0.165 7.62 29.01 10.36
4/28/2022 9:30:00 PM 12.1 53.78 0.166 7.59 27.31 10.32
4/28/2022 9:45:00 PM 12 53.6 0.166 7.56 30.01 10.29
4/28/2022 10:00:00 PM 11.89 53.402 0.166 7.53 25.87 10.24
4/28/2022 10:15:00 PM 11.78 53.204 0.166 7.49 22.39 10.22
4/28/2022 10:30:00 PM 11.68 53.024 0.166 7.47 28.5 10.24
4/28/2022 10:45:00 PM 11.57 52.826 0.166 7.45 30.94 10.23
4/28/2022 11:00:00 PM 11.48 52.664 0.166 7.42 24.73 10.2
4/28/2022 11:15:00 PM 11.38 52.484 0.166 7.4 25.99 10.2
4/28/2022 11:30:00 PM 11.27 52.286 0.166 7.38 31.57 10.21
4/28/2022 11:45:00 PM 11.16 52.088 0.166 7.36 32.99 10.25
4/29/2022 12:00:00 AM 11.03 51.854 0.166 7.35 31.08 10.29
4/29/2022 12:15:00 AM 10.92 51.656 0.166 7.33 38.24 10.31
4/29/2022 12:30:00 AM 10.81 51.458 0.166 7.32 45.44 10.33
4/29/2022 12:45:00 AM 10.71 51.278 0.166 7.3 43.62 10.37
4/29/2022 1:00:00 AM 10.63 51.134 0.166 7.31 34.28 10.38
4/29/2022 1:15:00 AM 10.56 51.008 0.166 7.3 34.94 10.39
4/29/2022 1:30:00 AM 10.44 50.792 0.166 7.29 26.1 10.41
4/29/2022 1:45:00 AM 10.33 50.594 0.166 7.28 34.4 10.47
4/29/2022 2:00:00 AM 10.23 50.414 0.166 7.27 35.05 10.5
4/29/2022 2:15:00 AM 10.14 50.252 0.166 7.26 33.08 10.53
4/29/2022 2:30:00 AM 10.06 50.108 0.166 7.26 33.35 10.56
4/29/2022 2:45:00 AM 9.97 49.946 0.166 7.26 29.82 10.57
4/29/2022 3:00:00 AM 9.88 49.784 0.166 7.26 32.18 10.61
4/29/2022 3:15:00 AM 9.8 49.64 0.166 7.25 35.55 10.63
4/29/2022 3:30:00 AM 9.71 49.478 0.166 7.25 32.96 10.65
4/29/2022 3:45:00 AM 9.61 49.298 0.166 7.25 47.49 10.7
4/29/2022 4:00:00 AM 9.52 49.136 0.166 7.24 34.61 10.74
4/29/2022 4:15:00 AM 9.43 48.974 0.166 7.25 43.63 10.78
4/29/2022 4:30:00 AM 9.35 48.83 0.166 7.24 19.35 10.79
4/29/2022 4:45:00 AM 9.24 48.632 0.166 7.24 17.5 10.84
4/29/2022 5:00:00 AM 9.15 48.47 0.166 7.23 19.53 10.87
4/29/2022 5:15:00 AM 9.05 48.29 0.166 7.23 21.35 10.92
4/29/2022 5:30:00 AM 8.96 48.128 0.166 7.23 20.61 10.9
4/29/2022 5:45:00 AM 8.86 47.948 0.166 7.23 20.28 10.97
4/29/2022 6:00:00 AM 8.77 47.786 0.166 7.23 20.12 11
4/29/2022 6:15:00 AM 8.66 47.588 0.166 7.23 22.46 11.07
4/29/2022 6:30:00 AM 8.56 47.408 0.167 7.23 20.53 11.11
4/29/2022 6:45:00 AM 8.48 47.264 0.167 7.23 19.5 11.13
4/29/2022 7:00:00 AM 8.38 47.084 0.167 7.24 18.41 11.25
4/29/2022 7:15:00 AM 8.32 46.976 0.167 7.25 21.14 11.33
4/29/2022 7:30:00 AM 8.24 46.832 0.167 7.24 19.26 11.44
4/29/2022 7:45:00 AM 8.16 46.688 0.167 7.25 20 11.58
4/29/2022 8:00:00 AM 8.1 46.58 0.167 7.26 20.34 11.69
4/29/2022 8:15:00 AM 8.05 46.49 0.167 7.27 25.52 11.77
4/29/2022 8:30:00 AM 8.02 46.436 0.167 7.29 25.61 11.9
4/29/2022 8:45:00 AM 8.02 46.436 0.167 7.29 41.51 12.01
4/29/2022 9:00:00 AM 8.03 46.454 0.167 7.3 32.41 12.14
4/29/2022 9:15:00 AM 8.07 46.526 0.167 7.33 35.89 12.28
4/29/2022 9:30:00 AM 8.13 46.634 0.166 7.34 54.32 12.39
4/29/2022 9:45:00 AM 8.21 46.778 0.166 7.36 43.41 12.52
4/29/2022 10:00:00 AM 8.32 46.976 0.166 7.38 45.92 12.6
4/29/2022 10:15:00 AM 8.46 47.228 0.166 7.4 35.03 12.71
4/29/2022 10:30:00 AM 8.61 47.498 0.166 7.43 48.22 12.77
4/29/2022 10:45:00 AM 8.84 47.912 0.165 7.44 42.29 12.83
4/29/2022 11:00:00 AM 9.12 48.416 0.165 7.46 31.33 12.85
4/29/2022 11:15:00 AM 9.4 48.92 0.165 7.49 35.03 12.89
4/29/2022 11:30:00 AM 9.69 49.442 0.165 7.5 20.47 12.87
4/29/2022 11:45:00 AM 10 50 0.165 7.52 39.1 12.85
4/29/2022 12:00:00 PM 10.34 50.612 0.165 7.54 38.76 12.85
4/29/2022 12:15:00 PM 10.73 51.314 0.165 7.55 37.76 12.81
4/29/2022 12:30:00 PM 11.12 52.016 0.165 7.57 29.44 12.77
4/29/2022 12:45:00 PM 11.52 52.736 0.165 7.58 38.22 12.68
4/29/2022 1:00:00 PM 11.9 53.42 0.164 7.6 32.33 12.61
4/29/2022 1:15:00 PM 12.28 54.104 0.164 7.62 32.38 12.54
4/29/2022 1:30:00 PM 12.68 54.824 0.164 7.63 34.36 12.5
4/29/2022 1:45:00 PM 13.04 55.472 0.164 7.65 33.05 12.43
4/29/2022 2:00:00 PM 13.42 56.156 0.164 7.66 42.31 12.36
4/29/2022 2:15:00 PM 13.75 56.75 0.164 7.69 28.58 12.28
4/29/2022 2:30:00 PM 14.05 57.29 0.164 7.7 37.7 12.19
4/29/2022 2:45:00 PM 14.3 57.74 0.164 7.72 34.74 12.14
4/29/2022 3:00:00 PM 14.49 58.082 0.164 7.75 31.67 12.07
4/29/2022 3:15:00 PM 14.66 58.388 0.164 7.77 32.54 12.01
4/29/2022 3:30:00 PM 14.78 58.604 0.164 7.79 34.72 11.94
4/29/2022 3:45:00 PM 14.85 58.73 0.164 7.82 30.47 11.87
4/29/2022 4:00:00 PM 14.89 58.802 0.164 7.84 33.44 11.81
4/29/2022 4:15:00 PM 14.9 58.82 0.164 7.87 30.87 11.75
4/29/2022 4:30:00 PM 14.87 58.766 0.164 7.89 28.15 11.7
4/29/2022 4:45:00 PM 14.82 58.676 0.164 7.91 32.12 11.66
4/29/2022 5:00:00 PM 14.75 58.55 0.164 7.94 29.48 11.61
4/29/2022 5:15:00 PM 14.67 58.406 0.164 7.96 29.03 11.52
4/29/2022 5:30:00 PM 14.58 58.244 0.164 7.97 28.35 11.47
4/29/2022 5:45:00 PM 14.47 58.046 0.164 7.99 26.86 11.42
4/29/2022 6:00:00 PM 14.36 57.848 0.164 8 28.33 11.34
4/29/2022 6:15:00 PM 14.23 57.614 0.164 8 26.74 11.27
4/29/2022 6:30:00 PM 14.09 57.362 0.164 8.01 18.02 11.19
4/29/2022 6:45:00 PM 13.97 57.146 0.164 8.01 22.35 11.12
4/29/2022 7:00:00 PM 13.84 56.912 0.164 8 31.2 11.03
4/29/2022 7:15:00 PM 13.71 56.678 0.164 7.99 28.23 10.93
4/29/2022 7:30:00 PM 13.6 56.48 0.165 7.96 22.61 10.82
4/29/2022 7:45:00 PM 13.46 56.228 0.165 7.93 27.05 10.75
4/29/2022 8:00:00 PM 13.32 55.976 0.165 7.9 21.24 10.67
4/29/2022 8:15:00 PM 13.19 55.742 0.165 7.85 30.2 10.56
4/29/2022 8:30:00 PM 13.06 55.508 0.165 7.79 23.93 10.44
4/29/2022 8:45:00 PM 12.93 55.274 0.166 7.76 36.82 10.37
4/29/2022 9:00:00 PM 12.82 55.076 0.166 7.71 20.75 10.31
4/29/2022 9:15:00 PM 12.71 54.878 0.166 7.68 20.63 10.26
4/29/2022 9:30:00 PM 12.6 54.68 0.166 7.64 23.23 10.21
4/29/2022 9:45:00 PM 12.5 54.5 0.166 7.6 22.01 10.16
4/29/2022 10:00:00 PM 12.4 54.32 0.166 7.57 20.73 10.13
4/29/2022 10:15:00 PM 12.3 54.14 0.166 7.53 24 10.11
4/29/2022 10:30:00 PM 12.2 53.96 0.166 7.5 26.19 10.1
4/29/2022 10:45:00 PM 12.1 53.78 0.166 7.46 22.29 10.09
4/29/2022 11:00:00 PM 11.99 53.582 0.166 7.44 21.01 10.09
4/29/2022 11:15:00 PM 11.91 53.438 0.166 7.41 17.09 10.07
4/29/2022 11:30:00 PM 11.79 53.222 0.167 7.39 19.07 10.1
4/29/2022 11:45:00 PM 11.67 53.006 0.166 7.37 22.46 10.1
4/30/2022 12:00:00 AM 11.57 52.826 0.166 7.34 23.79 10.13
4/30/2022 12:15:00 AM 11.47 52.646 0.167 7.33 25.04 10.14
4/30/2022 12:30:00 AM 11.39 52.502 0.167 7.32 18.44 10.14
4/30/2022 12:45:00 AM 11.28 52.304 0.167 7.31 23.16 10.13
4/30/2022 1:00:00 AM 11.16 52.088 0.167 7.29 27.18 10.22
4/30/2022 1:15:00 AM 11.06 51.908 0.167 7.28 23.76 10.25
4/30/2022 1:30:00 AM 10.97 51.746 0.167 7.28 24.75 10.25
4/30/2022 1:45:00 AM 10.88 51.584 0.167 7.27 23.49 10.28
4/30/2022 2:00:00 AM 10.8 51.44 0.167 7.27 27.97 10.3
4/30/2022 2:15:00 AM 10.71 51.278 0.167 7.26 23.9 10.3
4/30/2022 2:30:00 AM 10.6 51.08 0.167 7.25 24.98 10.39
4/30/2022 2:45:00 AM 10.51 50.918 0.166 7.24 22.7 10.39
4/30/2022 3:00:00 AM 10.42 50.756 0.166 7.22 26.39 10.42
4/30/2022 3:15:00 AM 10.35 50.63 0.167 7.23 29.31 10.42
4/30/2022 3:30:00 AM 10.25 50.45 0.166 7.22 25.38 10.49
4/30/2022 3:45:00 AM 10.17 50.306 0.167 7.22 22.28 10.46
4/30/2022 4:00:00 AM 10.11 50.198 0.167 7.23 23.62 10.5
4/30/2022 4:15:00 AM 9.99 49.982 0.167 7.21 26.18 10.56
4/30/2022 4:30:00 AM 9.89 49.802 0.167 7.21 24.25 10.59
4/30/2022 4:45:00 AM 9.81 49.658 0.167 7.21 27.62 10.61
4/30/2022 5:00:00 AM 9.71 49.478 0.167 7.21 29.16 10.66
4/30/2022 5:15:00 AM 9.62 49.316 0.167 7.21 25.83 10.68
4/30/2022 5:30:00 AM 9.53 49.154 0.167 7.21 24.38 10.73
4/30/2022 5:45:00 AM 9.45 49.01 0.167 7.22 24.73 10.74
4/30/2022 6:00:00 AM 9.35 48.83 0.167 7.22 34.76 10.78
4/30/2022 6:15:00 AM 9.25 48.65 0.167 7.21 26.17 10.82
4/30/2022 6:30:00 AM 9.16 48.488 0.167 7.21 24.81 10.86
4/30/2022 6:45:00 AM 9.05 48.29 0.168 7.22 25.42 10.91
4/30/2022 7:00:00 AM 8.96 48.128 0.168 7.21 25.32 10.99
4/30/2022 7:15:00 AM 8.86 47.948 0.167 7.21 34.08 11.11
4/30/2022 7:30:00 AM 8.78 47.804 0.168 7.23 26.65 11.22
4/30/2022 7:45:00 AM 8.71 47.678 0.168 7.25 24.03 11.29
4/30/2022 8:00:00 AM 8.64 47.552 0.167 7.26 26.55 11.43
4/30/2022 8:15:00 AM 8.58 47.444 0.168 7.27 24.83 11.55
4/30/2022 8:30:00 AM 8.55 47.39 0.168 7.28 22.33 11.62
4/30/2022 8:45:00 AM 8.53 47.354 0.168 7.3 26.65 11.76
4/30/2022 9:00:00 AM 8.53 47.354 0.167 7.32 23.26 11.86
4/30/2022 9:15:00 AM 8.57 47.426 0.167 7.33 25.16 12.03
4/30/2022 9:30:00 AM 8.63 47.534 0.167 7.34 25.14 12.14
4/30/2022 9:45:00 AM 8.72 47.696 0.167 7.35 24.85 12.26
4/30/2022 10:00:00 AM 8.83 47.894 0.167 7.37 32.46 12.36
4/30/2022 10:15:00 AM 8.98 48.164 0.167 7.38 23.79 12.49
4/30/2022 10:30:00 AM 9.2 48.56 0.167 7.4 20.39 12.59
4/30/2022 10:45:00 AM 9.43 48.974 0.163 7.42 22.12 12.63
4/30/2022 11:00:00 AM 9.7 49.46 0.166 7.43 28.16 12.7
4/30/2022 11:15:00 AM 10.03 50.054 0.167 7.44 25.02 12.68
4/30/2022 11:30:00 AM 10.33 50.594 0.166 7.45 25.6 12.73
4/30/2022 11:45:00 AM 10.65 51.17 0.166 7.46 24.52 12.72
4/30/2022 12:00:00 PM 11.06 51.908 0.166 7.48 23.77 12.73
4/30/2022 12:15:00 PM 11.43 52.574 0.166 7.49 31.89 12.67
4/30/2022 12:30:00 PM 11.82 53.276 0.166 7.51 24.37 12.65
4/30/2022 12:45:00 PM 12.24 54.032 0.166 7.52 25.87 12.58
4/30/2022 1:00:00 PM 12.62 54.716 0.166 7.53 17.59 12.51
4/30/2022 1:15:00 PM 13.09 55.562 0.166 7.54 29.51 12.46
4/30/2022 1:30:00 PM 13.49 56.282 0.166 7.56 21.64 12.37
4/30/2022 1:45:00 PM 13.89 57.002 0.166 7.57 29.87 12.31
4/30/2022 2:00:00 PM 14.21 57.578 0.165 7.59 23.93 12.19
4/30/2022 2:15:00 PM 14.55 58.19 0.165 7.62 23.38 12.13
4/30/2022 2:30:00 PM 14.84 58.712 0.165 7.64 24.97 12.01
4/30/2022 2:45:00 PM 15.1 59.18 0.165 7.66 23.93 12.02
4/30/2022 3:00:00 PM 15.31 59.558 0.165 7.69 23.48 11.92
4/30/2022 3:15:00 PM 15.46 59.828 0.165 7.71 23.09 11.82
4/30/2022 3:30:00 PM 15.58 60.044 0.165 7.74 23.59 11.76
4/30/2022 3:45:00 PM 15.65 60.17 0.165 7.76 23.12 11.69
4/30/2022 4:00:00 PM 15.7 60.26 0.165 7.77 22.1 11.67
4/30/2022 4:15:00 PM 15.7 60.26 0.165 7.79 22.92 11.61
4/30/2022 4:30:00 PM 15.69 60.242 0.165 7.8 21.45 11.56
4/30/2022 4:45:00 PM 15.65 60.17 0.165 7.81 22.49 11.47
4/30/2022 5:00:00 PM 15.59 60.062 0.165 7.82 21.78 11.42
4/30/2022 5:15:00 PM 15.51 59.918 0.165 7.82 17.22 11.34
4/30/2022 5:30:00 PM 15.42 59.756 0.165 7.81 15.44 11.3
4/30/2022 5:45:00 PM 15.34 59.612 0.164 7.82 16.24 11.25
4/30/2022 6:00:00 PM 15.26 59.468 0.164 7.81 16.41 11.16
4/30/2022 6:15:00 PM 15.16 59.288 0.164 7.83 15.72 11.07
4/30/2022 6:30:00 PM 15.06 59.108 0.165 7.84 15.74 11.01
4/30/2022 6:45:00 PM 14.95 58.91 0.165 7.86 15.48 10.91
4/30/2022 7:00:00 PM 14.82 58.676 0.165 7.88 19.75 10.8
4/30/2022 7:15:00 PM 14.69 58.442 0.165 7.88 16.71 10.7
4/30/2022 7:30:00 PM 14.56 58.208 0.165 7.85 17.33 10.61
4/30/2022 7:45:00 PM 14.44 57.992 0.165 7.83 15.35 10.51
4/30/2022 8:00:00 PM 14.3 57.74 0.165 7.81 15.85 10.41
4/30/2022 8:15:00 PM 14.17 57.506 0.165 7.77 16.73 10.29
4/30/2022 8:30:00 PM 14.03 57.254 0.165 7.72 17.54 10.18
4/30/2022 8:45:00 PM 13.91 57.038 0.165 7.69 20.38 10.09
4/30/2022 9:00:00 PM 13.8 56.84 0.166 7.67 17.58 10
4/30/2022 9:15:00 PM 13.67 56.606 0.166 7.63 16.24 9.97
4/30/2022 9:30:00 PM 13.58 56.444 0.166 7.61 17 9.89
4/30/2022 9:45:00 PM 13.45 56.21 0.166 7.57 18.1 9.87
4/30/2022 10:00:00 PM 13.35 56.03 0.166 7.53 18.46 9.81
4/30/2022 10:15:00 PM 13.26 55.868 0.166 7.5 20.02 9.77
4/30/2022 10:30:00 PM 13.14 55.652 0.166 7.46 18.91 9.76
4/30/2022 10:45:00 PM 13.03 55.454 0.167 7.43 17.2 9.74
4/30/2022 11:00:00 PM 12.93 55.274 0.166 7.41 17.19 9.73
4/30/2022 11:15:00 PM 12.83 55.094 0.167 7.39 16.96 9.69
4/30/2022 11:30:00 PM 12.72 54.896 0.167 7.36 16.89 9.73
4/30/2022 11:45:00 PM 12.62 54.716 0.167 7.33 16.04 9.7
5/1/2022 12:00:00 AM 12.51 54.518 0.167 7.32 18.94 9.74
5/1/2022 12:15:00 AM 12.4 54.32 0.166 7.3 17.44 9.75
5/1/2022 12:30:00 AM 12.3 54.14 0.167 7.29 17.92 9.79
5/1/2022 12:45:00 AM 12.21 53.978 0.167 7.27 21.48 9.76
5/1/2022 1:00:00 AM 12.1 53.78 0.167 7.26 19.97 9.83
5/1/2022 1:15:00 AM 12.01 53.618 0.167 7.25 19.51 9.86
5/1/2022 1:30:00 AM 11.93 53.474 0.167 7.24 17.63 9.86
5/1/2022 1:45:00 AM 11.83 53.294 0.167 7.23 19.02 9.91
5/1/2022 2:00:00 AM 11.73 53.114 0.167 7.23 17.03 9.96
5/1/2022 2:15:00 AM 11.64 52.952 0.167 7.22 21.97 9.99
5/1/2022 2:30:00 AM 11.55 52.79 0.167 7.21 18.61 9.98
5/1/2022 2:45:00 AM 11.48 52.664 0.167 7.21 20.25 9.99
5/1/2022 3:00:00 AM 11.38 52.484 0.167 7.2 19.71 10.05
5/1/2022 3:15:00 AM 11.3 52.34 0.167 7.21 19.3 10.08
5/1/2022 3:30:00 AM 11.21 52.178 0.167 7.2 23.94 10.13
5/1/2022 3:45:00 AM 11.13 52.034 0.167 7.2 18.4 10.16
5/1/2022 4:00:00 AM 11.04 51.872 0.167 7.2 26.2 10.17
5/1/2022 4:15:00 AM 10.95 51.71 0.167 7.2 18.57 10.2
5/1/2022 4:30:00 AM 10.87 51.566 0.167 7.2 17.32 10.23
5/1/2022 4:45:00 AM 10.79 51.422 0.167 7.2 19.56 10.27
5/1/2022 5:00:00 AM 10.7 51.26 0.167 7.19 18.65 10.29
5/1/2022 5:15:00 AM 10.6 51.08 0.167 7.19 17.92 10.34
5/1/2022 5:30:00 AM 10.51 50.918 0.167 7.19 17.68 10.36
5/1/2022 5:45:00 AM 10.43 50.774 0.167 7.18 18.57 10.35
5/1/2022 6:00:00 AM 10.33 50.594 0.167 7.18 18.82 10.43
5/1/2022 6:15:00 AM 10.25 50.45 0.168 7.2 18.25 10.44
5/1/2022 6:30:00 AM 10.16 50.288 0.168 7.2 19.98 10.49
5/1/2022 6:45:00 AM 10.08 50.144 0.168 7.2 19.31 10.52
5/1/2022 7:00:00 AM 10 50 0.168 7.19 21.34 10.59
5/1/2022 7:15:00 AM 9.94 49.892 0.168 7.2 21.53 10.72
5/1/2022 7:30:00 AM 9.87 49.766 0.168 7.21 19.03 10.84
5/1/2022 7:45:00 AM 9.82 49.676 0.168 7.21 20.59 10.95
5/1/2022 8:00:00 AM 9.78 49.604 0.168 7.23 18.1 11.1
5/1/2022 8:15:00 AM 9.76 49.568 0.167 7.24 20.83 11.24
5/1/2022 8:30:00 AM 9.74 49.532 0.168 7.26 19.97 11.35
5/1/2022 8:45:00 AM 9.75 49.55 0.168 7.28 20.12 11.48
5/1/2022 9:00:00 AM 9.8 49.64 0.168 7.29 19.9 11.61
5/1/2022 9:15:00 AM 9.89 49.802 0.168 7.31 20.91 11.82
5/1/2022 9:30:00 AM 10.01 50.018 0.167 7.32 22.09 11.98
5/1/2022 9:45:00 AM 10.15 50.27 0.167 7.35 22.59 12.14
5/1/2022 10:00:00 AM 10.29 50.522 0.167 7.38 23.22 12.23
5/1/2022 10:15:00 AM 10.41 50.738 0.167 7.4 20.71 12.29
5/1/2022 10:30:00 AM 10.56 51.008 0.166 7.43 20.94 12.31
5/1/2022 10:45:00 AM 10.72 51.296 0.166 7.45 23.91 12.39
5/1/2022 11:00:00 AM 10.88 51.584 0.166 7.47 23.51 12.42
5/1/2022 11:15:00 AM 11.05 51.89 0.165 7.5 24.42 12.45
5/1/2022 11:30:00 AM 11.22 52.196 0.165 7.53 23.8 12.46
5/1/2022 11:45:00 AM 11.37 52.466 0.165 7.55 21 12.4
5/1/2022 12:00:00 PM 11.49 52.682 0.165 7.58 25.46 12.42
5/1/2022 12:15:00 PM 11.6 52.88 0.165 7.61 22.12 12.34
5/1/2022 12:30:00 PM 11.7 53.06 0.165 7.64 24.73 12.36
5/1/2022 12:45:00 PM 11.8 53.24 0.165 7.66 21.59 12.3
5/1/2022 1:00:00 PM 11.9 53.42 0.165 7.69 22.13 12.3
5/1/2022 1:15:00 PM 11.98 53.564 0.165 7.71 21.64 12.25
5/1/2022 1:30:00 PM 12.02 53.636 0.165 7.74 21.58 12.19
5/1/2022 1:45:00 PM 12.05 53.69 0.165 7.76 24.94 12.08
5/1/2022 2:00:00 PM 12.05 53.69 0.165 7.77 21.75 11.99
5/1/2022 2:15:00 PM 12.06 53.708 0.165 7.78 20.47 11.92
5/1/2022 2:30:00 PM 12.07 53.726 0.164 7.78 21.02 11.93
5/1/2022 2:45:00 PM 12.09 53.762 0.164 7.79 21.93 11.9
5/1/2022 3:00:00 PM 12.08 53.744 0.164 7.81 26.57 11.91
5/1/2022 3:15:00 PM 12.08 53.744 0.164 7.82 24.36 11.86
5/1/2022 3:30:00 PM 12.07 53.726 0.164 7.84 27.05 11.9
5/1/2022 3:45:00 PM 12.05 53.69 0.164 7.84 28.09 11.78
5/1/2022 4:00:00 PM 12.02 53.636 0.164 7.84 28.49 11.77
5/1/2022 4:15:00 PM 11.98 53.564 0.164 7.85 24.96 11.66
5/1/2022 4:30:00 PM 11.94 53.492 0.164 7.86 25.26 11.58
5/1/2022 4:45:00 PM 11.9 53.42 0.164 7.84 29.75 11.49
5/1/2022 5:00:00 PM 11.86 53.348 0.163 7.83 27.03 11.44
5/1/2022 5:15:00 PM 11.89 53.402 0.163 7.81 23.83 11.47
5/1/2022 5:30:00 PM 11.94 53.492 0.163 7.8 28.24 11.6
5/1/2022 5:45:00 PM 11.97 53.546 0.163 7.8 23.69 11.68
5/1/2022 6:00:00 PM 11.98 53.564 0.163 7.81 26.68 11.7
5/1/2022 6:15:00 PM 11.98 53.564 0.163 7.82 26.51 11.64
5/1/2022 6:30:00 PM 11.99 53.582 0.163 7.83 26.5 11.55
5/1/2022 6:45:00 PM 11.98 53.564 0.163 7.83 27.35 11.5
5/1/2022 7:00:00 PM 11.98 53.564 0.163 7.82 23.2 11.4
5/1/2022 7:15:00 PM 11.98 53.564 0.163 7.81 29.78 11.32
5/1/2022 7:30:00 PM 11.96 53.528 0.163 7.79 23.43 11.23
5/1/2022 7:45:00 PM 11.94 53.492 0.162 7.77 29.67 11.17
5/1/2022 8:00:00 PM 11.92 53.456 0.163 7.75 28.99 11.09
5/1/2022 8:15:00 PM 11.89 53.402 0.163 7.72 25.01 10.97
5/1/2022 8:30:00 PM 11.87 53.366 0.163 7.69 30.31 10.89
5/1/2022 8:45:00 PM 11.84 53.312 0.163 7.66 27.82 10.78
5/1/2022 9:00:00 PM 11.82 53.276 0.163 7.62 30.14 10.7
5/1/2022 9:15:00 PM 11.79 53.222 0.163 7.59 31.7 10.63
5/1/2022 9:30:00 PM 11.78 53.204 0.164 7.55 23.48 10.55
5/1/2022 9:45:00 PM 11.76 53.168 0.164 7.52 22.74 10.49
5/1/2022 10:00:00 PM 11.74 53.132 0.164 7.48 26.74 10.41
5/1/2022 10:15:00 PM 11.71 53.078 0.164 7.46 24.12 10.39
5/1/2022 10:30:00 PM 11.68 53.024 0.164 7.43 27.99 10.34
5/1/2022 10:45:00 PM 11.65 52.97 0.164 7.4 25.14 10.31
5/1/2022 11:00:00 PM 11.63 52.934 0.165 7.38 22.08 10.26
5/1/2022 11:15:00 PM 11.6 52.88 0.165 7.35 34.73 10.25
5/1/2022 11:30:00 PM 11.58 52.844 0.164 7.33 32.47 10.26
5/1/2022 11:45:00 PM 11.55 52.79 0.164 7.32 32.92 10.26
5/2/2022 12:00:00 AM 11.52 52.736 0.164 7.3 27.3 10.22
5/2/2022 12:15:00 AM 11.48 52.664 0.164 7.28 35.81 10.25
5/2/2022 12:30:00 AM 11.45 52.61 0.164 7.27 27.4 10.24
5/2/2022 12:45:00 AM 11.41 52.538 0.164 7.25 27.07 10.25
5/2/2022 1:00:00 AM 11.39 52.502 0.164 7.24 35.71 10.23
5/2/2022 1:15:00 AM 11.37 52.466 0.164 7.22 27.89 10.26
5/2/2022 1:30:00 AM 11.35 52.43 0.165 7.22 29.98 10.25
5/2/2022 1:45:00 AM 11.34 52.412 0.165 7.21 35.56 10.25
5/2/2022 2:00:00 AM 11.33 52.394 0.164 7.21 28.61 10.24
5/2/2022 2:15:00 AM 11.33 52.394 0.165 7.2 31.91 10.23
5/2/2022 2:30:00 AM 11.32 52.376 0.165 7.2 38.04 10.26
5/2/2022 2:45:00 AM 11.31 52.358 0.165 7.2 28.64 10.25
5/2/2022 3:00:00 AM 11.31 52.358 0.165 7.19 27.26 10.24
5/2/2022 3:15:00 AM 11.3 52.34 0.165 7.18 28.64 10.24
5/2/2022 3:30:00 AM 11.3 52.34 0.165 7.18 38.18 10.25
5/2/2022 3:45:00 AM 11.29 52.322 0.165 7.18 27.7 10.21
5/2/2022 4:00:00 AM 11.28 52.304 0.165 7.18 32.73 10.24
5/2/2022 4:15:00 AM 11.26 52.268 0.165 7.18 34.13 10.26
5/2/2022 4:30:00 AM 11.24 52.232 0.165 7.18 25.94 10.26
5/2/2022 4:45:00 AM 11.21 52.178 0.165 7.18 36.3 10.26
5/2/2022 5:00:00 AM 11.17 52.106 0.165 7.18 24.87 10.28
5/2/2022 5:15:00 AM 11.13 52.034 0.165 7.17 24.85 10.29
5/2/2022 5:30:00 AM 11.11 51.998 0.165 7.17 33.7 10.29
5/2/2022 5:45:00 AM 11.08 51.944 0.165 7.17 34.87 10.29
5/2/2022 6:00:00 AM 11.04 51.872 0.166 7.17 23.71 10.31
5/2/2022 6:15:00 AM 10.99 51.782 0.166 7.17 52.53 10.32
5/2/2022 6:30:00 AM 10.94 51.692 0.166 7.17 27.19 10.34
5/2/2022 6:45:00 AM 10.89 51.602 0.166 7.17 37.15 10.38
5/2/2022 7:00:00 AM 10.85 51.53 0.166 7.17 26.03 10.43
5/2/2022 7:15:00 AM 10.81 51.458 0.166 7.18 25.76 10.52
5/2/2022 7:30:00 AM 10.79 51.422 0.166 7.19 37.5 10.63
5/2/2022 7:45:00 AM 10.8 51.44 0.166 7.2 25.18 10.76
5/2/2022 8:00:00 AM 10.83 51.494 0.165 7.22 25.72 10.94
5/2/2022 8:15:00 AM 10.86 51.548 0.165 7.23 40.76 11.06
5/2/2022 8:30:00 AM 10.91 51.638 0.165 7.25 26.74 11.21
5/2/2022 8:45:00 AM 10.96 51.728 0.165 7.27 37.27 11.39
5/2/2022 9:00:00 AM 11.04 51.872 0.164 7.29 26.77 11.53
5/2/2022 9:15:00 AM 11.12 52.016 0.164 7.31 38.17 11.65
5/2/2022 9:30:00 AM 11.21 52.178 0.164 7.34 27.09 11.74
5/2/2022 9:45:00 AM 11.31 52.358 0.164 7.38 40.21 11.82
5/2/2022 10:00:00 AM 11.43 52.574 0.164 7.41 27.11 11.97
5/2/2022 10:15:00 AM 11.55 52.79 0.164 7.44 38.02 12.03
5/2/2022 10:30:00 AM 11.64 52.952 0.163 7.47 40.68 12.08
5/2/2022 10:45:00 AM 11.74 53.132 0.163 7.5 37.81 12.12
5/2/2022 11:00:00 AM 11.9 53.42 0.163 7.53 41.94 12.12
5/2/2022 11:15:00 AM 12.15 53.87 0.163 7.57 40.67 12.18
5/2/2022 11:30:00 AM 12.38 54.284 0.163 7.6 41.32 12.2
5/2/2022 11:45:00 AM 12.67 54.806 0.163 7.63 28.25 12.19
5/2/2022 12:00:00 PM 13.05 55.49 0.163 7.66 27.84 12.19
5/2/2022 12:15:00 PM 13.41 56.138 0.163 7.68 43.17 12.16
5/2/2022 12:30:00 PM 13.8 56.84 0.163 7.72 33.38 12.14
5/2/2022 12:45:00 PM 14.23 57.614 0.164 7.74 32.75 12.11
5/2/2022 1:00:00 PM 14.65 58.37 0.163 7.77 42.77 12.02
5/2/2022 1:15:00 PM 15 59 0.164 7.8 30.95 11.95
5/2/2022 1:30:00 PM 15.44 59.792 0.164 7.83 42.72 11.88
5/2/2022 1:45:00 PM 15.88 60.584 0.164 7.87 35.7 11.82
5/2/2022 2:00:00 PM 16.18 61.124 0.164 7.9 54.03 11.72
5/2/2022 2:15:00 PM 16.41 61.538 0.164 7.94 46.39 11.63
5/2/2022 2:30:00 PM 16.47 61.646 0.164 7.98 45.7 11.5
5/2/2022 2:45:00 PM 16.51 61.718 0.164 8.01 33.52 11.43
5/2/2022 3:00:00 PM 16.59 61.862 0.164 8.05 32.71 11.36
5/2/2022 3:15:00 PM 16.69 62.042 0.164 8.09 33.99 11.34
5/2/2022 3:30:00 PM 16.83 62.294 0.164 8.12 33.61 11.31
5/2/2022 3:45:00 PM 16.92 62.456 0.164 8.16 49.05 11.29
5/2/2022 4:00:00 PM 16.88 62.384 0.164 8.19 53.4 11.18
5/2/2022 4:15:00 PM 16.92 62.456 0.164 8.21 36.21 11.16
5/2/2022 4:30:00 PM 16.98 62.564 0.164 8.24 38.12 11.15
5/2/2022 4:45:00 PM 16.97 62.546 0.164 8.26 41.31 11.1
5/2/2022 5:00:00 PM 16.95 62.51 0.164 8.28 38.85 11.07
5/2/2022 5:15:00 PM 16.96 62.528 0.164 8.3 37.91 10.99
5/2/2022 5:30:00 PM 16.97 62.546 0.164 8.32 37.9 10.92
5/2/2022 5:45:00 PM 16.94 62.492 0.164 8.32 37 10.85
5/2/2022 6:00:00 PM 16.91 62.438 0.164 8.32 45.45 10.83
5/2/2022 6:15:00 PM 16.83 62.294 0.164 8.34 39.39 10.76
5/2/2022 6:30:00 PM 16.75 62.15 0.164 8.35 116.8 10.62
5/2/2022 6:45:00 PM 16.66 61.988 0.164 8.33 36.19 10.5
5/2/2022 7:00:00 PM 16.56 61.808 0.164 8.31 64.92 10.38
5/2/2022 7:15:00 PM 16.47 61.646 0.164 8.29 37.46 10.25
5/2/2022 7:30:00 PM 16.38 61.484 0.165 8.25 37.27 10.11
5/2/2022 7:45:00 PM 16.29 61.322 0.165 8.21 40.11 9.98
5/2/2022 8:00:00 PM 16.2 61.16 0.165 8.15 41.28 9.89
5/2/2022 8:15:00 PM 16.1 60.98 0.165 8.08 40.47 9.73
5/2/2022 8:30:00 PM 16 60.8 0.165 8.01 42.07 9.64
5/2/2022 8:45:00 PM 15.91 60.638 0.165 7.95 42.37 9.53
5/2/2022 9:00:00 PM 15.82 60.476 0.166 7.88 43.17 9.45
5/2/2022 9:15:00 PM 15.74 60.332 0.166 7.81 39.66 9.38
5/2/2022 9:30:00 PM 15.66 60.188 0.166 7.74 38.75 9.3
5/2/2022 9:45:00 PM 15.59 60.062 0.166 7.68 40.84 9.2
5/2/2022 10:00:00 PM 15.51 59.918 0.167 7.62 40.12 9.17
5/2/2022 10:15:00 PM 15.43 59.774 0.166 7.56 41.06 9.15
5/2/2022 10:30:00 PM 15.37 59.666 0.166 7.51 44.17 9.12
5/2/2022 10:45:00 PM 15.27 59.486 0.166 7.46 46.16 9.13
5/2/2022 11:00:00 PM 15.19 59.342 0.166 7.42 48.59 9.1
5/2/2022 11:15:00 PM 15.12 59.216 0.166 7.39 51.18 9.06
5/2/2022 11:30:00 PM 15.04 59.072 0.166 7.36 48.52 9.06
5/2/2022 11:45:00 PM 14.97 58.946 0.166 7.32 46.03 9.04
5/3/2022 12:00:00 AM 14.85 58.73 0.166 7.29 74.4 9.1
5/3/2022 12:15:00 AM 14.78 58.604 0.166 7.27 84.74 9.1
5/3/2022 12:30:00 AM 14.7 58.46 0.166 7.24 50.43 9.09
5/3/2022 12:45:00 AM 14.6 58.28 0.166 7.24 52.78 9.13
5/3/2022 1:00:00 AM 14.53 58.154 0.166 7.22 49.23 9.12
5/3/2022 1:15:00 AM 14.43 57.974 0.167 7.21 53.34 9.15
5/3/2022 1:30:00 AM 14.34 57.812 0.166 7.2 53.02 9.19
5/3/2022 1:45:00 AM 14.26 57.668 0.167 7.18 55.36 9.22
5/3/2022 2:00:00 AM 14.17 57.506 0.167 7.18 57.41 9.24
5/3/2022 2:15:00 AM 14.09 57.362 0.167 7.17 60.73 9.28
5/3/2022 2:30:00 AM 14.02 57.236 0.167 7.17 58.5 9.28
5/3/2022 2:45:00 AM 13.92 57.056 0.167 7.16 65.37 9.33
5/3/2022 3:00:00 AM 13.83 56.894 0.167 7.15 61.92 9.34
5/3/2022 3:15:00 AM 13.77 56.786 0.167 7.15 61.3 9.37
5/3/2022 3:30:00 AM 13.69 56.642 0.167 7.14 63.13 9.4
5/3/2022 3:45:00 AM 13.61 56.498 0.167 7.13 79.72 9.42
5/3/2022 4:00:00 AM 13.54 56.372 0.167 7.13 64.99 9.45
5/3/2022 4:15:00 AM 13.49 56.282 0.167 7.13 77.7 9.45
5/3/2022 4:30:00 AM 13.44 56.192 0.167 7.13 59.86 9.48
5/3/2022 4:45:00 AM 13.39 56.102 0.167 7.13 71.69 9.49
5/3/2022 5:00:00 AM 13.35 56.03 0.167 7.13 1790 9.52
5/3/2022 5:15:00 AM 13.32 55.976 0.167 7.13 91.96 9.54
5/3/2022 5:30:00 AM 13.28 55.904 0.168 7.12 57.91 9.55
5/3/2022 5:45:00 AM 13.25 55.85 0.168 7.11 46.01 9.53
5/3/2022 6:00:00 AM 13.22 55.796 0.168 7.12 52.34 9.55
5/3/2022 6:15:00 AM 13.18 55.724 0.168 7.11 51.9 9.56
5/3/2022 6:30:00 AM 13.15 55.67 0.168 7.11 63.49 9.59
5/3/2022 6:45:00 AM 13.12 55.616 0.168 7.11 65.57 9.58
5/3/2022 7:00:00 AM 13.1 55.58 0.168 7.11 56.93 9.71
5/3/2022 7:15:00 AM 13.08 55.544 0.168 7.12 50.77 9.76
5/3/2022 7:30:00 AM 13.07 55.526 0.168 7.12 52.55 9.87
5/3/2022 7:45:00 AM 13.06 55.508 0.168 7.13 50.93 9.99
5/3/2022 8:00:00 AM 13.05 55.49 0.168 7.13 53.18 10.04
5/3/2022 8:15:00 AM 13.05 55.49 0.168 7.14 54.27 10.11
5/3/2022 8:30:00 AM 13.05 55.49 0.168 7.15 56.12 10.16
5/3/2022 8:45:00 AM 13.04 55.472 0.167 7.17 56.97 10.27
5/3/2022 9:00:00 AM 13.04 55.472 0.167 7.17 54.76 10.35
5/3/2022 9:15:00 AM 13.05 55.49 0.167 7.19 55.52 10.42
5/3/2022 9:30:00 AM 13.06 55.508 0.167 7.21 57.48 10.51
5/3/2022 9:45:00 AM 13.08 55.544 0.167 7.23 60.72 10.71
5/3/2022 10:00:00 AM 13.11 55.598 0.167 7.24 67.32 10.81
5/3/2022 10:15:00 AM 13.13 55.634 0.166 7.27 62.86 10.96
5/3/2022 10:30:00 AM 13.14 55.652 0.166 7.3 58.96 11.11
5/3/2022 10:45:00 AM 13.16 55.688 0.166 7.33 57.93 11.22
5/3/2022 11:00:00 AM 13.18 55.724 0.166 7.34 44.66 11.27
5/3/2022 11:15:00 AM 13.21 55.778 0.166 7.37 45.93 11.28
5/3/2022 11:30:00 AM 13.24 55.832 0.165 7.39 51.12 11.41
5/3/2022 11:45:00 AM 13.26 55.868 0.165 7.43 52.83 11.46
5/3/2022 12:00:00 PM 13.32 55.976 0.165 7.45 58.3 11.5
5/3/2022 12:15:00 PM 13.43 56.174 0.165 7.47 53.3 11.57
5/3/2022 12:30:00 PM 13.6 56.48 0.165 7.5 56.32 11.73
5/3/2022 12:45:00 PM 13.86 56.948 0.165 7.53 58.09 11.76
5/3/2022 1:00:00 PM 14.14 57.452 0.165 7.56 66 11.81
5/3/2022 1:15:00 PM 14.46 58.028 0.165 7.58 57.06 11.85
5/3/2022 1:30:00 PM 14.84 58.712 0.164 7.61 61.34 11.84
5/3/2022 1:45:00 PM 15.12 59.216 0.164 7.64 63.75 11.77
5/3/2022 2:00:00 PM 15.47 59.846 0.164 7.67 56.85 11.77
5/3/2022 2:15:00 PM 15.75 60.35 0.164 7.71 61.55 11.72
5/3/2022 2:30:00 PM 16.08 60.944 0.164 7.74 58.83 11.65
5/3/2022 2:45:00 PM 16.4 61.52 0.164 7.77 58.94 11.58
5/3/2022 3:00:00 PM 16.65 61.97 0.164 7.81 63.43 11.61
5/3/2022 3:15:00 PM 16.84 62.312 0.164 7.85 56.11 11.55
5/3/2022 3:30:00 PM 16.94 62.492 0.164 7.89 63.03 11.51
5/3/2022 3:45:00 PM 17.05 62.69 0.164 7.93 64.19 11.4
5/3/2022 4:00:00 PM 17.15 62.87 0.164 7.97 59.15 11.32
5/3/2022 4:15:00 PM 17.26 63.068 0.164 8.02 59.59 11.28
5/3/2022 4:30:00 PM 17.33 63.194 0.164 8.07 62.39 11.22
5/3/2022 4:45:00 PM 17.39 63.302 0.164 8.09 60.54 11.13
5/3/2022 5:00:00 PM 17.44 63.392 0.164 8.09 62.11 11.03
5/3/2022 5:15:00 PM 17.45 63.41 0.164 8.13 61.36 10.98
5/3/2022 5:30:00 PM 17.42 63.356 0.164 8.15 62.82 10.95
5/3/2022 5:45:00 PM 17.34 63.212 0.164 8.17 61.91 10.84
5/3/2022 6:00:00 PM 17.26 63.068 0.164 8.2 60.96 10.68
5/3/2022 6:15:00 PM 17.17 62.906 0.164 8.22 59.88 10.65
5/3/2022 6:30:00 PM 17.08 62.744 0.165 8.22 62.82 10.63
5/3/2022 6:45:00 PM 16.98 62.564 0.165 8.21 63.89 10.5
5/3/2022 7:00:00 PM 16.87 62.366 0.165 8.21 66.25 10.37
5/3/2022 7:15:00 PM 16.76 62.168 0.165 8.19 62.29 10.3
5/3/2022 7:30:00 PM 16.64 61.952 0.165 8.17 65.51 10.16
5/3/2022 7:45:00 PM 16.51 61.718 0.165 8.14 65.25 10
5/3/2022 8:00:00 PM 16.39 61.502 0.166 8.1 62.87 9.91
5/3/2022 8:15:00 PM 16.21 61.178 0.166 8.06 65.38 9.84
5/3/2022 8:30:00 PM 16.11 60.998 0.166 7.99 71.27 9.72
5/3/2022 8:45:00 PM 15.99 60.782 0.166 7.93 62.96 9.61
5/3/2022 9:00:00 PM 15.87 60.566 0.167 7.86 74.06 9.53
5/3/2022 9:15:00 PM 15.78 60.404 0.167 7.8 66.77 9.41
5/3/2022 9:30:00 PM 15.69 60.242 0.167 7.73 68.01 9.39
5/3/2022 9:45:00 PM 15.62 60.116 0.167 7.67 63.8 9.29
5/3/2022 10:00:00 PM 15.52 59.936 0.168 7.63 64.62 9.25
5/3/2022 10:15:00 PM 15.45 59.81 0.168 7.57 61.33 9.2
5/3/2022 10:30:00 PM 15.37 59.666 0.168 7.53 60.42 9.17
5/3/2022 10:45:00 PM 15.3 59.54 0.169 7.48 62.94 9.13
5/3/2022 11:00:00 PM 15.23 59.414 0.168 7.44 59.92 9.09
5/3/2022 11:15:00 PM 15.15 59.27 0.169 7.4 58.06 9.07
5/3/2022 11:30:00 PM 15.09 59.162 0.169 7.36 61.64 9.07
5/3/2022 11:45:00 PM 15.02 59.036 0.169 7.34 64.45 9.07
5/4/2022 12:00:00 AM 14.96 58.928 0.169 7.31 62.56 9.06
5/4/2022 12:15:00 AM 14.89 58.802 0.168 7.29 54.84 9.08
5/4/2022 12:30:00 AM 14.82 58.676 0.168 7.28 54.93 9.1
5/4/2022 12:45:00 AM 14.76 58.568 0.168 7.26 50.18 9.12
5/4/2022 1:00:00 AM 14.7 58.46 0.168 7.24 50.63 9.08
5/4/2022 1:15:00 AM 14.65 58.37 0.167 7.22 52.28 9.13
5/4/2022 1:30:00 AM 14.58 58.244 0.167 7.21 53.44 9.14
5/4/2022 1:45:00 AM 14.53 58.154 0.166 7.19 56.39 9.15
5/4/2022 2:00:00 AM 14.46 58.028 0.165 7.18 53.93 9.18
5/4/2022 2:15:00 AM 14.41 57.938 0.165 7.16 51.96 9.19
5/4/2022 2:30:00 AM 14.36 57.848 0.164 7.17 53.65 9.21
5/4/2022 2:45:00 AM 14.32 57.776 0.164 7.16 52.39 9.25
5/4/2022 3:00:00 AM 14.28 57.704 0.163 7.16 52.4 9.22
5/4/2022 3:15:00 AM 14.23 57.614 0.163 7.14 52.71 9.23
5/4/2022 3:30:00 AM 14.19 57.542 0.163 7.13 57.46 9.23
5/4/2022 3:45:00 AM 14.15 57.47 0.163 7.13 52.41 9.24
5/4/2022 4:00:00 AM 14.1 57.38 0.162 7.11 58.47 9.29
5/4/2022 4:15:00 AM 14.05 57.29 0.162 7.11 56.13 9.32
5/4/2022 4:30:00 AM 14.01 57.218 0.162 7.11 54.84 9.31
5/4/2022 4:45:00 AM 13.96 57.128 0.162 7.1 54.62 9.35
5/4/2022 5:00:00 AM 13.92 57.056 0.162 7.09 55.06 9.33
5/4/2022 5:15:00 AM 13.87 56.966 0.162 7.09 52.76 9.37
5/4/2022 5:30:00 AM 13.82 56.876 0.162 7.08 53.85 9.44
5/4/2022 5:45:00 AM 13.77 56.786 0.162 7.1 63.21 9.44
5/4/2022 6:00:00 AM 13.72 56.696 0.162 7.08 56.91 9.47
5/4/2022 6:15:00 AM 13.66 56.588 0.162 7.09 55.92 9.5
5/4/2022 6:30:00 AM 13.61 56.498 0.162 7.09 59.01 9.51
5/4/2022 6:45:00 AM 13.57 56.426 0.162 7.08 56.54 9.53
5/4/2022 7:00:00 AM 13.52 56.336 0.162 7.09 60.47 9.55
5/4/2022 7:15:00 AM 13.48 56.264 0.162 7.09 60.85 9.61
5/4/2022 7:30:00 AM 13.44 56.192 0.162 7.08 54.85 9.65
5/4/2022 7:45:00 AM 13.41 56.138 0.162 7.09 60.37 9.74
5/4/2022 8:00:00 AM 13.38 56.084 0.163 7.09 52.75 9.84
5/4/2022 8:15:00 AM 13.35 56.03 0.163 7.11 67.89 9.94
5/4/2022 8:30:00 AM 13.32 55.976 0.163 7.13 61.23 10.01
5/4/2022 8:45:00 AM 13.3 55.94 0.163 7.15 66 10.04
5/4/2022 9:00:00 AM 13.28 55.904 0.163 7.15 63.82 10.11
5/4/2022 9:15:00 AM 13.27 55.886 0.163 7.16 64.68 10.24
5/4/2022 9:30:00 AM 13.28 55.904 0.162 7.17 63.18 10.38
5/4/2022 9:45:00 AM 13.29 55.922 0.162 7.19 47.77 10.49
5/4/2022 10:00:00 AM 13.28 55.904 0.162 7.2 48.01 10.59
5/4/2022 10:15:00 AM 13.28 55.904 0.162 7.22 48.59 10.66
5/4/2022 10:30:00 AM 13.28 55.904 0.162 7.23 46.59 10.74
5/4/2022 10:45:00 AM 13.3 55.94 0.162 7.23 47.4 10.8
5/4/2022 11:00:00 AM 13.32 55.976 0.162 7.25 52.1 10.91
5/4/2022 11:15:00 AM 13.35 56.03 0.162 7.27 52.72 11.04
5/4/2022 11:30:00 AM 13.4 56.12 0.162 7.3 50.52 11.13
5/4/2022 11:45:00 AM 13.43 56.174 0.162 7.33 60.28 11.21
5/4/2022 12:00:00 PM 13.47 56.246 0.161 7.38 64.13 11.29
5/4/2022 12:15:00 PM 13.54 56.372 0.161 7.42 59.37 11.35
5/4/2022 12:30:00 PM 13.61 56.498 0.161 7.45 65.93 11.45
5/4/2022 12:45:00 PM 13.7 56.66 0.161 7.46 77.72 11.52
5/4/2022 1:00:00 PM 13.81 56.858 0.161 7.5 71.64 11.59
5/4/2022 1:15:00 PM 13.95 57.11 0.161 7.53 74.74 11.62
5/4/2022 1:30:00 PM 14.13 57.434 0.161 7.57 82.17 11.67
5/4/2022 1:45:00 PM 14.43 57.974 0.161 7.59 96.91 11.7
5/4/2022 2:00:00 PM 14.85 58.73 0.161 7.64 86.2 11.75
5/4/2022 2:15:00 PM 15.18 59.324 0.161 7.68 81.57 11.75
5/4/2022 2:30:00 PM 15.26 59.468 0.161 7.72 91.92 11.69
5/4/2022 2:45:00 PM 15.15 59.27 0.161 7.76 95.14 11.62
5/4/2022 3:00:00 PM 15.08 59.144 0.161 7.8 94.96 11.43
5/4/2022 3:15:00 PM 15.07 59.126 0.161 7.83 74.09 11.26
5/4/2022 3:30:00 PM 15.1 59.18 0.161 7.84 89.87 11.19
5/4/2022 3:45:00 PM 15.14 59.252 0.161 7.85 93.64 11.18
5/4/2022 4:00:00 PM 15.22 59.396 0.161 7.86 83.21 11.2
5/4/2022 4:15:00 PM 15.27 59.486 0.161 7.88 90.24 11.23
5/4/2022 4:30:00 PM 15.3 59.54 0.16 7.9 86.84 11.21
5/4/2022 4:45:00 PM 15.34 59.612 0.161 7.92 89.39 11.2
5/4/2022 5:00:00 PM 15.36 59.648 0.161 7.93 93.19 11.17
5/4/2022 5:15:00 PM 15.4 59.72 0.161 7.94 92.1 11.14
5/4/2022 5:30:00 PM 15.47 59.846 0.161 7.95 76.13 11.12
5/4/2022 5:45:00 PM 15.53 59.954 0.161 7.96 85.56 11.13
5/4/2022 6:00:00 PM 15.53 59.954 0.161 7.97 79.77 11.07
5/4/2022 6:15:00 PM 15.51 59.918 0.161 7.97 82.18 10.98
5/4/2022 6:30:00 PM 15.52 59.936 0.161 7.97 103 10.92
5/4/2022 6:45:00 PM 15.49 59.882 0.161 7.96 82.33 10.81
5/4/2022 7:00:00 PM 15.46 59.828 0.161 7.94 91.35 10.71
5/4/2022 7:15:00 PM 15.44 59.792 0.162 7.91 96.93 10.57
5/4/2022 7:30:00 PM 15.41 59.738 0.162 7.88 91.18 10.49
5/4/2022 7:45:00 PM 15.37 59.666 0.162 7.84 91.73 10.36
5/4/2022 8:00:00 PM 15.33 59.594 0.163 7.79 85.38 10.24
5/4/2022 8:15:00 PM 15.27 59.486 0.163 7.75 93.14 10.13
5/4/2022 8:30:00 PM 15.22 59.396 0.164 7.7 99.61 9.98
5/4/2022 8:45:00 PM 15.15 59.27 0.164 7.66 110.3 9.89
5/4/2022 9:00:00 PM 15.09 59.162 0.165 7.61 118.2 9.78
5/4/2022 9:15:00 PM 15.03 59.054 0.165 7.55 108.9 9.68
5/4/2022 9:30:00 PM 14.97 58.946 0.166 7.5 104.5 9.61
5/4/2022 9:45:00 PM 14.92 58.856 0.166 7.45 112.1 9.55
5/4/2022 10:00:00 PM 14.87 58.766 0.166 7.41 118 9.5
5/4/2022 10:15:00 PM 14.84 58.712 0.167 7.37 117.6 9.42
5/4/2022 10:30:00 PM 14.81 58.658 0.167 7.34 123.6 9.38
5/4/2022 10:45:00 PM 14.78 58.604 0.167 7.31 144 9.37
5/4/2022 11:00:00 PM 14.75 58.55 0.166 7.28 126.4 9.31
5/4/2022 11:15:00 PM 14.71 58.478 0.166 7.26 135.1 9.31
5/4/2022 11:30:00 PM 14.67 58.406 0.166 7.24 129.2 9.28
5/4/2022 11:45:00 PM 14.65 58.37 0.167 7.23 124.3 9.22
5/5/2022 12:00:00 AM 14.62 58.316 0.166 7.21 124.1 9.23
5/5/2022 12:15:00 AM 14.61 58.298 0.166 7.19 125.1 9.26
5/5/2022 12:30:00 AM 14.59 58.262 0.165 7.18 123.5 9.27
5/5/2022 12:45:00 AM 14.57 58.226 0.165 7.17 168.6 9.28
5/5/2022 1:00:00 AM 14.55 58.19 0.165 7.16 141 9.26
5/5/2022 1:15:00 AM 14.52 58.136 0.164 7.16 144.5 9.27
5/5/2022 1:30:00 AM 14.48 58.064 0.164 7.16 144.4 9.3
5/5/2022 1:45:00 AM 14.44 57.992 0.164 7.16 151.2 9.3
5/5/2022 2:00:00 AM 14.39 57.902 0.164 7.15 144.3 9.31
5/5/2022 2:15:00 AM 14.35 57.83 0.163 7.15 135.8 9.33
5/5/2022 2:30:00 AM 14.31 57.758 0.163 7.14 134.5 9.32
5/5/2022 2:45:00 AM 14.28 57.704 0.163 7.14 146.1 9.34
5/5/2022 3:00:00 AM 14.24 57.632 0.163 7.13 143.7 9.33
5/5/2022 3:15:00 AM 14.22 57.596 0.163 7.13 149 9.35
5/5/2022 3:30:00 AM 14.2 57.56 0.163 7.13 163.1 9.36
5/5/2022 3:45:00 AM 14.18 57.524 0.163 7.12 143.1 9.34
5/5/2022 4:00:00 AM 14.17 57.506 0.163 7.12 139 9.36
5/5/2022 4:15:00 AM 14.15 57.47 0.163 7.12 147.4 9.39
5/5/2022 4:30:00 AM 14.13 57.434 0.163 7.11 146.8 9.4
5/5/2022 4:45:00 AM 14.1 57.38 0.164 7.11 141.4 9.41
5/5/2022 5:00:00 AM 14.08 57.344 0.164 7.11 147.3 9.41
5/5/2022 5:15:00 AM 14.05 57.29 0.164 7.11 137.6 9.43
5/5/2022 5:30:00 AM 14.03 57.254 0.164 7.11 141.7 9.43
5/5/2022 5:45:00 AM 14 57.2 0.164 7.12 142.2 9.43
5/5/2022 6:00:00 AM 13.97 57.146 0.164 7.12 140.7 9.42
5/5/2022 6:15:00 AM 13.94 57.092 0.164 7.12 147.1 9.44
5/5/2022 6:30:00 AM 13.91 57.038 0.165 7.13 149 9.46
5/5/2022 6:45:00 AM 13.89 57.002 0.165 7.13 147.6 9.49
5/5/2022 7:00:00 AM 13.87 56.966 0.165 7.12 157.8 9.58
5/5/2022 7:15:00 AM 13.86 56.948 0.165 7.13 156.2 9.66
5/5/2022 7:30:00 AM 13.86 56.948 0.165 7.13 156.9 9.79
5/5/2022 7:45:00 AM 13.86 56.948 0.165 7.14 147.4 9.92
5/5/2022 8:00:00 AM 13.88 56.984 0.165 7.14 148.5 10.06
5/5/2022 8:15:00 AM 13.89 57.002 0.165 7.17 152 10.19
5/5/2022 8:30:00 AM 13.92 57.056 0.165 7.2 145.2 10.38
5/5/2022 8:45:00 AM 13.96 57.128 0.164 7.22 157.7 10.54
5/5/2022 9:00:00 AM 13.99 57.182 0.164 7.24 143.6 10.69
5/5/2022 9:15:00 AM 14.05 57.29 0.164 7.26 149 10.87
5/5/2022 9:30:00 AM 14.12 57.416 0.164 7.28 145.6 11.03
5/5/2022 9:45:00 AM 14.19 57.542 0.164 7.31 161.7 11.19
5/5/2022 10:00:00 AM 14.27 57.686 0.164 7.34 153.2 11.29
5/5/2022 10:15:00 AM 14.36 57.848 0.164 7.37 147 11.4
5/5/2022 10:30:00 AM 14.47 58.046 0.164 7.4 149 11.44
5/5/2022 10:45:00 AM 14.64 58.352 0.163 7.44 146.1 11.54
5/5/2022 11:00:00 AM 14.82 58.676 0.164 7.47 142.5 11.61
5/5/2022 11:15:00 AM 15.03 59.054 0.163 7.5 146.8 11.66
5/5/2022 11:30:00 AM 15.28 59.504 0.163 7.54 146 11.67
5/5/2022 11:45:00 AM 15.53 59.954 0.163 7.58 152.7 11.68
5/5/2022 12:00:00 PM 15.82 60.476 0.163 7.62 147.4 11.68
5/5/2022 12:15:00 PM 16.16 61.088 0.163 7.66 151.1 11.67
5/5/2022 12:30:00 PM 16.56 61.808 0.163 7.7 151.1 11.64
5/5/2022 12:45:00 PM 16.87 62.366 0.163 7.74 149.2 11.6
5/5/2022 1:00:00 PM 16.94 62.492 0.163 7.78 151.4 11.52
5/5/2022 1:15:00 PM 16.94 62.492 0.163 7.82 150.9 11.41
5/5/2022 1:30:00 PM 17.07 62.726 0.163 7.86 151 11.39
5/5/2022 1:45:00 PM 17.23 63.014 0.163 7.9 147.9 11.37
5/5/2022 2:00:00 PM 17.56 63.608 0.163 7.94 154.1 11.39
5/5/2022 2:15:00 PM 17.82 64.076 0.163 7.98 150.5 11.36
5/5/2022 2:30:00 PM 17.95 64.31 0.163 8.01 147.7 11.26
5/5/2022 2:45:00 PM 17.86 64.148 0.163 8.05 144.9 11.1
5/5/2022 3:00:00 PM 17.85 64.13 0.163 8.08 151.3 11.02
5/5/2022 3:15:00 PM 18.23 64.814 0.163 8.12 159.3 10.99
5/5/2022 3:30:00 PM 18.46 65.228 0.163 8.14 158.3 10.93
5/5/2022 3:45:00 PM 18.69 65.642 0.164 8.17 159.1 10.91
5/5/2022 4:00:00 PM 19.03 66.254 0.164 8.2 148.3 10.91
5/5/2022 4:15:00 PM 19.23 66.614 0.164 8.22 149.1 10.91
5/5/2022 4:30:00 PM 19.27 66.686 0.163 8.24 148 10.85
5/5/2022 4:45:00 PM 19.2 66.56 0.164 8.29 149.1 10.82
5/5/2022 5:00:00 PM 19.13 66.434 0.163 8.3 151 10.83
5/5/2022 5:15:00 PM 19.03 66.254 0.164 8.31 150.9 10.79
5/5/2022 5:30:00 PM 18.96 66.128 0.164 8.31 152.3 10.67
5/5/2022 5:45:00 PM 18.91 66.038 0.164 8.29 153.4 10.59
5/5/2022 6:00:00 PM 18.85 65.93 0.164 8.27 149.3 10.57
5/5/2022 6:15:00 PM 18.74 65.732 0.164 8.27 153.1 10.42
5/5/2022 6:30:00 PM 18.62 65.516 0.164 8.25 151.5 10.26
5/5/2022 6:45:00 PM 18.51 65.318 0.164 8.22 152 10.14
5/5/2022 7:00:00 PM 18.38 65.084 0.165 8.2 155.1 10.06
5/5/2022 7:15:00 PM 18.26 64.868 0.165 8.18 153.6 9.98
5/5/2022 7:30:00 PM 18.13 64.634 0.165 8.15 154.5 9.89
5/5/2022 7:45:00 PM 17.98 64.364 0.165 8.11 157.5 9.76
5/5/2022 8:00:00 PM 17.83 64.094 0.165 8.07 156.7 9.63
5/5/2022 8:15:00 PM 17.7 63.86 0.166 8.02 159 9.45
5/5/2022 8:30:00 PM 17.57 63.626 0.166 7.96 160.5 9.32
5/5/2022 8:45:00 PM 17.44 63.392 0.166 7.89 159.2 9.21
5/5/2022 9:00:00 PM 17.33 63.194 0.167 7.83 176.6 9.11
5/5/2022 9:15:00 PM 17.24 63.032 0.167 7.77 177.1 9.02
5/5/2022 9:30:00 PM 17.14 62.852 0.167 7.71 172.7 8.96
5/5/2022 9:45:00 PM 17.04 62.672 0.167 7.64 180 8.89
5/5/2022 10:00:00 PM 16.96 62.528 0.168 7.59 175.5 8.83
5/5/2022 10:15:00 PM 16.87 62.366 0.168 7.54 176.4 8.79
5/5/2022 10:30:00 PM 16.8 62.24 0.168 7.49 187.2 8.76
5/5/2022 10:45:00 PM 16.72 62.096 0.168 7.45 184.2 8.74
5/5/2022 11:00:00 PM 16.65 61.97 0.169 7.41 182.8 8.7
5/5/2022 11:15:00 PM 16.56 61.808 0.168 7.38 189.5 8.7
5/5/2022 11:30:00 PM 16.48 61.664 0.169 7.34 197.6 8.67
5/5/2022 11:45:00 PM 16.42 61.556 0.169 7.31 243.8 8.66
5/6/2022 12:00:00 AM 16.35 61.43 0.169 7.29 208.4 8.67
5/6/2022 12:15:00 AM 16.29 61.322 0.169 7.26 199.5 8.64
5/6/2022 12:30:00 AM 16.21 61.178 0.169 7.24 211.2 8.65
5/6/2022 12:45:00 AM 16.15 61.07 0.169 7.21 217 8.67
5/6/2022 1:00:00 AM 16.09 60.962 0.169 7.19 214.9 8.67
5/6/2022 1:15:00 AM 16.04 60.872 0.169 7.18 201.8 8.68
5/6/2022 1:30:00 AM 15.98 60.764 0.169 7.17 203.6 8.68
5/6/2022 1:45:00 AM 15.93 60.674 0.169 7.15 203 8.68
5/6/2022 2:00:00 AM 15.89 60.602 0.168 7.15 200.4 8.71
5/6/2022 2:15:00 AM 15.85 60.53 0.168 7.13 204.5 8.74
5/6/2022 2:30:00 AM 15.82 60.476 0.168 7.12 201.5 8.73
5/6/2022 2:45:00 AM 15.78 60.404 0.168 7.11 201.5 8.7
5/6/2022 3:00:00 AM 15.75 60.35 0.168 7.11 201.8 8.79
5/6/2022 3:15:00 AM 15.71 60.278 0.168 7.11 206.5 8.79
5/6/2022 3:30:00 AM 15.69 60.242 0.168 7.1 203.9 8.75
5/6/2022 3:45:00 AM 15.67 60.206 0.169 7.09 206 8.76
5/6/2022 4:00:00 AM 15.65 60.17 0.168 7.08 196.9 8.76
5/6/2022 4:15:00 AM 15.61 60.098 0.168 7.08 199.5 8.77
5/6/2022 4:30:00 AM 15.59 60.062 0.169 7.08 213.1 8.79
5/6/2022 4:45:00 AM 15.55 59.99 0.169 7.06 199.1 8.82
5/6/2022 5:00:00 AM 15.52 59.936 0.169 7.05 202.6 8.83
5/6/2022 5:15:00 AM 15.49 59.882 0.169 7.05 199 8.81
5/6/2022 5:30:00 AM 15.45 59.81 0.169 7.05 192.6 8.82
5/6/2022 5:45:00 AM 15.42 59.756 0.17 7.04 204.2 8.82
5/6/2022 6:00:00 AM 15.39 59.702 0.17 7.04 198.8 8.83
5/6/2022 6:15:00 AM 15.35 59.63 0.17 7.05 195.9 8.83
5/6/2022 6:30:00 AM 15.3 59.54 0.17 7.05 201.2 8.86
5/6/2022 6:45:00 AM 15.25 59.45 0.169 7.05 194.8 8.85
5/6/2022 7:00:00 AM 15.21 59.378 0.169 7.05 196.8 8.9
5/6/2022 7:15:00 AM 15.16 59.288 0.17 7.04 202.1 8.94
5/6/2022 7:30:00 AM 15.12 59.216 0.17 7.04 198.4 8.95
5/6/2022 7:45:00 AM 15.07 59.126 0.171 7.05 194.6 8.99
5/6/2022 8:00:00 AM 15.03 59.054 0.171 7.05 199.1 9.07
5/6/2022 8:15:00 AM 14.98 58.964 0.17 7.05 200.1 9.16
5/6/2022 8:30:00 AM 14.93 58.874 0.169 7.05 220.6 9.22
5/6/2022 8:45:00 AM 14.88 58.784 0.167 7.05 220.3 9.32
5/6/2022 9:00:00 AM 14.84 58.712 0.166 7.06 202.7 9.37
5/6/2022 9:15:00 AM 14.79 58.622 0.165 7.06 247.4 9.43
5/6/2022 9:30:00 AM 14.75 58.55 0.164 7.07 213.5 9.49
5/6/2022 9:45:00 AM 14.69 58.442 0.163 7.08 206.8 9.59
5/6/2022 10:00:00 AM 14.64 58.352 0.162 7.09 205.6 9.69
5/6/2022 10:15:00 AM 14.6 58.28 0.162 7.1 214.5 9.76
5/6/2022 10:30:00 AM 14.56 58.208 0.161 7.12 214.8 9.84
5/6/2022 10:45:00 AM 14.51 58.118 0.16 7.14 208.4 9.96
5/6/2022 11:00:00 AM 14.47 58.046 0.159 7.15 210.1 10.05
5/6/2022 11:15:00 AM 14.43 57.974 0.159 7.17 222 10.13
5/6/2022 11:30:00 AM 14.39 57.902 0.158 7.17 212.1 10.21
5/6/2022 11:45:00 AM 14.34 57.812 0.157 7.17 222.9 10.26
5/6/2022 12:00:00 PM 14.3 57.74 0.157 7.18 216.3 10.33
5/6/2022 12:15:00 PM 14.24 57.632 0.156 7.19 220.8 10.32
5/6/2022 12:30:00 PM 14.19 57.542 0.155 7.2 221.5 10.34
5/6/2022 12:45:00 PM 14.13 57.434 0.155 7.21 204.6 10.32
5/6/2022 1:00:00 PM 14.08 57.344 0.154 7.22 226.4 10.33
5/6/2022 1:15:00 PM 14.03 57.254 0.154 7.22 210.9 10.34
5/6/2022 1:30:00 PM 13.98 57.164 0.154 7.22 213.5 10.28
5/6/2022 1:45:00 PM 13.92 57.056 0.154 7.22 219.7 10.21
5/6/2022 2:00:00 PM 13.86 56.948 0.154 7.22 258.2 10.16
5/6/2022 2:15:00 PM 13.8 56.84 0.153 7.23 272.8 10.12
5/6/2022 2:30:00 PM 13.74 56.732 0.153 7.23 279 10.08
5/6/2022 2:45:00 PM 13.68 56.624 0.152 7.23 296.9 10.03
5/6/2022 3:00:00 PM 13.62 56.516 0.151 7.24 388.7 10.02
5/6/2022 3:15:00 PM 13.55 56.39 0.15 7.23 338.2 9.97
5/6/2022 3:30:00 PM 13.48 56.264 0.15 7.23 393.7 9.92
5/6/2022 3:45:00 PM 13.41 56.138 0.149 7.23 348.1 9.92
5/6/2022 4:00:00 PM 13.34 56.012 0.148 7.23 439.7 9.92
5/6/2022 4:15:00 PM 13.28 55.904 0.148 7.22 437.9 9.91
5/6/2022 4:30:00 PM 13.22 55.796 0.147 7.23 473.8 9.87
5/6/2022 4:45:00 PM 13.17 55.706 0.147 7.23 430 9.82
5/6/2022 5:00:00 PM 13.12 55.616 0.146 7.23 548 9.74
5/6/2022 5:15:00 PM 13.07 55.526 0.146 7.24 512.1 9.74
5/6/2022 5:30:00 PM 13.03 55.454 0.146 7.24 544.8 9.73
5/6/2022 5:45:00 PM 12.99 55.382 0.146 7.23 727.1 9.78
5/6/2022 6:00:00 PM 12.95 55.31 0.146 7.24 529.5 9.84
5/6/2022 6:15:00 PM 12.92 55.256 0.144 7.25 588.1 9.84
5/6/2022 6:30:00 PM 12.88 55.184 0.141 7.25 676.2 9.73
5/6/2022 6:45:00 PM 12.85 55.13 0.139 7.27 527.4 9.64
5/6/2022 7:00:00 PM 12.81 55.058 0.137 7.27 803.5 9.64
5/6/2022 7:15:00 PM 12.77 54.986 0.135 7.26 601.1 9.47
5/6/2022 7:30:00 PM 12.74 54.932 0.134 7.26 588.6 9.59
5/6/2022 7:45:00 PM 12.72 54.896 0.134 7.26 650.3 9.65
5/6/2022 8:00:00 PM 12.68 54.824 0.134 7.25 691.7 9.78
5/6/2022 8:15:00 PM 12.65 54.77 0.134 7.26 649.4 9.79
5/6/2022 8:30:00 PM 12.62 54.716 0.134 7.26 684.1 9.84
5/6/2022 8:45:00 PM 12.58 54.644 0.133 7.26 708 9.9
5/6/2022 9:00:00 PM 12.55 54.59 0.133 7.27 667.6 9.94
5/6/2022 9:15:00 PM 12.52 54.536 0.133 7.27 647.9 9.9
5/6/2022 9:30:00 PM 12.49 54.482 0.133 7.26 683.2 10
5/6/2022 9:45:00 PM 12.46 54.428 0.132 7.25 572 10.03
5/6/2022 10:00:00 PM 12.43 54.374 0.132 7.26 505.6 10.06
5/6/2022 10:15:00 PM 12.39 54.302 0.132 7.26 530.1 10.09
5/6/2022 10:30:00 PM 12.36 54.248 0.132 7.26 478.8 10.09
5/6/2022 10:45:00 PM 12.33 54.194 0.132 7.25 443.9 10.06
5/6/2022 11:00:00 PM 12.29 54.122 0.132 7.24 420.2 10.1
5/6/2022 11:15:00 PM 12.26 54.068 0.132 7.24 414.1 10.1
5/6/2022 11:30:00 PM 12.22 53.996 0.132 7.24 389 10.08
5/6/2022 11:45:00 PM 12.19 53.942 0.132 7.24 390.5 10.07
5/7/2022 12:00:00 AM 12.17 53.906 0.132 7.23 402.1 10.12
5/7/2022 12:15:00 AM 12.13 53.834 0.132 7.24 366 10.11
5/7/2022 12:30:00 AM 12.1 53.78 0.132 7.22 365.5 10.13
5/7/2022 12:45:00 AM 12.07 53.726 0.132 7.23 342.2 10.13
5/7/2022 1:00:00 AM 12.03 53.654 0.133 7.23 341.8 10.13
5/7/2022 1:15:00 AM 12 53.6 0.133 7.22 327.7 10.14
5/7/2022 1:30:00 AM 11.97 53.546 0.133 7.22 309.7 10.16
5/7/2022 1:45:00 AM 11.94 53.492 0.133 7.22 307.2 10.14
5/7/2022 2:00:00 AM 11.91 53.438 0.133 7.22 304.9 10.17
5/7/2022 2:15:00 AM 11.87 53.366 0.133 7.22 281 10.17
5/7/2022 2:30:00 AM 11.84 53.312 0.134 7.21 299.5 10.18
5/7/2022 2:45:00 AM 11.8 53.24 0.134 7.22 318.4 10.19
5/7/2022 3:00:00 AM 11.76 53.168 0.134 7.22 290.8 10.2
5/7/2022 3:15:00 AM 11.72 53.096 0.134 7.22 285.8 10.21
5/7/2022 3:30:00 AM 11.69 53.042 0.134 7.22 275.4 10.24
5/7/2022 3:45:00 AM 11.66 52.988 0.134 7.22 280.7 10.26
5/7/2022 4:00:00 AM 11.63 52.934 0.134 7.22 275 10.26
5/7/2022 4:15:00 AM 11.6 52.88 0.134 7.23 265.9 10.26
5/7/2022 4:30:00 AM 11.57 52.826 0.134 7.23 264.1 10.3
5/7/2022 4:45:00 AM 11.53 52.754 0.134 7.23 255.6 10.3
5/7/2022 5:00:00 AM 11.5 52.7 0.134 7.23 269 10.32
5/7/2022 5:15:00 AM 11.47 52.646 0.134 7.23 319.3 10.34
5/7/2022 5:30:00 AM 11.44 52.592 0.134 7.24 330.7 10.35
5/7/2022 5:45:00 AM 11.41 52.538 0.134 7.25 336.8 10.38
5/7/2022 6:00:00 AM 11.39 52.502 0.134 7.25 302.1 10.39
5/7/2022 6:15:00 AM 11.36 52.448 0.134 7.25 291.9 10.43
5/7/2022 6:30:00 AM 11.33 52.394 0.134 7.27 286.7 10.43
5/7/2022 6:45:00 AM 11.3 52.34 0.135 7.27 257.9 10.45
5/7/2022 7:00:00 AM 11.28 52.304 0.134 7.27 305.8 10.46
5/7/2022 7:15:00 AM 11.26 52.268 0.135 7.28 333 10.49
5/7/2022 7:30:00 AM 11.24 52.232 0.135 7.29 290.9 10.5
5/7/2022 7:45:00 AM 11.22 52.196 0.135 7.29 363.1 10.51
5/7/2022 8:00:00 AM 11.21 52.178 0.135 7.28 338.3 10.53
5/7/2022 8:15:00 AM 11.19 52.142 0.135 7.3 508.1 10.53
5/7/2022 8:30:00 AM 11.18 52.124 0.135 7.3 397.2 10.54
5/7/2022 8:45:00 AM 11.17 52.106 0.135